Provisional Data: South Branch Tunkhannock Creek near La Plume, PA


Please select a monitoring station.
Please select start date.
Please select start date.

Toggle Unit: C/F Toggle Unit: C/F
Sample Time Temperature (C) Temperature (F) Specific Conductivity (mS/cm) pH   Turbidity (NTU+) DO (mg/L)
10/20/2020 12:00:00 AM 11.27 52.286 0.048 7.34 3.16 8.94
10/20/2020 12:15:00 AM 11.27 52.286 0.048 7.34 3.09 8.93
10/20/2020 12:30:00 AM 11.26 52.268 0.048 7.34 3.14 8.92
10/20/2020 12:45:00 AM 11.28 52.304 0.048 7.34 3.11 8.92
10/20/2020 1:00:00 AM 11.3 52.34 0.048 7.33 3.11 8.9
10/20/2020 1:15:00 AM 11.32 52.376 0.047 7.34 3.14 8.91
10/20/2020 1:30:00 AM 11.34 52.412 0.047 7.34 3.11 8.89
10/20/2020 1:45:00 AM 11.36 52.448 0.047 7.34 3.13 8.9
10/20/2020 2:00:00 AM 11.39 52.502 0.047 7.34 3.13 8.88
10/20/2020 2:15:00 AM 11.39 52.502 0.047 7.34 3.18 8.87
10/20/2020 2:30:00 AM 11.41 52.538 0.047 7.34 3.11 8.89
10/20/2020 2:45:00 AM 11.42 52.556 0.047 7.34 3.12 8.86
10/20/2020 3:00:00 AM 11.44 52.592 0.047 7.34 3.1 8.86
10/20/2020 3:15:00 AM 11.47 52.646 0.047 7.34 3.11 8.85
10/20/2020 3:30:00 AM 11.49 52.682 0.047 7.34 3.11 8.83
10/20/2020 3:45:00 AM 11.52 52.736 0.047 7.34 3.06 8.84
10/20/2020 4:00:00 AM 11.55 52.79 0.047 7.34 3.05 8.82
10/20/2020 4:15:00 AM 11.55 52.79 0.047 7.34 3.13 8.82
10/20/2020 4:30:00 AM 11.55 52.79 0.047 7.34 3.03 8.82
10/20/2020 4:45:00 AM 11.57 52.826 0.047 7.34 3.07 8.79
10/20/2020 5:00:00 AM 11.58 52.844 0.047 7.34 3.11 8.8
10/20/2020 5:15:00 AM 11.59 52.862 0.046 7.34 3.1 8.8
10/20/2020 5:30:00 AM 11.59 52.862 0.046 7.34 3.04 8.79
10/20/2020 5:45:00 AM 11.6 52.88 0.046 7.34 3.12 8.79
10/20/2020 6:00:00 AM 11.62 52.916 0.046 7.34 3.05 8.79
10/20/2020 6:15:00 AM 11.64 52.952 0.046 7.34 3.09 8.77
10/20/2020 6:30:00 AM 11.65 52.97 0.046 7.34 3.07 8.79
10/20/2020 6:45:00 AM 11.67 53.006 0.046 7.34 3.12 8.8
10/20/2020 7:00:00 AM 11.67 53.006 0.046 7.34 3.03 8.78
10/20/2020 7:15:00 AM 11.67 53.006 0.046 7.34 3.02 8.79
10/20/2020 7:30:00 AM 11.68 53.024 0.046 7.34 3.06 8.8
10/20/2020 7:45:00 AM 11.7 53.06 0.046 7.35 3.03 8.83
10/20/2020 8:00:00 AM 11.73 53.114 0.046 7.35 3.56 8.93
10/20/2020 8:15:00 AM 11.76 53.168 0.046 7.36 3.03 9.03
10/20/2020 8:30:00 AM 11.81 53.258 0.046 7.38 3.02 9.27
10/20/2020 8:45:00 AM 11.87 53.366 0.046 7.44 3.02 9.67
10/20/2020 9:00:00 AM 11.95 53.51 0.046 7.49 3.01 10.08
10/20/2020 9:15:00 AM 12.03 53.654 0.046 7.53 3 10.29
10/20/2020 9:30:00 AM 12.08 53.744 0.047 7.55 3.01 10.38
10/20/2020 9:45:00 AM 12.13 53.834 0.047 7.57 2.94 10.49
10/20/2020 10:00:00 AM 12.2 53.96 0.047 7.61 2.9 10.72
10/20/2020 10:15:00 AM 12.26 54.068 0.047 7.65 2.92 10.9
10/20/2020 10:30:00 AM 12.31 54.158 0.047 7.68 2.91 10.99
10/20/2020 10:45:00 AM 12.35 54.23 0.047 7.68 2.94 10.95
10/20/2020 11:00:00 AM 12.38 54.284 0.047 7.69 2.95 10.99
10/20/2020 11:15:00 AM 12.45 54.41 0.047 7.75 2.89 11.21
10/20/2020 11:30:00 AM 12.52 54.536 0.047 7.8 2.96 11.44
10/20/2020 11:45:00 AM 12.66 54.788 0.047 7.91 2.87 11.88
10/20/2020 12:00:00 PM 12.82 55.076 0.048 8.05 3.01 12.36
10/20/2020 12:15:00 PM 12.98 55.364 0.048 8.18 2.9 12.7
10/20/2020 12:30:00 PM 13.1 55.58 0.049 8.26 2.85 12.89
10/20/2020 12:45:00 PM 13.2 55.76 0.049 8.32 3.04 13.01
10/20/2020 1:00:00 PM 13.33 55.994 0.049 8.41 2.88 13.22
10/20/2020 1:15:00 PM 13.42 56.156 0.049 8.46 2.93 13.3
10/20/2020 1:30:00 PM 13.46 56.228 0.05 8.44 2.92 13.11
10/20/2020 1:45:00 PM 13.48 56.264 0.05 8.44 3.03 13.01
10/20/2020 2:00:00 PM 13.52 56.336 0.05 8.45 2.91 12.99
10/20/2020 2:15:00 PM 13.5 56.3 0.049 8.39 2.94 12.63
10/20/2020 2:30:00 PM 13.48 56.264 0.049 8.31 2.88 12.28
10/20/2020 2:45:00 PM 13.52 56.336 0.049 8.33 2.93 12.34
10/20/2020 3:00:00 PM 13.59 56.462 0.049 8.38 2.88 12.46
10/20/2020 3:15:00 PM 13.67 56.606 0.049 8.43 2.92 12.59
10/20/2020 3:30:00 PM 13.73 56.714 0.049 8.45 2.98 12.63
10/20/2020 3:45:00 PM 13.75 56.75 0.049 8.42 2.91 12.44
10/20/2020 4:00:00 PM 13.76 56.768 0.049 8.37 2.91 12.23
10/20/2020 4:15:00 PM 13.83 56.894 0.049 8.37 2.97 12.23
10/20/2020 4:30:00 PM 13.87 56.966 0.049 8.4 2.83 12.31
10/20/2020 4:45:00 PM 13.89 57.002 0.048 8.39 2.96 12.22
10/20/2020 5:00:00 PM 13.87 56.966 0.048 8.33 2.93 11.98
10/20/2020 5:15:00 PM 13.84 56.912 0.048 8.2 2.87 11.53
10/20/2020 5:30:00 PM 13.81 56.858 0.048 8.09 2.96 11.17
10/20/2020 5:45:00 PM 13.78 56.804 0.047 7.96 3.06 10.76
10/20/2020 6:00:00 PM 13.76 56.768 0.047 7.86 3.09 10.42
10/20/2020 6:15:00 PM 13.74 56.732 0.047 7.77 3.02 10.07
10/20/2020 6:30:00 PM 13.72 56.696 0.047 7.69 2.91 9.78
10/20/2020 6:45:00 PM 13.7 56.66 0.046 7.64 2.95 9.54
10/20/2020 7:00:00 PM 13.68 56.624 0.046 7.59 2.92 9.34
10/20/2020 7:15:00 PM 13.67 56.606 0.046 7.55 2.97 9.17
10/20/2020 7:30:00 PM 13.65 56.57 0.045 7.52 2.96 9.05
10/20/2020 7:45:00 PM 13.64 56.552 0.046 7.49 3 8.94
10/20/2020 8:00:00 PM 13.62 56.516 0.045 7.47 3 8.83
10/20/2020 8:15:00 PM 13.62 56.516 0.045 7.44 2.9 8.71
10/20/2020 8:30:00 PM 13.61 56.498 0.045 7.44 2.96 8.66
10/20/2020 8:45:00 PM 13.6 56.48 0.045 7.43 3.11 8.59
10/20/2020 9:00:00 PM 13.58 56.444 0.045 7.42 2.97 8.54
10/20/2020 9:15:00 PM 13.56 56.408 0.045 7.41 2.98 8.51
10/20/2020 9:30:00 PM 13.53 56.354 0.045 7.39 3.07 8.44
10/20/2020 9:45:00 PM 13.49 56.282 0.045 7.39 2.96 8.42
10/20/2020 10:00:00 PM 13.46 56.228 0.044 7.38 3.07 8.4
10/20/2020 10:15:00 PM 13.44 56.192 0.044 7.37 3 8.36
10/20/2020 10:30:00 PM 13.43 56.174 0.044 7.37 3 8.35
10/20/2020 10:45:00 PM 13.41 56.138 0.044 7.36 2.95 8.33
10/20/2020 11:00:00 PM 13.39 56.102 0.044 7.35 2.96 8.3
10/20/2020 11:15:00 PM 13.36 56.048 0.043 7.35 3.01 8.3
10/20/2020 11:30:00 PM 13.34 56.012 0.044 7.35 3.02 8.27
10/20/2020 11:45:00 PM 13.32 55.976 0.044 7.34 3.04 8.27
10/21/2020 12:00:00 AM 13.3 55.94 0.043 7.34 2.92 8.27
10/21/2020 12:15:00 AM 13.28 55.904 0.043 7.34 2.99 8.28
10/21/2020 12:30:00 AM 13.26 55.868 0.043 7.34 3.04 8.27
10/21/2020 12:45:00 AM 13.24 55.832 0.043 7.34 3.11 8.27
10/21/2020 1:00:00 AM 13.2 55.76 0.043 7.32 3 8.25
10/21/2020 1:15:00 AM 13.17 55.706 0.043 7.33 3.1 8.24
10/21/2020 1:30:00 AM 13.14 55.652 0.042 7.33 3.01 8.26
10/21/2020 1:45:00 AM 13.12 55.616 0.042 7.32 3.13 8.25
10/21/2020 2:00:00 AM 13.1 55.58 0.043 7.32 3.09 8.23
10/21/2020 2:15:00 AM 13.09 55.562 0.043 7.32 3.09 8.25
10/21/2020 2:30:00 AM 13.08 55.544 0.043 7.32 3.02 8.23
10/21/2020 2:45:00 AM 13.06 55.508 0.042 7.32 3.01 8.25
10/21/2020 3:00:00 AM 13.05 55.49 0.042 7.32 3.06 8.25
10/21/2020 3:15:00 AM 13.04 55.472 0.042 7.31 2.96 8.23
10/21/2020 3:30:00 AM 13.03 55.454 0.042 7.32 2.98 8.25
10/21/2020 3:45:00 AM 13.01 55.418 0.042 7.32 3.03 8.27
10/21/2020 4:00:00 AM 12.99 55.382 0.042 7.32 2.97 8.28
10/21/2020 4:15:00 AM 12.97 55.346 0.042 7.32 5.17 8.28
10/21/2020 4:30:00 AM 12.93 55.274 0.042 7.32 3.01 8.31
10/21/2020 4:45:00 AM 12.89 55.202 0.042 7.32 2.96 8.28
10/21/2020 5:00:00 AM 12.87 55.166 0.042 7.32 3.05 8.31
10/21/2020 5:15:00 AM 12.86 55.148 0.042 7.32 3.06 8.33
10/21/2020 5:30:00 AM 12.84 55.112 0.042 7.32 3.04 8.3
10/21/2020 5:45:00 AM 12.83 55.094 0.042 7.31 3 8.31
10/21/2020 6:00:00 AM 12.79 55.022 0.042 7.31 3.04 8.32
10/21/2020 6:15:00 AM 12.74 54.932 0.041 7.32 2.98 8.36
10/21/2020 6:30:00 AM 12.68 54.824 0.041 7.32 2.9 8.38
10/21/2020 6:45:00 AM 12.62 54.716 0.041 7.32 2.96 8.39
10/21/2020 7:00:00 AM 12.58 54.644 0.041 7.32 2.98 8.4
10/21/2020 7:15:00 AM 12.54 54.572 0.041 7.32 3.06 8.39
10/21/2020 7:30:00 AM 12.52 54.536 0.041 7.32 3.07 8.43
10/21/2020 7:45:00 AM 12.53 54.554 0.041 7.31 3.09 8.42
10/21/2020 8:00:00 AM 12.55 54.59 0.041 7.33 3.12 8.62
10/21/2020 8:15:00 AM 12.57 54.626 0.041 7.36 3.24 8.89
10/21/2020 8:30:00 AM 12.58 54.644 0.041 7.38 3.04 9.08
10/21/2020 8:45:00 AM 12.62 54.716 0.041 7.4 6.05 9.15
10/21/2020 9:00:00 AM 12.68 54.824 0.041 7.4 5.69 9.27
10/21/2020 9:15:00 AM 12.76 54.968 0.042 7.45 3.18 9.66
10/21/2020 9:30:00 AM 12.84 55.112 0.042 7.49 3.11 9.96
10/21/2020 9:45:00 AM 12.98 55.364 0.042 7.58 3.12 10.53
10/21/2020 10:00:00 AM 13.1 55.58 0.043 7.66 3.16 10.94
10/21/2020 10:15:00 AM 13.17 55.706 0.043 7.71 2.96 11.12
10/21/2020 10:30:00 AM 13.26 55.868 0.043 7.75 3.05 11.3
10/21/2020 10:45:00 AM 13.41 56.138 0.043 7.84 4.31 11.64
10/21/2020 11:00:00 AM 13.61 56.498 0.044 7.96 3.08 12.04
10/21/2020 11:15:00 AM 13.86 56.948 0.045 8.08 3.2 12.42
10/21/2020 11:30:00 AM 14.1 57.38 0.045 8.19 3.03 12.74
10/21/2020 11:45:00 AM 14.29 57.722 0.045 8.26 3.51 12.9
10/21/2020 12:00:00 PM 14.4 57.92 0.045 8.3 3.88 12.9
10/21/2020 12:15:00 PM 14.61 58.298 0.046 8.39 3.11 13.12
10/21/2020 12:30:00 PM 14.82 58.676 0.046 8.48 3.1 13.23
10/21/2020 12:45:00 PM 15.03 59.054 0.047 8.52 3.61 13.35
10/21/2020 1:00:00 PM 15.22 59.396 0.047 8.56 3.1 13.39
10/21/2020 1:15:00 PM 15.34 59.612 0.047 8.62 3.02 13.42
10/21/2020 1:30:00 PM 15.46 59.828 0.047 8.62 2.99 13.36
10/21/2020 1:45:00 PM 15.62 60.116 0.048 8.64 2.99 13.29
10/21/2020 2:00:00 PM 15.75 60.35 0.048 8.64 2.94 13.18
10/21/2020 2:15:00 PM 15.88 60.584 0.048 8.65 2.9 13.13
10/21/2020 2:30:00 PM 15.99 60.782 0.048 8.65 2.93 13
10/21/2020 2:45:00 PM 16.1 60.98 0.048 8.63 2.82 12.89
10/21/2020 3:00:00 PM 16.22 61.196 0.048 8.66 3 12.87
10/21/2020 3:15:00 PM 16.29 61.322 0.048 8.66 2.95 12.75
10/21/2020 3:30:00 PM 16.34 61.412 0.048 8.62 2.92 12.58
10/21/2020 3:45:00 PM 16.37 61.466 0.048 8.58 3.13 12.24
10/21/2020 4:00:00 PM 16.41 61.538 0.048 8.52 3.68 11.91
10/21/2020 4:15:00 PM 16.47 61.646 0.047 8.5 3.14 11.81
10/21/2020 4:30:00 PM 16.57 61.826 0.048 8.5 3.1 11.79
10/21/2020 4:45:00 PM 16.64 61.952 0.048 8.49 2.88 11.64
10/21/2020 5:00:00 PM 16.67 62.006 0.048 8.43 2.85 11.39
10/21/2020 5:15:00 PM 16.65 61.97 0.047 8.33 2.81 11.02
10/21/2020 5:30:00 PM 16.6 61.88 0.047 8.22 2.94 10.68
10/21/2020 5:45:00 PM 16.54 61.772 0.047 8.12 2.91 10.34
10/21/2020 6:00:00 PM 16.48 61.664 0.046 8 2.98 9.96
10/21/2020 6:15:00 PM 16.4 61.52 0.045 7.88 2.96 9.61
10/21/2020 6:30:00 PM 16.31 61.358 0.045 7.79 2.88 9.24
10/21/2020 6:45:00 PM 16.22 61.196 0.044 7.7 3.02 8.9
10/21/2020 7:00:00 PM 16.14 61.052 0.044 7.63 3 8.63
10/21/2020 7:15:00 PM 16.05 60.89 0.043 7.58 2.99 8.42
10/21/2020 7:30:00 PM 15.97 60.746 0.043 7.54 3.03 8.29
10/21/2020 7:45:00 PM 15.9 60.62 0.042 7.5 3.03 8.15
10/21/2020 8:00:00 PM 15.84 60.512 0.042 7.47 3.08 8.03
10/21/2020 8:15:00 PM 15.78 60.404 0.041 7.45 2.99 7.95
10/21/2020 8:30:00 PM 15.72 60.296 0.041 7.42 3.16 7.84
10/21/2020 8:45:00 PM 15.67 60.206 0.041 7.41 3.1 7.78
10/21/2020 9:00:00 PM 15.62 60.116 0.041 7.39 2.96 7.73
10/21/2020 9:15:00 PM 15.57 60.026 0.041 7.38 3 7.68
10/21/2020 9:30:00 PM 15.51 59.918 0.041 7.37 3.04 7.65
10/21/2020 9:45:00 PM 15.46 59.828 0.04 7.35 2.95 7.6
10/21/2020 10:00:00 PM 15.41 59.738 0.04 7.34 3 7.56
10/21/2020 10:15:00 PM 15.35 59.63 0.04 7.33 2.98 7.56
10/21/2020 10:30:00 PM 15.28 59.504 0.04 7.33 2.9 7.57
10/21/2020 10:45:00 PM 15.22 59.396 0.04 7.32 2.95 7.52
10/21/2020 11:00:00 PM 15.14 59.252 0.04 7.31 3.01 7.53
10/21/2020 11:15:00 PM 15.08 59.144 0.04 7.31 2.96 7.55
10/21/2020 11:30:00 PM 15.02 59.036 0.04 7.3 2.94 7.53
10/21/2020 11:45:00 PM 14.97 58.946 0.039 7.3 2.91 7.53
10/22/2020 12:00:00 AM 14.91 58.838 0.039 7.29 3.05 7.52
10/22/2020 12:15:00 AM 14.84 58.712 0.039 7.28 2.99 7.45
10/22/2020 12:30:00 AM 14.78 58.604 0.039 7.28 3.16 7.51
10/22/2020 12:45:00 AM 14.73 58.514 0.039 7.28 3.06 7.56
10/22/2020 1:00:00 AM 14.68 58.424 0.039 7.28 3.01 7.56
10/22/2020 1:15:00 AM 14.66 58.388 0.039 7.27 3.01 7.56
10/22/2020 1:30:00 AM 14.64 58.352 0.039 7.27 3.07 7.57
10/22/2020 1:45:00 AM 14.62 58.316 0.039 7.27 3.06 7.59
10/22/2020 2:00:00 AM 14.59 58.262 0.039 7.26 3.06 7.56
10/22/2020 2:15:00 AM 14.53 58.154 0.039 7.27 3.04 7.58
10/22/2020 2:30:00 AM 14.48 58.064 0.039 7.27 3.04 7.6
10/22/2020 2:45:00 AM 14.44 57.992 0.039 7.26 2.98 7.65
10/22/2020 3:00:00 AM 14.41 57.938 0.039 7.27 2.97 7.65
10/22/2020 3:15:00 AM 14.37 57.866 0.039 7.26 2.96 7.65
10/22/2020 3:30:00 AM 14.32 57.776 0.039 7.26 3.1 7.67
10/22/2020 3:45:00 AM 14.3 57.74 0.039 7.26 3.06 7.65
10/22/2020 4:00:00 AM 14.29 57.722 0.039 7.26 2.98 7.66
10/22/2020 4:15:00 AM 14.27 57.686 0.039 7.26 3.07 7.7
10/22/2020 4:30:00 AM 14.26 57.668 0.039 7.26 3.1 7.7
10/22/2020 4:45:00 AM 14.24 57.632 0.038 7.26 3.11 7.71
10/22/2020 5:00:00 AM 14.24 57.632 0.039 7.26 3.12 7.72
10/22/2020 5:15:00 AM 14.23 57.614 0.039 7.26 3.06 7.76
10/22/2020 5:30:00 AM 14.21 57.578 0.038 7.26 3.07 7.77
10/22/2020 5:45:00 AM 14.19 57.542 0.038 7.26 3.07 7.77
10/22/2020 6:00:00 AM 14.17 57.506 0.039 7.26 3.05 7.76
10/22/2020 6:15:00 AM 14.13 57.434 0.039 7.26 3.03 7.81
10/22/2020 6:30:00 AM 14.09 57.362 0.039 7.26 3.09 7.83
10/22/2020 6:45:00 AM 14.07 57.326 0.039 7.26 3.06 7.83
10/22/2020 7:00:00 AM 14.07 57.326 0.039 7.27 3.04 7.83
10/22/2020 7:15:00 AM 14.08 57.344 0.039 7.27 2.99 7.84
10/22/2020 7:30:00 AM 14.08 57.344 0.039 7.26 3.01 7.84
10/22/2020 7:45:00 AM 14.09 57.362 0.038 7.26 3.07 7.84
10/22/2020 8:00:00 AM 14.09 57.362 0.039 7.27 2.96 7.93
10/22/2020 8:15:00 AM 14.1 57.38 0.039 7.28 3.01 8.04
10/22/2020 8:30:00 AM 14.11 57.398 0.039 7.3 3.09 8.2
10/22/2020 8:45:00 AM 14.14 57.452 0.039 7.32 3.07 8.45
10/22/2020 9:00:00 AM 14.16 57.488 0.039 7.34 3.07 8.75
10/22/2020 9:15:00 AM 14.21 57.578 0.038 7.38 3.11 9.13
10/22/2020 9:30:00 AM 14.25 57.65 0.039 7.42 2.93 9.37
10/22/2020 9:45:00 AM 14.29 57.722 0.04 7.45 2.94 9.55
10/22/2020 10:00:00 AM 14.32 57.776 0.04 7.46 2.99 9.62
10/22/2020 10:15:00 AM 14.36 57.848 0.04 7.5 2.97 9.84
10/22/2020 10:30:00 AM 14.41 57.938 0.041 7.54 2.97 10.05
10/22/2020 10:45:00 AM 14.48 58.064 0.041 7.59 2.93 10.41
10/22/2020 11:00:00 AM 14.6 58.28 0.041 7.68 2.95 10.85
10/22/2020 11:15:00 AM 14.78 58.604 0.041 7.81 3.03 11.37
10/22/2020 11:30:00 AM 14.97 58.946 0.042 7.9 2.93 11.73
10/22/2020 11:45:00 AM 15.2 59.36 0.043 8.03 2.9 12.08
10/22/2020 12:00:00 PM 15.33 59.594 0.043 8.09 2.94 12.1
10/22/2020 12:15:00 PM 15.46 59.828 0.043 8.11 2.92 12.08
10/22/2020 12:30:00 PM 15.56 60.008 0.044 8.18 3.02 12.05
10/22/2020 12:45:00 PM 15.68 60.224 0.043 8.2 2.99 12.15
10/22/2020 1:00:00 PM 15.8 60.44 0.044 8.23 2.86 12.18
10/22/2020 1:15:00 PM 15.96 60.728 0.044 8.26 2.85 12.26
10/22/2020 1:30:00 PM 16.11 60.998 0.044 8.34 2.86 12.35
10/22/2020 1:45:00 PM 16.27 61.286 0.044 8.39 2.89 12.42
10/22/2020 2:00:00 PM 16.41 61.538 0.044 8.41 2.89 12.4
10/22/2020 2:15:00 PM 16.56 61.808 0.045 8.45 2.96 12.37
10/22/2020 2:30:00 PM 16.72 62.096 0.045 8.48 2.84 12.45
10/22/2020 2:45:00 PM 16.8 62.24 0.045 8.44 2.89 12.29
10/22/2020 3:00:00 PM 16.97 62.546 0.045 8.53 2.93 12.34
10/22/2020 3:15:00 PM 17.09 62.762 0.045 8.52 2.85 12.25
10/22/2020 3:30:00 PM 17.19 62.942 0.046 8.49 2.9 11.99
10/22/2020 3:45:00 PM 17.26 63.068 0.045 8.43 2.94 11.7
10/22/2020 4:00:00 PM 17.36 63.248 0.046 8.41 2.8 11.51
10/22/2020 4:15:00 PM 17.37 63.266 0.045 8.33 2.77 11.16
10/22/2020 4:30:00 PM 17.39 63.302 0.045 8.24 2.89 10.76
10/22/2020 4:45:00 PM 17.4 63.32 0.045 8.15 2.96 10.43
10/22/2020 5:00:00 PM 17.39 63.302 0.045 8.05 2.78 10.22
10/22/2020 5:15:00 PM 17.35 63.23 0.044 7.98 2.9 9.9
10/22/2020 5:30:00 PM 17.32 63.176 0.045 7.9 2.91 9.57
10/22/2020 5:45:00 PM 17.28 63.104 0.044 7.81 2.84 9.28
10/22/2020 6:00:00 PM 17.22 62.996 0.044 7.71 2.8 8.92
10/22/2020 6:15:00 PM 17.15 62.87 0.044 7.65 2.8 8.66
10/22/2020 6:30:00 PM 17.11 62.798 0.043 7.59 2.86 8.4
10/22/2020 6:45:00 PM 17.04 62.672 0.043 7.54 3.18 8.2
10/22/2020 7:00:00 PM 16.97 62.546 0.042 7.5 2.92 8.01
10/22/2020 7:15:00 PM 16.89 62.402 0.042 7.46 2.96 7.83
10/22/2020 7:30:00 PM 16.83 62.294 0.042 7.44 2.9 7.72
10/22/2020 7:45:00 PM 16.75 62.15 0.042 7.41 2.89 7.63
10/22/2020 8:00:00 PM 16.69 62.042 0.041 7.4 2.88 7.54
10/22/2020 8:15:00 PM 16.62 61.916 0.042 7.38 2.87 7.44
10/22/2020 8:30:00 PM 16.54 61.772 0.041 7.36 2.9 7.33
10/22/2020 8:45:00 PM 16.47 61.646 0.041 7.35 3.06 7.35
10/22/2020 9:00:00 PM 16.38 61.484 0.041 7.34 2.94 7.28
10/22/2020 9:15:00 PM 16.31 61.358 0.041 7.34 3.02 7.26
10/22/2020 9:30:00 PM 16.23 61.214 0.041 7.32 2.9 7.29
10/22/2020 9:45:00 PM 16.14 61.052 0.04 7.32 3 7.27
10/22/2020 10:00:00 PM 16.06 60.908 0.04 7.32 2.96 7.27
10/22/2020 10:15:00 PM 15.97 60.746 0.04 7.31 3.13 7.22
10/22/2020 10:30:00 PM 15.89 60.602 0.04 7.3 2.97 7.24
10/22/2020 10:45:00 PM 15.8 60.44 0.039 7.29 2.97 7.28
10/22/2020 11:00:00 PM 15.71 60.278 0.039 7.29 3.08 7.27
10/22/2020 11:15:00 PM 15.62 60.116 0.04 7.29 3.03 7.31
10/22/2020 11:30:00 PM 15.54 59.972 0.039 7.28 2.94 7.28
10/22/2020 11:45:00 PM 15.46 59.828 0.039 7.29 3.08 7.31
10/23/2020 12:00:00 AM 15.36 59.648 0.039 7.28 3.16 7.33
10/23/2020 12:15:00 AM 15.29 59.522 0.039 7.28 3.04 7.35
10/23/2020 12:30:00 AM 15.22 59.396 0.039 7.28 3.1 7.33
10/23/2020 12:45:00 AM 15.13 59.234 0.039 7.28 3.07 7.38
10/23/2020 1:00:00 AM 15.04 59.072 0.039 7.27 3.04 7.4
10/23/2020 1:15:00 AM 14.97 58.946 0.039 7.27 3.09 7.4
10/23/2020 1:30:00 AM 14.89 58.802 0.039 7.27 3.07 7.43
10/23/2020 1:45:00 AM 14.82 58.676 0.039 7.27 3.22 7.47
10/23/2020 2:00:00 AM 14.76 58.568 0.039 7.27 3.04 7.47
10/23/2020 2:15:00 AM 14.72 58.496 0.039 7.27 3.18 7.49
10/23/2020 2:30:00 AM 14.67 58.406 0.04 7.27 3.09 7.52
10/23/2020 2:45:00 AM 14.63 58.334 0.04 7.27 3.2 7.51
10/23/2020 3:00:00 AM 14.61 58.298 0.04 7.27 3.19 7.54
10/23/2020 3:15:00 AM 14.57 58.226 0.04 7.26 3.11 7.51
10/23/2020 3:30:00 AM 14.53 58.154 0.04 7.26 3.15 7.54
10/23/2020 3:45:00 AM 14.47 58.046 0.04 7.27 3.07 7.57
10/23/2020 4:00:00 AM 14.42 57.956 0.04 7.27 3.06 7.6
10/23/2020 4:15:00 AM 14.41 57.938 0.04 7.26 3.11 7.57
10/23/2020 4:30:00 AM 14.41 57.938 0.041 7.26 3.24 7.59
10/23/2020 4:45:00 AM 14.4 57.92 0.041 7.26 3 7.62
10/23/2020 5:00:00 AM 14.39 57.902 0.042 7.27 3.19 7.63
10/23/2020 5:15:00 AM 14.39 57.902 0.042 7.27 3.06 7.64
10/23/2020 5:30:00 AM 14.38 57.884 0.042 7.27 3.03 7.63
10/23/2020 5:45:00 AM 14.37 57.866 0.042 7.26 3.03 7.63
10/23/2020 6:00:00 AM 14.37 57.866 0.042 7.27 3.12 7.66
10/23/2020 6:15:00 AM 14.37 57.866 0.043 7.27 3.04 7.68
10/23/2020 6:30:00 AM 14.36 57.848 0.043 7.27 3.04 7.68
10/23/2020 6:45:00 AM 14.35 57.83 0.043 7.27 3.04 7.67
10/23/2020 7:00:00 AM 14.33 57.794 0.043 7.27 3.01 7.68
10/23/2020 7:15:00 AM 14.31 57.758 0.044 7.27 3.01 7.68
10/23/2020 7:30:00 AM 14.29 57.722 0.044 7.27 3.01 7.69
10/23/2020 7:45:00 AM 14.29 57.722 0.044 7.27 3 7.73
10/23/2020 8:00:00 AM 14.3 57.74 0.045 7.28 3.05 7.86
10/23/2020 8:15:00 AM 14.26 57.668 0.045 7.29 2.99 8.05
10/23/2020 8:30:00 AM 14.23 57.614 0.045 7.32 3.06 8.29
10/23/2020 8:45:00 AM 14.21 57.578 0.045 7.35 2.97 8.58
10/23/2020 9:00:00 AM 14.21 57.578 0.045 7.37 2.91 8.77
10/23/2020 9:15:00 AM 14.21 57.578 0.044 7.39 3 8.96
10/23/2020 9:30:00 AM 14.25 57.65 0.045 7.43 2.91 9.18
10/23/2020 9:45:00 AM 14.32 57.776 0.044 7.47 2.91 9.46
10/23/2020 10:00:00 AM 14.41 57.938 0.045 7.5 2.96 9.69
10/23/2020 10:15:00 AM 14.55 58.19 0.046 7.57 3.07 10.03
10/23/2020 10:30:00 AM 14.71 58.478 0.046 7.63 3.03 10.45
10/23/2020 10:45:00 AM 14.81 58.658 0.047 7.7 3.14 10.63
10/23/2020 11:00:00 AM 14.94 58.892 0.047 7.75 3 10.84
10/23/2020 11:15:00 AM 15.06 59.108 0.047 7.81 2.99 10.97
10/23/2020 11:30:00 AM 15.23 59.414 0.048 7.88 2.92 11.22
10/23/2020 11:45:00 AM 15.4 59.72 0.048 7.98 2.89 11.52
10/23/2020 12:00:00 PM 15.59 60.062 0.049 8.12 2.94 11.8
10/23/2020 12:15:00 PM 15.79 60.422 0.05 8.23 2.82 12.22
10/23/2020 12:30:00 PM 15.97 60.746 0.05 8.3 2.86 12.42
10/23/2020 12:45:00 PM 16.12 61.016 0.05 8.36 2.99 12.54
10/23/2020 1:00:00 PM 16.29 61.322 0.05 8.43 2.96 12.66
10/23/2020 1:15:00 PM 16.49 61.682 0.051 8.51 3.03 12.81
10/23/2020 1:30:00 PM 16.71 62.078 0.05 8.54 3.12 12.95
10/23/2020 1:45:00 PM 16.95 62.51 0.052 8.6 3.11 13.08
10/23/2020 2:00:00 PM 17.09 62.762 0.052 8.63 2.84 13.08
10/23/2020 2:15:00 PM 17.17 62.906 0.052 8.64 2.84 12.94
10/23/2020 2:30:00 PM 17.35 63.23 0.052 8.69 3.06 13.11
10/23/2020 2:45:00 PM 17.53 63.554 0.052 8.72 2.83 13.2
10/23/2020 3:00:00 PM 17.64 63.752 0.052 8.72 2.87 13.24
10/23/2020 3:15:00 PM 17.64 63.752 0.051 8.75 2.75 13.02
10/23/2020 3:30:00 PM 17.65 63.77 0.051 8.74 2.83 12.93
10/23/2020 3:45:00 PM 17.63 63.734 0.051 8.71 2.77 12.68
10/23/2020 4:00:00 PM 17.62 63.716 0.051 8.69 2.91 12.52
10/23/2020 4:15:00 PM 17.6 63.68 0.05 8.63 2.73 12.2
10/23/2020 4:30:00 PM 17.54 63.572 0.05 8.51 2.76 11.57
10/23/2020 4:45:00 PM 17.51 63.518 0.05 8.48 2.81 11.36
10/23/2020 5:00:00 PM 17.5 63.5 0.05 8.44 2.69 11.28
10/23/2020 5:15:00 PM 17.43 63.374 0.05 8.33 2.76 10.83
10/23/2020 5:30:00 PM 17.35 63.23 0.049 8.2 2.8 10.35
10/23/2020 5:45:00 PM 17.27 63.086 0.049 8.05 2.88 9.88
10/23/2020 6:00:00 PM 17.19 62.942 0.049 7.94 2.99 9.49
10/23/2020 6:15:00 PM 17.1 62.78 0.048 7.82 2.92 9.15
10/23/2020 6:30:00 PM 17 62.6 0.047 7.73 2.71 8.78
10/23/2020 6:45:00 PM 16.92 62.456 0.047 7.65 2.77 8.52
10/23/2020 7:00:00 PM 16.84 62.312 0.046 7.61 2.91 8.3
10/23/2020 7:15:00 PM 16.76 62.168 0.046 7.55 2.92 8.08
10/23/2020 7:30:00 PM 16.66 61.988 0.046 7.52 2.92 7.95
10/23/2020 7:45:00 PM 16.57 61.826 0.046 7.49 2.85 7.83
10/23/2020 8:00:00 PM 16.47 61.646 0.046 7.46 2.9 7.69
10/23/2020 8:15:00 PM 16.38 61.484 0.046 7.43 2.74 7.64
10/23/2020 8:30:00 PM 16.3 61.34 0.046 7.41 2.86 7.55
10/23/2020 8:45:00 PM 16.21 61.178 0.045 7.4 2.99 7.46
10/23/2020 9:00:00 PM 16.13 61.034 0.045 7.38 2.99 7.41
10/23/2020 9:15:00 PM 16.04 60.872 0.045 7.37 3.02 7.34
10/23/2020 9:30:00 PM 15.96 60.728 0.044 7.36 3.02 7.33
10/23/2020 9:45:00 PM 15.89 60.602 0.044 7.34 3 7.21
10/23/2020 10:00:00 PM 15.82 60.476 0.043 7.33 2.93 7.13
10/23/2020 10:15:00 PM 15.79 60.422 0.044 7.32 3.1 7.04
10/23/2020 10:30:00 PM 15.77 60.386 0.043 7.31 2.96 7.15
10/23/2020 10:45:00 PM 15.75 60.35 0.043 7.3 3.04 7.14
10/23/2020 11:00:00 PM 15.71 60.278 0.044 7.3 2.92 7.13
10/23/2020 11:15:00 PM 15.65 60.17 0.044 7.29 2.99 7.09
10/23/2020 11:30:00 PM 15.59 60.062 0.043 7.29 2.92 7.05
10/23/2020 11:45:00 PM 15.53 59.954 0.043 7.28 2.93 7.04
10/24/2020 12:00:00 AM 15.5 59.9 0.044 7.28 2.91 7.09
10/24/2020 12:15:00 AM 15.47 59.846 0.044 7.28 2.87 7.01
10/24/2020 12:30:00 AM 15.43 59.774 0.044 7.27 2.92 7.05
10/24/2020 12:45:00 AM 15.4 59.72 0.044 7.27 2.82 7.09
10/24/2020 1:00:00 AM 15.39 59.702 0.043 7.27 2.95 7.12
10/24/2020 1:15:00 AM 15.36 59.648 0.044 7.27 3.05 7.08
10/24/2020 1:30:00 AM 15.33 59.594 0.044 7.27 2.99 7.09
10/24/2020 1:45:00 AM 15.31 59.558 0.044 7.26 2.93 7.09
10/24/2020 2:00:00 AM 15.28 59.504 0.044 7.25 2.96 7.09
10/24/2020 2:15:00 AM 15.24 59.432 0.044 7.25 2.95 7.1
10/24/2020 2:30:00 AM 15.21 59.378 0.044 7.27 3 7.09
10/24/2020 2:45:00 AM 15.19 59.342 0.044 7.26 2.87 7.1
10/24/2020 3:00:00 AM 15.17 59.306 0.044 7.27 2.85 7.15
10/24/2020 3:15:00 AM 15.13 59.234 0.044 7.25 2.94 7.02
10/24/2020 3:30:00 AM 15.1 59.18 0.044 7.26 2.97 7.16
10/24/2020 3:45:00 AM 15.09 59.162 0.044 7.27 3.01 7.19
10/24/2020 4:00:00 AM 15.09 59.162 0.044 7.26 2.88 7.16
10/24/2020 4:15:00 AM 15.09 59.162 0.044 7.26 2.92 7.13
10/24/2020 4:30:00 AM 15.1 59.18 0.043 7.25 2.92 7.13
10/24/2020 4:45:00 AM 15.11 59.198 0.042 7.26 2.92 7.22
10/24/2020 5:00:00 AM 15.11 59.198 0.042 7.25 2.95 7.18
10/24/2020 5:15:00 AM 15.11 59.198 0.043 7.26 2.93 7.2
10/24/2020 5:30:00 AM 15.11 59.198 0.043 7.26 2.88 7.19
10/24/2020 5:45:00 AM 15.11 59.198 0.043 7.25 2.91 7.14
10/24/2020 6:00:00 AM 15.12 59.216 0.043 7.26 2.86 7.18
10/24/2020 6:15:00 AM 15.12 59.216 0.043 7.26 2.87 7.24
10/24/2020 6:30:00 AM 15.13 59.234 0.043 7.26 2.95 7
10/24/2020 6:45:00 AM 15.13 59.234 0.043 7.25 3.45 7.2
10/24/2020 7:00:00 AM 15.14 59.252 0.042 7.26 3.1 7.22
10/24/2020 7:15:00 AM 15.14 59.252 0.042 7.26 2.96 7.23
10/24/2020 7:30:00 AM 15.13 59.234 0.042 7.26 2.85 7.23
10/24/2020 7:45:00 AM 15.12 59.216 0.042 7.27 2.86 7.33
10/24/2020 8:00:00 AM 15.13 59.234 0.043 7.27 2.9 7.41
10/24/2020 8:15:00 AM 15.14 59.252 0.044 7.29 2.84 7.53
10/24/2020 8:30:00 AM 15.15 59.27 0.044 7.3 2.86 7.57
10/24/2020 8:45:00 AM 15.15 59.27 0.044 7.3 2.83 7.59
10/24/2020 9:00:00 AM 15.16 59.288 0.044 7.29 2.83 7.67
10/24/2020 9:15:00 AM 15.16 59.288 0.044 7.32 2.88 7.77
10/24/2020 9:30:00 AM 15.08 59.144 0.045 7.32 2.87 7.75
10/24/2020 9:45:00 AM 15 59 0.045 7.33 2.89 7.8
10/24/2020 10:00:00 AM 14.94 58.892 0.045 7.33 3.6 7.89
10/24/2020 10:15:00 AM 14.89 58.802 0.045 7.35 14.31 8.15
10/24/2020 10:30:00 AM 14.86 58.748 0.045 7.4 3.35 8.45
10/24/2020 10:45:00 AM 14.79 58.622 0.045 7.42 3.05 8.72
10/24/2020 11:00:00 AM 14.76 58.568 0.045 7.44 3.28 8.87
10/24/2020 11:15:00 AM 14.74 58.532 0.046 7.47 3.12 9.14
10/24/2020 11:30:00 AM 14.73 58.514 0.046 7.54 3.13 9.59
10/24/2020 11:45:00 AM 14.76 58.568 0.047 7.64 3.01 10.19
10/24/2020 12:00:00 PM 14.84 58.712 0.048 7.77 3.06 10.78
10/24/2020 12:15:00 PM 14.93 58.874 0.048 7.85 2.93 11.21
10/24/2020 12:30:00 PM 15 59 0.049 7.94 3.06 11.42
10/24/2020 12:45:00 PM 15.02 59.036 0.049 8.02 3.07 11.59
10/24/2020 1:00:00 PM 14.98 58.964 0.049 8.02 2.98 11.54
10/24/2020 1:15:00 PM 14.92 58.856 0.05 8 3.03 11.41
10/24/2020 1:30:00 PM 14.88 58.784 0.049 8.01 3.01 11.41
10/24/2020 1:45:00 PM 14.92 58.856 0.051 8.1 2.91 11.69
10/24/2020 2:00:00 PM 14.91 58.838 0.05 8.15 3.16 11.81
10/24/2020 2:15:00 PM 14.93 58.874 0.051 8.24 2.95 12.07
10/24/2020 2:30:00 PM 14.9 58.82 0.051 8.32 2.92 12.15
10/24/2020 2:45:00 PM 14.92 58.856 0.053 8.35 2.93 12.27
10/24/2020 3:00:00 PM 14.89 58.802 0.054 8.39 2.98 12.39
10/24/2020 3:15:00 PM 14.82 58.676 0.056 8.4 3.02 12.32
10/24/2020 3:30:00 PM 14.71 58.478 0.058 8.39 2.9 12.2
10/24/2020 3:45:00 PM 14.64 58.352 0.059 8.4 2.98 12.16
10/24/2020 4:00:00 PM 14.6 58.28 0.06 8.39 3.01 12.21
10/24/2020 4:15:00 PM 14.55 58.19 0.06 8.42 3.81 12.19
10/24/2020 4:30:00 PM 14.5 58.1 0.061 8.42 2.93 12.16
10/24/2020 4:45:00 PM 14.38 57.884 0.061 8.33 3 11.82
10/24/2020 5:00:00 PM 14.26 57.668 0.062 8.24 2.96 11.52
10/24/2020 5:15:00 PM 14.16 57.488 0.064 8.15 2.95 11.24
10/24/2020 5:30:00 PM 14.07 57.326 0.064 8.07 3.17 10.97
10/24/2020 5:45:00 PM 13.99 57.182 0.064 7.96 2.97 10.63
10/24/2020 6:00:00 PM 13.89 57.002 0.063 7.87 2.92 10.25
10/24/2020 6:15:00 PM 13.81 56.858 0.062 7.78 3 9.94
10/24/2020 6:30:00 PM 13.7 56.66 0.062 7.7 2.96 9.66
10/24/2020 6:45:00 PM 13.6 56.48 0.062 7.64 4.17 9.4
10/24/2020 7:00:00 PM 13.51 56.318 0.063 7.61 2.95 9.24
10/24/2020 7:15:00 PM 13.43 56.174 0.064 7.57 3.03 9.09
10/24/2020 7:30:00 PM 13.34 56.012 0.062 7.55 3.09 8.98
10/24/2020 7:45:00 PM 13.25 55.85 0.062 7.51 3.03 8.86
10/24/2020 8:00:00 PM 13.15 55.67 0.063 7.5 3.04 8.8
10/24/2020 8:15:00 PM 13.05 55.49 0.063 7.48 3.07 8.72
10/24/2020 8:30:00 PM 12.94 55.292 0.063 7.47 3.09 8.66
10/24/2020 8:45:00 PM 12.86 55.148 0.063 7.45 2.99 8.58
10/24/2020 9:00:00 PM 12.77 54.986 0.062 7.44 3.08 8.52
10/24/2020 9:15:00 PM 12.67 54.806 0.062 7.43 3.1 8.5
10/24/2020 9:30:00 PM 12.58 54.644 0.062 7.42 3.1 8.51
10/24/2020 9:45:00 PM 12.5 54.5 0.064 7.41 3.18 8.46
10/24/2020 10:00:00 PM 12.42 54.356 0.063 7.4 3.02 8.43
10/24/2020 10:15:00 PM 12.34 54.212 0.063 7.39 3.06 8.4
10/24/2020 10:30:00 PM 12.3 54.14 0.063 7.39 3.06 8.4
10/24/2020 10:45:00 PM 12.23 54.014 0.062 7.34 3.07 8.39
10/24/2020 11:00:00 PM 12.15 53.87 0.065 7.38 3.09 8.39
10/24/2020 11:15:00 PM 12.1 53.78 0.066 7.36 3.14 8.39
10/24/2020 11:30:00 PM 12.03 53.654 0.066 7.37 3.16 8.39
10/24/2020 11:45:00 PM 11.95 53.51 0.066 7.36 3.09 8.41
10/25/2020 12:00:00 AM 11.9 53.42 0.065 7.36 3.13 8.46
10/25/2020 12:15:00 AM 11.81 53.258 0.065 7.36 3.17 8.46
10/25/2020 12:30:00 AM 11.71 53.078 0.065 7.35 3.12 8.45
10/25/2020 12:45:00 AM 11.62 52.916 0.064 7.35 3.16 8.48
10/25/2020 1:00:00 AM 11.52 52.736 0.063 7.35 3.11 8.48
10/25/2020 1:15:00 AM 11.41 52.538 0.063 7.34 3.08 8.49
10/25/2020 1:30:00 AM 11.32 52.376 0.063 7.34 3.16 8.54
10/25/2020 1:45:00 AM 11.22 52.196 0.064 7.32 3.06 8.57
10/25/2020 2:00:00 AM 11.15 52.07 0.064 7.32 3.11 8.63
10/25/2020 2:15:00 AM 11.08 51.944 0.062 7.31 3.13 8.62
10/25/2020 2:30:00 AM 10.98 51.764 0.066 7.31 3.15 8.65
10/25/2020 2:45:00 AM 10.9 51.62 0.066 7.3 3.11 8.68
10/25/2020 3:00:00 AM 10.8 51.44 0.066 7.29 3.17 8.68
10/25/2020 3:15:00 AM 10.71 51.278 0.067 7.3 3.15 8.77
10/25/2020 3:30:00 AM 10.64 51.152 0.069 7.3 3.08 8.81
10/25/2020 3:45:00 AM 10.54 50.972 0.067 7.29 3.11 8.79
10/25/2020 4:00:00 AM 10.46 50.828 0.066 7.28 3.15 8.82
10/25/2020 4:15:00 AM 10.39 50.702 0.064 7.28 3.18 8.86
10/25/2020 4:30:00 AM 10.3 50.54 0.065 7.28 3.71 8.89
10/25/2020 4:45:00 AM 10.22 50.396 0.065 7.28 3.11 8.93
10/25/2020 5:00:00 AM 10.14 50.252 0.063 7.27 3.2 8.95
10/25/2020 5:15:00 AM 10.05 50.09 0.061 7.27 3.06 8.99
10/25/2020 5:30:00 AM 9.94 49.892 0.062 7.26 3.16 9.04
10/25/2020 5:45:00 AM 9.86 49.748 0.062 7.27 3.15 9.08
10/25/2020 6:00:00 AM 9.79 49.622 0.063 7.27 3.1 9.11
10/25/2020 6:15:00 AM 9.69 49.442 0.06 7.27 3.04 9.12
10/25/2020 6:30:00 AM 9.62 49.316 0.06 7.25 3.17 9.16
10/25/2020 6:45:00 AM 9.52 49.136 0.062 7.26 3.17 9.17
10/25/2020 7:00:00 AM 9.43 48.974 0.062 7.27 3.24 9.23
10/25/2020 7:15:00 AM 9.36 48.848 0.062 7.27 3.26 9.24
10/25/2020 7:30:00 AM 9.27 48.686 0.061 7.27 3.3 9.29
10/25/2020 7:45:00 AM 9.2 48.56 0.06 7.28 3.15 9.36
10/25/2020 8:00:00 AM 9.15 48.47 0.059 7.29 3.17 9.48
10/25/2020 8:15:00 AM 9.11 48.398 0.06 7.33 3.18 9.73
10/25/2020 8:30:00 AM 9.08 48.344 0.06 7.36 3.15 10.06
10/25/2020 8:45:00 AM 9.07 48.326 0.061 7.41 3.14 10.39
10/25/2020 9:00:00 AM 9.07 48.326 0.062 7.46 6.31 10.7
10/25/2020 9:15:00 AM 9.07 48.326 0.063 7.5 3.16 11.04
10/25/2020 9:30:00 AM 9.1 48.38 0.062 7.57 3.13 11.37
10/25/2020 9:45:00 AM 9.14 48.452 0.064 7.63 3.25 11.69
10/25/2020 10:00:00 AM 9.17 48.506 0.064 7.69 3.19 11.92
10/25/2020 10:15:00 AM 9.22 48.596 0.063 7.77 3.04 12.25
10/25/2020 10:30:00 AM 9.26 48.668 0.065 7.84 3.06 12.46
10/25/2020 10:45:00 AM 9.31 48.758 0.065 7.92 3.16 12.63
10/25/2020 11:00:00 AM 9.36 48.848 0.067 8.01 3.12 12.92
10/25/2020 11:15:00 AM 9.42 48.956 0.066 8.08 3.77 13.14
10/25/2020 11:30:00 AM 9.49 49.082 0.068 8.15 3.11 13.29
10/25/2020 11:45:00 AM 9.53 49.154 0.069 8.21 3.1 13.44
10/25/2020 12:00:00 PM 9.59 49.262 0.07 8.29 3.22 13.61
10/25/2020 12:15:00 PM 9.67 49.406 0.07 8.34 3.12 13.72
10/25/2020 12:30:00 PM 9.76 49.568 0.07 8.41 3.14 13.83
10/25/2020 12:45:00 PM 9.85 49.73 0.072 8.47 3.08 13.96
10/25/2020 1:00:00 PM 9.98 49.964 0.073 8.51 3.05 14.1
10/25/2020 1:15:00 PM 10.08 50.144 0.072 8.56 3.13 14.16
10/25/2020 1:30:00 PM 10.18 50.324 0.071 8.61 3.06 14.22
10/25/2020 1:45:00 PM 10.3 50.54 0.072 8.62 3.08 14.23
10/25/2020 2:00:00 PM 10.39 50.702 0.073 8.66 3.07 14.3
10/25/2020 2:15:00 PM 10.48 50.864 0.073 8.68 3.06 14.31
10/25/2020 2:30:00 PM 10.51 50.918 0.073 8.68 3.2 14.25
10/25/2020 2:45:00 PM 10.56 51.008 0.074 8.7 3.13 14.24
10/25/2020 3:00:00 PM 10.72 51.296 0.076 8.75 3.07 14.36
10/25/2020 3:15:00 PM 10.81 51.458 0.077 8.77 3.08 14.37
10/25/2020 3:30:00 PM 10.95 51.71 0.078 8.8 3.07 14.37
10/25/2020 3:45:00 PM 10.98 51.764 0.078 8.78 3.07 14.21
10/25/2020 4:00:00 PM 10.98 51.764 0.077 8.75 3.06 13.95
10/25/2020 4:15:00 PM 10.97 51.746 0.077 8.7 3.05 13.61
10/25/2020 4:30:00 PM 10.97 51.746 0.077 8.63 2.99 13.29
10/25/2020 4:45:00 PM 10.99 51.782 0.076 8.6 3.07 13.16
10/25/2020 5:00:00 PM 11.02 51.836 0.075 8.57 3.01 13
10/25/2020 5:15:00 PM 11.06 51.908 0.075 8.54 3.03 12.87
10/25/2020 5:30:00 PM 11.07 51.926 0.075 8.46 2.99 12.54
10/25/2020 5:45:00 PM 11.07 51.926 0.073 8.36 3.06 12.21
10/25/2020 6:00:00 PM 11.05 51.89 0.074 8.23 3 11.83
10/25/2020 6:15:00 PM 11.01 51.818 0.072 8.1 3.05 11.45
10/25/2020 6:30:00 PM 10.97 51.746 0.071 7.97 3.04 11.05
10/25/2020 6:45:00 PM 10.92 51.656 0.069 7.89 3.08 10.81
10/25/2020 7:00:00 PM 10.88 51.584 0.069 7.82 3.08 10.59
10/25/2020 7:15:00 PM 10.84 51.512 0.069 7.76 3.03 10.4
10/25/2020 7:30:00 PM 10.8 51.44 0.069 7.71 3.08 10.22
10/25/2020 7:45:00 PM 10.76 51.368 0.068 7.67 3.07 10.08
10/25/2020 8:00:00 PM 10.72 51.296 0.067 7.63 3.06 9.94
10/25/2020 8:15:00 PM 10.68 51.224 0.066 7.6 3.17 9.81
10/25/2020 8:30:00 PM 10.63 51.134 0.066 7.58 3.13 9.73
10/25/2020 8:45:00 PM 10.59 51.062 0.065 7.56 3.1 9.62
10/25/2020 9:00:00 PM 10.56 51.008 0.065 7.53 3.07 9.54
10/25/2020 9:15:00 PM 10.55 50.99 0.064 7.52 3.14 9.49
10/25/2020 9:30:00 PM 10.52 50.936 0.063 7.5 3.1 9.43
10/25/2020 9:45:00 PM 10.48 50.864 0.063 7.49 3.09 9.37
10/25/2020 10:00:00 PM 10.44 50.792 0.062 7.47 3.07 9.32
10/25/2020 10:15:00 PM 10.41 50.738 0.062 7.46 3.05 9.28
10/25/2020 10:30:00 PM 10.36 50.648 0.063 7.45 3.08 9.28
10/25/2020 10:45:00 PM 10.31 50.558 0.062 7.44 3.22 9.24
10/25/2020 11:00:00 PM 10.26 50.468 0.062 7.43 3.14 9.2
10/25/2020 11:15:00 PM 10.22 50.396 0.063 7.43 3.11 9.22
10/25/2020 11:30:00 PM 10.17 50.306 0.062 7.42 3.09 9.22
10/25/2020 11:45:00 PM 10.14 50.252 0.062 7.41 3.02 9.19
10/26/2020 12:00:00 AM 10.1 50.18 0.061 7.41 3.2 9.19
10/26/2020 12:15:00 AM 10.06 50.108 0.061 7.41 3.27 9.19
10/26/2020 12:30:00 AM 10.04 50.072 0.059 7.4 3.13 9.18
10/26/2020 12:45:00 AM 10.03 50.054 0.06 7.39 3.1 9.16
10/26/2020 1:00:00 AM 10.01 50.018 0.061 7.39 3.13 9.18
10/26/2020 1:15:00 AM 9.98 49.964 0.061 7.38 3.13 9.17
10/26/2020 1:30:00 AM 9.96 49.928 0.06 7.38 3.17 9.17
10/26/2020 1:45:00 AM 9.95 49.91 0.061 7.37 3.11 9.14
10/26/2020 2:00:00 AM 9.93 49.874 0.06 7.37 3.28 9.17
10/26/2020 2:15:00 AM 9.91 49.838 0.06 7.37 3.24 9.17
10/26/2020 2:30:00 AM 9.9 49.82 0.059 7.37 3.22 9.18
10/26/2020 2:45:00 AM 9.88 49.784 0.059 7.36 3.19 9.15
10/26/2020 3:00:00 AM 9.88 49.784 0.059 7.36 3.18 9.17
10/26/2020 3:15:00 AM 9.86 49.748 0.06 7.36 3.1 9.17
10/26/2020 3:30:00 AM 9.85 49.73 0.059 7.36 3.14 9.18
10/26/2020 3:45:00 AM 9.84 49.712 0.061 7.36 3.08 9.17
10/26/2020 4:00:00 AM 9.84 49.712 0.061 7.36 3.22 9.16
10/26/2020 4:15:00 AM 9.84 49.712 0.06 7.36 3.14 9.09
10/26/2020 4:30:00 AM 9.83 49.694 0.06 7.35 3.23 9.15
10/26/2020 4:45:00 AM 9.83 49.694 0.061 7.35 3.17 9.17
10/26/2020 5:00:00 AM 9.83 49.694 0.061 7.35 3.1 9.17
10/26/2020 5:15:00 AM 9.82 49.676 0.063 7.34 3.1 9.15
10/26/2020 5:30:00 AM 9.82 49.676 0.062 7.35 3.18 9.16
10/26/2020 5:45:00 AM 9.83 49.694 0.063 7.35 3.15 9.17
10/26/2020 6:00:00 AM 9.83 49.694 0.064 7.35 3.11 9.15
10/26/2020 6:15:00 AM 9.84 49.712 0.063 7.35 3.15 9.18
10/26/2020 6:30:00 AM 9.85 49.73 0.063 7.34 3.12 9.15
10/26/2020 6:45:00 AM 9.85 49.73 0.062 7.34 3.12 9.14
10/26/2020 7:00:00 AM 9.86 49.748 0.065 7.33 3.13 9.12
10/26/2020 7:15:00 AM 9.87 49.766 0.064 7.34 3.11 9.13
10/26/2020 7:30:00 AM 9.88 49.784 0.065 7.34 3.14 9.15
10/26/2020 7:45:00 AM 9.87 49.766 0.065 7.34 3.11 9.14
10/26/2020 8:00:00 AM 9.89 49.802 0.065 7.34 3.15 9.21
10/26/2020 8:15:00 AM 9.91 49.838 0.066 7.36 3.1 9.24
10/26/2020 8:30:00 AM 9.92 49.856 0.066 7.36 3.11 9.33
10/26/2020 8:45:00 AM 9.95 49.91 0.065 7.38 3.14 9.5
10/26/2020 9:00:00 AM 9.98 49.964 0.066 7.41 3.26 9.71
10/26/2020 9:15:00 AM 10.01 50.018 0.067 7.43 3.14 9.92
10/26/2020 9:30:00 AM 10.07 50.126 0.068 7.47 3.07 10.31
10/26/2020 9:45:00 AM 10.11 50.198 0.068 7.52 3.07 10.54
10/26/2020 10:00:00 AM 10.15 50.27 0.068 7.53 3.23 10.64
10/26/2020 10:15:00 AM 10.2 50.36 0.068 7.57 3.19 10.81
10/26/2020 10:30:00 AM 10.25 50.45 0.068 7.6 3.45 11.01
10/26/2020 10:45:00 AM 10.31 50.558 0.068 7.65 3.11 11.27
10/26/2020 11:00:00 AM 10.37 50.666 0.068 7.71 3.07 11.58
10/26/2020 11:15:00 AM 10.41 50.738 0.067 7.73 3.24 11.64
10/26/2020 11:30:00 AM 10.45 50.81 0.068 7.76 3.23 11.71
10/26/2020 11:45:00 AM 10.5 50.9 0.067 7.74 12.22 11.7
10/26/2020 12:00:00 PM 10.56 51.008 0.067 7.82 3.5 11.95
10/26/2020 12:15:00 PM 10.63 51.134 0.068 7.92 3.25 12.23
10/26/2020 12:30:00 PM 10.7 51.26 0.068 7.99 3.22 12.42
10/26/2020 12:45:00 PM 10.87 51.566 0.069 8.13 3.15 12.89
10/26/2020 1:00:00 PM 11 51.8 0.069 8.24 3.11 13.14
10/26/2020 1:15:00 PM 11.11 51.998 0.067 8.32 3.04 13.35
10/26/2020 1:30:00 PM 11.19 52.142 0.068 8.36 3.01 13.43
10/26/2020 1:45:00 PM 11.23 52.214 0.067 8.34 2.97 13.22
10/26/2020 2:00:00 PM 11.28 52.304 0.068 8.37 2.98 13.2
10/26/2020 2:15:00 PM 11.35 52.43 0.068 8.43 2.92 13.31
10/26/2020 2:30:00 PM 11.38 52.484 0.067 8.4 2.93 13.17
10/26/2020 2:45:00 PM 11.43 52.574 0.067 8.36 3.47 12.97
10/26/2020 3:00:00 PM 11.45 52.61 0.066 8.28 2.95 12.67
10/26/2020 3:15:00 PM 11.46 52.628 0.066 8.19 3.03 12.34
10/26/2020 3:30:00 PM 11.5 52.7 0.066 8.16 3.01 12.21
10/26/2020 3:45:00 PM 11.54 52.772 0.065 8.17 2.95 12.17
10/26/2020 4:00:00 PM 11.58 52.844 0.065 8.12 3 12.01
10/26/2020 4:15:00 PM 11.6 52.88 0.065 8.06 3.21 11.84
10/26/2020 4:30:00 PM 11.61 52.898 0.064 7.99 2.96 11.54
10/26/2020 4:45:00 PM 11.64 52.952 0.064 7.93 2.92 11.31
10/26/2020 5:00:00 PM 11.66 52.988 0.064 7.88 2.99 11.13
10/26/2020 5:15:00 PM 11.67 53.006 0.064 7.83 2.91 10.92
10/26/2020 5:30:00 PM 11.69 53.042 0.063 7.77 2.87 10.68
10/26/2020 5:45:00 PM 11.69 53.042 0.064 7.72 2.96 10.44
10/26/2020 6:00:00 PM 11.69 53.042 0.064 7.68 2.9 10.24
10/26/2020 6:15:00 PM 11.7 53.06 0.063 7.63 2.94 10.03
10/26/2020 6:30:00 PM 11.71 53.078 0.065 7.59 3 9.85
10/26/2020 6:45:00 PM 11.71 53.078 0.063 7.57 2.96 9.68
10/26/2020 7:00:00 PM 11.72 53.096 0.066 7.54 3 9.56
10/26/2020 7:15:00 PM 11.72 53.096 0.064 7.52 2.98 9.44
10/26/2020 7:30:00 PM 11.72 53.096 0.065 7.5 2.99 9.32
10/26/2020 7:45:00 PM 11.73 53.114 0.064 7.48 3.02 9.22
10/26/2020 8:00:00 PM 11.73 53.114 0.064 7.47 3.05 9.13
10/26/2020 8:15:00 PM 11.73 53.114 0.063 7.46 2.96 9.08
10/26/2020 8:30:00 PM 11.74 53.132 0.062 7.44 2.93 9.03
10/26/2020 8:45:00 PM 11.74 53.132 0.063 7.43 3.06 8.95
10/26/2020 9:00:00 PM 11.74 53.132 0.063 7.42 2.98 8.92
10/26/2020 9:15:00 PM 11.73 53.114 0.062 7.41 2.88 8.88
10/26/2020 9:30:00 PM 11.73 53.114 0.062 7.41 2.93 8.88
10/26/2020 9:45:00 PM 11.72 53.096 0.062 7.4 2.99 8.82
10/26/2020 10:00:00 PM 11.72 53.096 0.062 7.39 2.94 8.77
10/26/2020 10:15:00 PM 11.72 53.096 0.062 7.38 2.91 8.76
10/26/2020 10:30:00 PM 11.72 53.096 0.061 7.38 2.86 8.76
10/26/2020 10:45:00 PM 11.72 53.096 0.061 7.37 2.94 8.75
10/26/2020 11:00:00 PM 11.72 53.096 0.062 7.37 2.9 8.74
10/26/2020 11:15:00 PM 11.72 53.096 0.061 7.37 2.94 8.74
10/26/2020 11:30:00 PM 11.72 53.096 0.062 7.36 2.96 8.71
10/26/2020 11:45:00 PM 11.72 53.096 0.061 7.35 2.91 8.68
10/27/2020 12:00:00 AM 11.73 53.114 0.062 7.34 2.95 8.63
10/27/2020 12:15:00 AM 11.73 53.114 0.061 7.34 2.93 8.66
10/27/2020 12:30:00 AM 11.73 53.114 0.061 7.34 2.93 8.67
10/27/2020 12:45:00 AM 11.72 53.096 0.061 7.34 3.03 8.66
10/27/2020 1:00:00 AM 11.68 53.024 0.061 7.35 3.01 8.65
10/27/2020 1:15:00 AM 11.64 52.952 0.061 7.35 2.97 8.71
10/27/2020 1:30:00 AM 11.6 52.88 0.061 7.35 2.98 8.65
10/27/2020 1:45:00 AM 11.56 52.808 0.06 7.35 3.01 8.68
10/27/2020 2:00:00 AM 11.52 52.736 0.059 7.35 3.07 8.69
10/27/2020 2:15:00 AM 11.49 52.682 0.059 7.34 2.92 8.69
10/27/2020 2:30:00 AM 11.47 52.646 0.059 7.34 2.99 8.72
10/27/2020 2:45:00 AM 11.44 52.592 0.059 7.35 3.04 8.74
10/27/2020 3:00:00 AM 11.4 52.52 0.059 7.34 3 8.71
10/27/2020 3:15:00 AM 11.36 52.448 0.059 7.34 3.07 8.72
10/27/2020 3:30:00 AM 11.33 52.394 0.058 7.34 3 8.71
10/27/2020 3:45:00 AM 11.29 52.322 0.058 7.34 2.94 8.73
10/27/2020 4:00:00 AM 11.26 52.268 0.059 7.34 2.98 8.77
10/27/2020 4:15:00 AM 11.22 52.196 0.058 7.34 3.01 8.78
10/27/2020 4:30:00 AM 11.19 52.142 0.058 7.35 2.96 8.78
10/27/2020 4:45:00 AM 11.15 52.07 0.058 7.35 3.04 8.78
10/27/2020 5:00:00 AM 11.11 51.998 0.058 7.34 2.97 8.79
10/27/2020 5:15:00 AM 11.08 51.944 0.058 7.34 3.01 8.8
10/27/2020 5:30:00 AM 11.05 51.89 0.058 7.34 2.95 8.83
10/27/2020 5:45:00 AM 11.02 51.836 0.057 7.34 2.93 8.81
10/27/2020 6:00:00 AM 10.99 51.782 0.057 7.34 3.01 8.85
10/27/2020 6:15:00 AM 10.95 51.71 0.057 7.35 3.01 8.87
10/27/2020 6:30:00 AM 10.93 51.674 0.056 7.35 3.06 8.87
10/27/2020 6:45:00 AM 10.9 51.62 0.057 7.34 3.03 8.9
10/27/2020 7:00:00 AM 10.88 51.584 0.056 7.35 3.03 8.89
10/27/2020 7:15:00 AM 10.85 51.53 0.056 7.35 3.13 8.93
10/27/2020 7:30:00 AM 10.84 51.512 0.056 7.34 3.04 8.87
10/27/2020 7:45:00 AM 10.81 51.458 0.056 7.34 3.69 8.93
10/27/2020 8:00:00 AM 10.78 51.404 0.057 7.35 2.99 8.94
10/27/2020 8:15:00 AM 10.75 51.35 0.056 7.35 3 8.98
10/27/2020 8:30:00 AM 10.72 51.296 0.057 7.37 3 9.1
10/27/2020 8:45:00 AM 10.71 51.278 0.056 7.38 3 9.23
10/27/2020 9:00:00 AM 10.71 51.278 0.056 7.42 3 9.53
10/27/2020 9:15:00 AM 10.74 51.332 0.056 7.48 2.99 10.02
10/27/2020 9:30:00 AM 10.81 51.458 0.056 7.59 2.97 10.77
10/27/2020 9:45:00 AM 10.82 51.476 0.057 7.66 2.94 11.21
10/27/2020 10:00:00 AM 10.87 51.566 0.057 7.76 3.42 11.71
10/27/2020 10:15:00 AM 10.94 51.692 0.058 7.87 3.05 12.08
10/27/2020 10:30:00 AM 10.94 51.692 0.059 7.89 3.01 12.11
10/27/2020 10:45:00 AM 11.01 51.818 0.06 7.99 3.29 12.43
10/27/2020 11:00:00 AM 11.09 51.962 0.06 8.12 3.35 12.78
10/27/2020 11:15:00 AM 11.16 52.088 0.06 8.2 3.03 13.06
10/27/2020 11:30:00 AM 11.21 52.178 0.06 8.29 3.06 13.29
10/27/2020 11:45:00 AM 11.24 52.232 0.061 8.39 2.94 13.43
10/27/2020 12:00:00 PM 11.36 52.448 0.061 8.49 2.89 13.73
10/27/2020 12:15:00 PM 11.51 52.718 0.062 8.61 2.91 13.95
10/27/2020 12:30:00 PM 11.58 52.844 0.062 8.64 2.89 14.14
10/27/2020 12:45:00 PM 11.63 52.934 0.061 8.68 2.93 14.21
10/27/2020 1:00:00 PM 11.7 53.06 0.062 8.73 3.09 14.28
10/27/2020 1:15:00 PM 11.73 53.114 0.061 8.74 2.91 14.31
10/27/2020 1:30:00 PM 11.75 53.15 0.061 8.78 2.87 14.41
10/27/2020 1:45:00 PM 11.8 53.24 0.062 8.8 2.89 14.46
10/27/2020 2:00:00 PM 11.83 53.294 0.062 8.83 3.02 14.48
10/27/2020 2:15:00 PM 11.91 53.438 0.061 8.85 2.97 14.57
10/27/2020 2:30:00 PM 11.94 53.492 0.062 8.85 3.28 14.48
10/27/2020 2:45:00 PM 11.93 53.474 0.062 8.84 2.91 14.33
10/27/2020 3:00:00 PM 11.93 53.474 0.062 8.85 2.98 14.27
10/27/2020 3:15:00 PM 11.93 53.474 0.062 8.84 2.9 14.14
10/27/2020 3:30:00 PM 11.9 53.42 0.061 8.78 3.02 13.82
10/27/2020 3:45:00 PM 11.87 53.366 0.062 8.74 3.05 13.57
10/27/2020 4:00:00 PM 11.84 53.312 0.061 8.72 2.93 13.32
10/27/2020 4:15:00 PM 11.83 53.294 0.061 8.68 2.93 13.19
10/27/2020 4:30:00 PM 11.82 53.276 0.061 8.65 2.94 12.97
10/27/2020 4:45:00 PM 11.78 53.204 0.06 8.57 2.92 12.64
10/27/2020 5:00:00 PM 11.75 53.15 0.059 8.49 2.91 12.35
10/27/2020 5:15:00 PM 11.72 53.096 0.06 8.38 2.88 12
10/27/2020 5:30:00 PM 11.69 53.042 0.059 8.27 3.02 11.65
10/27/2020 5:45:00 PM 11.65 52.97 0.058 8.14 2.92 11.31
10/27/2020 6:00:00 PM 11.61 52.898 0.059 8.02 2.97 10.97
10/27/2020 6:15:00 PM 11.57 52.826 0.058 7.92 2.96 10.67
10/27/2020 6:30:00 PM 11.53 52.754 0.058 7.84 2.98 10.42
10/27/2020 6:45:00 PM 11.5 52.7 0.058 7.77 3.01 10.21
10/27/2020 7:00:00 PM 11.46 52.628 0.058 7.71 2.9 10.02
10/27/2020 7:15:00 PM 11.43 52.574 0.057 7.67 2.96 9.84
10/27/2020 7:30:00 PM 11.39 52.502 0.057 7.63 2.94 9.73
10/27/2020 7:45:00 PM 11.36 52.448 0.058 7.6 2.98 9.59
10/27/2020 8:00:00 PM 11.33 52.394 0.057 7.58 3.07 9.52
10/27/2020 8:15:00 PM 11.29 52.322 0.057 7.55 3.03 9.44
10/27/2020 8:30:00 PM 11.26 52.268 0.055 7.53 2.97 9.37
10/27/2020 8:45:00 PM 11.23 52.214 0.056 7.51 2.97 9.29
10/27/2020 9:00:00 PM 11.2 52.16 0.056 7.49 3.02 9.24
10/27/2020 9:15:00 PM 11.17 52.106 0.056 7.48 3.02 9.19
10/27/2020 9:30:00 PM 11.13 52.034 0.056 7.45 3.03 9.13
10/27/2020 9:45:00 PM 11.1 51.98 0.056 7.46 2.97 9.12
10/27/2020 10:00:00 PM 11.07 51.926 0.055 7.45 3 9.09
10/27/2020 10:15:00 PM 11.04 51.872 0.055 7.44 2.98 9.07
10/27/2020 10:30:00 PM 11.02 51.836 0.056 7.43 2.95 9.06
10/27/2020 10:45:00 PM 10.99 51.782 0.056 7.43 2.96 9.03
10/27/2020 11:00:00 PM 10.96 51.728 0.055 7.42 2.99 9.02
10/27/2020 11:15:00 PM 10.92 51.656 0.055 7.41 2.98 8.98
10/27/2020 11:30:00 PM 10.89 51.602 0.054 7.4 2.93 8.95
10/27/2020 11:45:00 PM 10.87 51.566 0.054 7.4 3 8.96
10/28/2020 12:00:00 AM 10.85 51.53 0.054 7.4 2.99 8.98
10/28/2020 12:15:00 AM 10.83 51.494 0.054 7.39 3.12 8.95
10/28/2020 12:30:00 AM 10.82 51.476 0.054 7.39 3.06 8.95
10/28/2020 12:45:00 AM 10.79 51.422 0.054 7.39 3.06 8.97
10/28/2020 1:00:00 AM 10.77 51.386 0.054 7.39 3.07 9
10/28/2020 1:15:00 AM 10.76 51.368 0.054 7.38 3.03 8.94
10/28/2020 1:30:00 AM 10.74 51.332 0.054 7.38 2.95 8.96
10/28/2020 1:45:00 AM 10.72 51.296 0.054 7.37 3.01 8.97
10/28/2020 2:00:00 AM 10.7 51.26 0.053 7.37 2.97 8.98
10/28/2020 2:15:00 AM 10.68 51.224 0.053 7.37 2.98 8.98
10/28/2020 2:30:00 AM 10.66 51.188 0.053 7.37 2.99 8.97
10/28/2020 2:45:00 AM 10.63 51.134 0.053 7.37 2.96 9.03
10/28/2020 3:00:00 AM 10.62 51.116 0.053 7.37 3.16 9.04
10/28/2020 3:15:00 AM 10.6 51.08 0.054 7.36 3.09 9.03
10/28/2020 3:30:00 AM 10.58 51.044 0.054 7.36 3.39 9.04
10/28/2020 3:45:00 AM 10.56 51.008 0.053 7.37 3.03 9.08
10/28/2020 4:00:00 AM 10.54 50.972 0.053 7.36 3.06 9.08
10/28/2020 4:15:00 AM 10.53 50.954 0.052 7.36 3.07 9.09
10/28/2020 4:30:00 AM 10.51 50.918 0.052 7.36 3.14 9.06
10/28/2020 4:45:00 AM 10.5 50.9 0.051 7.36 3.04 9.07
10/28/2020 5:00:00 AM 10.49 50.882 0.052 7.36 3.04 9.06
10/28/2020 5:15:00 AM 10.48 50.864 0.051 7.36 3.07 9.08
10/28/2020 5:30:00 AM 10.48 50.864 0.051 7.36 2.98 9.08
10/28/2020 5:45:00 AM 10.46 50.828 0.05 7.36 3.05 9.11
10/28/2020 6:00:00 AM 10.44 50.792 0.05 7.35 3.13 9.08
10/28/2020 6:15:00 AM 10.43 50.774 0.051 7.36 3.09 9.14
10/28/2020 6:30:00 AM 10.4 50.72 0.051 7.36 3.14 9.16
10/28/2020 6:45:00 AM 10.39 50.702 0.051 7.35 3.11 9.15
10/28/2020 7:00:00 AM 10.39 50.702 0.05 7.35 3.2 9.14
10/28/2020 7:15:00 AM 10.38 50.684 0.05 7.35 3.13 9.13
10/28/2020 7:30:00 AM 10.38 50.684 0.05 7.35 3.14 9.14
10/28/2020 7:45:00 AM 10.37 50.666 0.051 7.35 3.15 9.13
10/28/2020 8:00:00 AM 10.37 50.666 0.05 7.36 3.13 9.2
10/28/2020 8:15:00 AM 10.36 50.648 0.05 7.37 3.12 9.26
10/28/2020 8:30:00 AM 10.36 50.648 0.051 7.37 3.19 9.28
10/28/2020 8:45:00 AM 10.36 50.648 0.051 7.38 3.31 9.4
10/28/2020 9:00:00 AM 10.37 50.666 0.051 7.4 3.5 9.54
10/28/2020 9:15:00 AM 10.38 50.684 0.05 7.41 3.66 9.66
10/28/2020 9:30:00 AM 10.4 50.72 0.05 7.42 3.77 9.79
10/28/2020 9:45:00 AM 10.42 50.756 0.05 7.45 3.87 9.94
10/28/2020 10:00:00 AM 10.43 50.774 0.051 7.47 3.8 10.09
10/28/2020 10:15:00 AM 10.46 50.828 0.051 7.5 3.74 10.31
10/28/2020 10:30:00 AM 10.53 50.954 0.051 7.57 3.63 10.8
10/28/2020 10:45:00 AM 10.61 51.098 0.051 7.66 3.54 11.27
10/28/2020 11:00:00 AM 10.72 51.296 0.052 7.76 3.55 11.74
10/28/2020 11:15:00 AM 10.77 51.386 0.052 7.81 3.42 11.89
10/28/2020 11:30:00 AM 10.86 51.548 0.052 7.89 4.15 12.21
10/28/2020 11:45:00 AM 11 51.8 0.052 8.02 3.39 12.6
10/28/2020 12:00:00 PM 11.11 51.998 0.053 8.12 3.3 12.88
10/28/2020 12:15:00 PM 11.14 52.052 0.054 8.11 3.22 12.75
10/28/2020 12:30:00 PM 11.15 52.07 0.054 8.1 3.18 12.62
10/28/2020 12:45:00 PM 11.15 52.07 0.054 8.08 3.38 12.44
10/28/2020 1:00:00 PM 11.18 52.124 0.055 8.07 3.23 12.36
10/28/2020 1:15:00 PM 11.2 52.16 0.055 8.08 3.16 12.32
10/28/2020 1:30:00 PM 11.25 52.25 0.054 8.11 3.14 12.36
10/28/2020 1:45:00 PM 11.33 52.394 0.055 8.2 3.18 12.62
10/28/2020 2:00:00 PM 11.45 52.61 0.055 8.31 3.13 12.93
10/28/2020 2:15:00 PM 11.56 52.808 0.055 8.38 3.08 13.11
10/28/2020 2:30:00 PM 11.66 52.988 0.056 8.43 3.13 13.18
10/28/2020 2:45:00 PM 11.68 53.024 0.056 8.41 3.11 13
10/28/2020 3:00:00 PM 11.68 53.024 0.055 8.36 3.08 12.77
10/28/2020 3:15:00 PM 11.67 53.006 0.056 8.3 3.1 12.5
10/28/2020 3:30:00 PM 11.7 53.06 0.055 8.29 3.09 12.45
10/28/2020 3:45:00 PM 11.75 53.15 0.055 8.33 3.04 12.56
10/28/2020 4:00:00 PM 11.75 53.15 0.056 8.3 3.13 12.38
10/28/2020 4:15:00 PM 11.74 53.132 0.056 8.21 3.09 12.06
10/28/2020 4:30:00 PM 11.72 53.096 0.056 8.12 3.04 11.73
10/28/2020 4:45:00 PM 11.72 53.096 0.055 8.09 3.06 11.66
10/28/2020 5:00:00 PM 11.7 53.06 0.056 8 3.03 11.36
10/28/2020 5:15:00 PM 11.69 53.042 0.055 7.93 3.06 11.12
10/28/2020 5:30:00 PM 11.67 53.006 0.055 7.89 3.11 11
10/28/2020 5:45:00 PM 11.63 52.934 0.056 7.83 3.05 10.82
10/28/2020 6:00:00 PM 11.56 52.808 0.056 7.77 3.09 10.56
10/28/2020 6:15:00 PM 11.48 52.664 0.056 7.7 3.08 10.31
10/28/2020 6:30:00 PM 11.41 52.538 0.054 7.65 3.17 10.1
10/28/2020 6:45:00 PM 11.35 52.43 0.054 7.61 3.23 9.96
10/28/2020 7:00:00 PM 11.29 52.322 0.054 7.58 3.22 9.83
10/28/2020 7:15:00 PM 11.24 52.232 0.054 7.56 3.11 9.75
10/28/2020 7:30:00 PM 11.18 52.124 0.053 7.53 3.2 9.63
10/28/2020 7:45:00 PM 11.12 52.016 0.053 7.52 3.27 9.59
10/28/2020 8:00:00 PM 11.06 51.908 0.054 7.5 3.3 9.54
10/28/2020 8:15:00 PM 10.99 51.782 0.053 7.48 3.14 9.5
10/28/2020 8:30:00 PM 10.92 51.656 0.052 7.47 3.2 9.45
10/28/2020 8:45:00 PM 10.85 51.53 0.051 7.46 3.24 9.43
10/28/2020 9:00:00 PM 10.81 51.458 0.053 7.45 3.25 9.43
10/28/2020 9:15:00 PM 10.74 51.332 0.052 7.44 3.36 9.41
10/28/2020 9:30:00 PM 10.68 51.224 0.051 7.43 3.37 9.39
10/28/2020 9:45:00 PM 10.63 51.134 0.051 7.43 3.41 9.4
10/28/2020 10:00:00 PM 10.58 51.044 0.052 7.42 3.21 9.39
10/28/2020 10:15:00 PM 10.53 50.954 0.052 7.42 3.24 9.39
10/28/2020 10:30:00 PM 10.48 50.864 0.051 7.42 3.43 9.4
10/28/2020 10:45:00 PM 10.42 50.756 0.051 7.41 3.3 9.4
10/28/2020 11:00:00 PM 10.36 50.648 0.052 7.41 3.29 9.43
10/28/2020 11:15:00 PM 10.31 50.558 0.051 7.41 3.29 9.43
10/28/2020 11:30:00 PM 10.27 50.486 0.051 7.41 3.34 9.45
10/28/2020 11:45:00 PM 10.24 50.432 0.052 7.41 3.34 9.47
10/29/2020 12:00:00 AM 10.2 50.36 0.051 7.4 3.31 9.47
10/29/2020 12:15:00 AM 10.15 50.27 0.051 7.4 3.36 9.46
10/29/2020 12:30:00 AM 10.11 50.198 0.051 7.4 3.21 9.48
10/29/2020 12:45:00 AM 10.07 50.126 0.051 7.4 3.22 9.5
10/29/2020 1:00:00 AM 10.03 50.054 0.051 7.4 3.17 9.5
10/29/2020 1:15:00 AM 9.99 49.982 0.051 7.39 3.31 9.51
10/29/2020 1:30:00 AM 9.95 49.91 0.052 7.4 3.28 9.54
10/29/2020 1:45:00 AM 9.92 49.856 0.052 7.39 3.46 9.55
10/29/2020 2:00:00 AM 9.89 49.802 0.052 7.39 3.32 9.56
10/29/2020 2:15:00 AM 9.86 49.748 0.052 7.4 3.51 9.58
10/29/2020 2:30:00 AM 9.83 49.694 0.051 7.4 3.19 9.61
10/29/2020 2:45:00 AM 9.79 49.622 0.051 7.39 3.22 9.6
10/29/2020 3:00:00 AM 9.77 49.586 0.052 7.4 3.24 9.62
10/29/2020 3:15:00 AM 9.74 49.532 0.051 7.4 3.33 9.64
10/29/2020 3:30:00 AM 9.72 49.496 0.05 7.4 3.17 9.65
10/29/2020 3:45:00 AM 9.7 49.46 0.051 7.4 3.26 9.66
10/29/2020 4:00:00 AM 9.69 49.442 0.051 7.4 3.45 9.65
10/29/2020 4:15:00 AM 9.67 49.406 0.051 7.4 3.3 9.68
10/29/2020 4:30:00 AM 9.66 49.388 0.05 7.4 3.31 9.67
10/29/2020 4:45:00 AM 9.65 49.37 0.051 7.4 3.39 9.68
10/29/2020 5:00:00 AM 9.64 49.352 0.051 7.4 3.3 9.69
10/29/2020 5:15:00 AM 9.63 49.334 0.051 7.4 3.24 9.71
10/29/2020 5:30:00 AM 9.62 49.316 0.05 7.4 3.2 9.69
10/29/2020 5:45:00 AM 9.61 49.298 0.05 7.4 3.34 9.72
10/29/2020 6:00:00 AM 9.6 49.28 0.05 7.4 3.53 9.73
10/29/2020 6:15:00 AM 9.59 49.262 0.05 7.4 3.29 9.72
10/29/2020 6:30:00 AM 9.58 49.244 0.049 7.4 3.22 9.74
10/29/2020 6:45:00 AM 9.58 49.244 0.049 7.4 3.26 9.77
10/29/2020 7:00:00 AM 9.58 49.244 0.051 7.4 3.46 9.76
10/29/2020 7:15:00 AM 9.57 49.226 0.05 7.4 3.28 9.75
10/29/2020 7:30:00 AM 9.56 49.208 0.05 7.39 4.39 9.77
10/29/2020 7:45:00 AM 9.55 49.19 0.05 7.4 3.32 9.8
10/29/2020 8:00:00 AM 9.54 49.172 0.05 7.4 3.59 9.81
10/29/2020 8:15:00 AM 9.54 49.172 0.051 7.41 3.59 9.89
10/29/2020 8:30:00 AM 9.53 49.154 0.051 7.42 3.59 9.97
10/29/2020 8:45:00 AM 9.53 49.154 0.052 7.42 3.49 10.03
10/29/2020 9:00:00 AM 9.53 49.154 0.051 7.43 3.46 10.09
10/29/2020 9:15:00 AM 9.54 49.172 0.052 7.43 3.58 10.15
10/29/2020 9:30:00 AM 9.55 49.19 0.052 7.45 3.43 10.24
10/29/2020 9:45:00 AM 9.57 49.226 0.052 7.47 3.51 10.37
10/29/2020 10:00:00 AM 9.59 49.262 0.052 7.49 3.81 10.49
10/29/2020 10:15:00 AM 9.61 49.298 0.052 7.5 4.75 10.56
10/29/2020 10:30:00 AM 9.63 49.334 0.054 7.52 5.57 10.66
10/29/2020 10:45:00 AM 9.66 49.388 0.052 7.55 6.14 10.82
10/29/2020 11:00:00 AM 9.69 49.442 0.053 7.58 6.69 10.92
10/29/2020 11:15:00 AM 9.72 49.496 0.053 7.59 6.71 10.98
10/29/2020 11:30:00 AM 9.75 49.55 0.053 7.61 6.64 11.03
10/29/2020 11:45:00 AM 9.78 49.604 0.054 7.61 5.89 11.04
10/29/2020 12:00:00 PM 9.81 49.658 0.054 7.64 5.55 11.1
10/29/2020 12:15:00 PM 9.84 49.712 0.055 7.64 5.71 11.12
10/29/2020 12:30:00 PM 9.86 49.748 0.055 7.65 5.61 11.11
10/29/2020 12:45:00 PM 9.91 49.838 0.056 7.68 5.47 11.26
10/29/2020 1:00:00 PM 9.93 49.874 0.057 7.69 5.03 11.21
10/29/2020 1:15:00 PM 9.95 49.91 0.056 7.67 5.48 11.15
10/29/2020 1:30:00 PM 9.96 49.928 0.055 7.67 6.08 11.08
10/29/2020 1:45:00 PM 9.99 49.982 0.056 7.68 6.64 11.12
10/29/2020 2:00:00 PM 10.01 50.018 0.056 7.68 6.16 11.07
10/29/2020 2:15:00 PM 10.03 50.054 0.057 7.68 5.71 11.03
10/29/2020 2:30:00 PM 10.05 50.09 0.057 7.68 6.42 11.04
10/29/2020 2:45:00 PM 10.07 50.126 0.057 7.68 5.97 11.03
10/29/2020 3:00:00 PM 10.09 50.162 0.057 7.69 6.14 11.06
10/29/2020 3:15:00 PM 10.11 50.198 0.056 7.68 6.27 11.01
10/29/2020 3:30:00 PM 10.11 50.198 0.057 7.67 8.04 10.9
10/29/2020 3:45:00 PM 10.11 50.198 0.056 7.65 7.61 10.82
10/29/2020 4:00:00 PM 10.11 50.198 0.057 7.64 7.86 10.73
10/29/2020 4:15:00 PM 10.11 50.198 0.057 7.62 7.73 10.65
10/29/2020 4:30:00 PM 10.11 50.198 0.057 7.6 8.48 10.54
10/29/2020 4:45:00 PM 10.11 50.198 0.057 7.57 8.48 10.45
10/29/2020 5:00:00 PM 10.11 50.198 0.057 7.56 14.4 10.35
10/29/2020 5:15:00 PM 10.1 50.18 0.058 7.54 11.86 10.26
10/29/2020 5:30:00 PM 10.09 50.162 0.058 7.52 14.29 10.19
10/29/2020 5:45:00 PM 10.1 50.18 0.058 7.51 16.27 10.05
10/29/2020 6:00:00 PM 10.1 50.18 0.058 7.49 13.68 10.04
10/29/2020 6:15:00 PM 10.11 50.198 0.059 7.49 21.14 9.95
10/29/2020 6:30:00 PM 10.12 50.216 0.059 7.48 21.2 9.92
10/29/2020 6:45:00 PM 10.12 50.216 0.059 7.47 22.08 9.94
10/29/2020 7:00:00 PM 10.13 50.234 0.058 7.45 19.85 9.88
10/29/2020 7:15:00 PM 10.13 50.234 0.058 7.46 24.21 9.91
10/29/2020 7:30:00 PM 10.14 50.252 0.058 7.44 27.73 9.8
10/29/2020 7:45:00 PM 10.16 50.288 0.059 7.43 23.86 9.74
10/29/2020 8:00:00 PM 10.17 50.306 0.059 7.43 25.01 9.69
10/29/2020 8:15:00 PM 10.18 50.324 0.06 7.43 23.92 9.78
10/29/2020 8:30:00 PM 10.18 50.324 0.06 7.44 24.23 9.81
10/29/2020 8:45:00 PM 10.18 50.324 0.059 7.45 23.78 9.93
10/29/2020 9:00:00 PM 10.19 50.342 0.06 7.45 25.97 9.95
10/29/2020 9:15:00 PM 10.19 50.342 0.06 7.45 24.75 9.95
10/29/2020 9:30:00 PM 10.2 50.36 0.06 7.45 23.08 9.95
10/29/2020 9:45:00 PM 10.21 50.378 0.06 7.45 23.02 9.93
10/29/2020 10:00:00 PM 10.22 50.396 0.059 7.44 23.34 9.96
10/29/2020 10:15:00 PM 10.23 50.414 0.059 7.44 22.43 9.95
10/29/2020 10:30:00 PM 10.24 50.432 0.059 7.43 23.65 9.87
10/29/2020 10:45:00 PM 10.26 50.468 0.058 7.42 19.95 9.83
10/29/2020 11:00:00 PM 10.27 50.486 0.058 7.42 17.25 9.86
10/29/2020 11:15:00 PM 10.28 50.504 0.058 7.42 18 9.82
10/29/2020 11:30:00 PM 10.28 50.504 0.058 7.43 16.48 9.89
10/29/2020 11:45:00 PM 10.29 50.522 0.058 7.43 16.34 9.96
10/30/2020 12:00:00 AM 10.3 50.54 0.058 7.44 25.25 9.96
10/30/2020 12:15:00 AM 10.3 50.54 0.056 7.44 16.18 10.1
10/30/2020 12:30:00 AM 10.3 50.54 0.056 7.44 16.15 10.06
10/30/2020 12:45:00 AM 10.31 50.558 0.056 7.44 21.09 10.09
10/30/2020 1:00:00 AM 10.31 50.558 0.056 7.44 15.01 10.05
10/30/2020 1:15:00 AM 10.31 50.558 0.056 7.44 13.05 10.03
10/30/2020 1:30:00 AM 10.33 50.594 0.055 7.44 15.16 9.99
10/30/2020 1:45:00 AM 10.33 50.594 0.055 7.44 15.72 10.14
10/30/2020 2:00:00 AM 10.33 50.594 0.053 7.44 12.15 10.1
10/30/2020 2:15:00 AM 10.33 50.594 0.054 7.44 12.88 10.07
10/30/2020 2:30:00 AM 10.33 50.594 0.055 7.43 12.24 10
10/30/2020 2:45:00 AM 10.33 50.594 0.054 7.44 12.11 9.95
10/30/2020 3:00:00 AM 10.32 50.576 0.054 7.44 20.99 10.08
10/30/2020 3:15:00 AM 10.32 50.576 0.054 7.44 12.05 10.11
10/30/2020 3:30:00 AM 10.32 50.576 0.055 7.44 11.53 10.14
10/30/2020 3:45:00 AM 10.32 50.576 0.054 7.44 11.16 10.14
10/30/2020 4:00:00 AM 10.31 50.558 0.055 7.44 10.81 10.15
10/30/2020 4:15:00 AM 10.3 50.54 0.054 7.44 10.7 10.1
10/30/2020 4:30:00 AM 10.29 50.522 0.054 7.45 10.44 10.15
10/30/2020 4:45:00 AM 10.28 50.504 0.053 7.45 15.5 10.18
10/30/2020 5:00:00 AM 10.26 50.468 0.053 7.44 10.99 10.2
10/30/2020 5:15:00 AM 10.25 50.45 0.053 7.44 11 10.22
10/30/2020 5:30:00 AM 10.22 50.396 0.053 7.44 11.11 10.22
10/30/2020 5:45:00 AM 10.19 50.342 0.053 7.45 10.67 10.24
10/30/2020 6:00:00 AM 10.16 50.288 0.053 7.45 10.63 10.27
10/30/2020 6:15:00 AM 10.12 50.216 0.054 7.45 12.59 10.27
10/30/2020 6:30:00 AM 10.06 50.108 0.053 7.45 11.58 10.26
10/30/2020 6:45:00 AM 10.01 50.018 0.052 7.45 12.37 10.28
10/30/2020 7:00:00 AM 9.93 49.874 0.052 7.45 27.27 10.3
10/30/2020 7:15:00 AM 9.83 49.694 0.051 7.45 26.37 10.31
10/30/2020 7:30:00 AM 9.69 49.442 0.051 7.45 10.51 10.33
10/30/2020 7:45:00 AM 9.6 49.28 0.05 7.45 12.49 10.35
10/30/2020 8:00:00 AM 9.53 49.154 0.05 7.45 11.91 10.38
10/30/2020 8:15:00 AM 9.48 49.064 0.049 7.45 10.47 10.41
10/30/2020 8:30:00 AM 9.45 49.01 0.048 7.45 10.33 10.46
10/30/2020 8:45:00 AM 9.44 48.992 0.048 7.45 9.56 10.49
10/30/2020 9:00:00 AM 9.43 48.974 0.048 7.45 10.47 10.55
10/30/2020 9:15:00 AM 9.44 48.992 0.047 7.46 9.58 10.62
10/30/2020 9:30:00 AM 9.43 48.974 0.048 7.46 10.18 10.65
10/30/2020 9:45:00 AM 9.42 48.956 0.046 7.46 9.64 10.69
10/30/2020 10:00:00 AM 9.43 48.974 0.046 7.47 9.62 10.74
10/30/2020 10:15:00 AM 9.46 49.028 0.046 7.48 9.29 10.78
10/30/2020 10:30:00 AM 9.48 49.064 0.046 7.49 9.67 10.84
10/30/2020 10:45:00 AM 9.48 49.064 0.046 7.5 9.09 10.86
10/30/2020 11:00:00 AM 9.5 49.1 0.046 7.5 9.48 10.87
10/30/2020 11:15:00 AM 9.52 49.136 0.045 7.51 8.64 10.89
10/30/2020 11:30:00 AM 9.56 49.208 0.045 7.52 8.42 10.92
10/30/2020 11:45:00 AM 9.62 49.316 0.045 7.53 9.83 10.95
10/30/2020 12:00:00 PM 9.69 49.442 0.046 7.53 8.8 10.98
10/30/2020 12:15:00 PM 9.75 49.55 0.046 7.55 8.42 10.98
10/30/2020 12:30:00 PM 9.85 49.73 0.046 7.56 7.87 10.99
10/30/2020 12:45:00 PM 9.93 49.874 0.046 7.57 7.76 11
10/30/2020 1:00:00 PM 10 50 0.046 7.58 7.26 10.98
10/30/2020 1:15:00 PM 10.04 50.072 0.045 7.58 7.45 10.95
10/30/2020 1:30:00 PM 10.12 50.216 0.046 7.59 7.49 10.93
10/30/2020 1:45:00 PM 10.15 50.27 0.045 7.59 7.68 10.88
10/30/2020 2:00:00 PM 10.17 50.306 0.045 7.58 7.27 10.84
10/30/2020 2:15:00 PM 10.17 50.306 0.045 7.57 7.9 10.76
10/30/2020 2:30:00 PM 10.18 50.324 0.044 7.57 7.12 10.74
10/30/2020 2:45:00 PM 10.2 50.36 0.044 7.57 7.44 10.75
10/30/2020 3:00:00 PM 10.22 50.396 0.044 7.57 6.96 10.77
10/30/2020 3:15:00 PM 10.24 50.432 0.044 7.57 7.49 10.77
10/30/2020 3:30:00 PM 10.27 50.486 0.044 7.58 6.85 10.8
10/30/2020 3:45:00 PM 10.27 50.486 0.044 7.58 7.01 10.78
10/30/2020 4:00:00 PM 10.28 50.504 0.044 7.58 6.66 10.76
10/30/2020 4:15:00 PM 10.33 50.594 0.044 7.59 8.22 10.78
10/30/2020 4:30:00 PM 10.34 50.612 0.044 7.59 6.73 10.77
10/30/2020 4:45:00 PM 10.3 50.54 0.044 7.58 8.01 10.73
10/30/2020 5:00:00 PM 10.28 50.504 0.044 7.57 6.81 10.7
10/30/2020 5:15:00 PM 10.26 50.468 0.043 7.56 7 10.67
10/30/2020 5:30:00 PM 10.22 50.396 0.043 7.56 6.49 10.65
10/30/2020 5:45:00 PM 10.2 50.36 0.043 7.55 7.24 10.62
10/30/2020 6:00:00 PM 10.15 50.27 0.044 7.54 7.68 10.58
10/30/2020 6:15:00 PM 10.1 50.18 0.045 7.53 6.51 10.57
10/30/2020 6:30:00 PM 10.04 50.072 0.044 7.53 7.32 10.55
10/30/2020 6:45:00 PM 9.99 49.982 0.044 7.52 6.69 10.55
10/30/2020 7:00:00 PM 9.94 49.892 0.044 7.51 6.54 10.54
10/30/2020 7:15:00 PM 9.89 49.802 0.045 7.51 7.62 10.53
10/30/2020 7:30:00 PM 9.84 49.712 0.044 7.5 6.16 10.54
10/30/2020 7:45:00 PM 9.78 49.604 0.044 7.5 6.41 10.56
10/30/2020 8:00:00 PM 9.74 49.532 0.044 7.5 6.49 10.57
10/30/2020 8:15:00 PM 9.68 49.424 0.043 7.49 6.11 10.57
10/30/2020 8:30:00 PM 9.63 49.334 0.043 7.49 6.06 10.59
10/30/2020 8:45:00 PM 9.58 49.244 0.043 7.49 6.24 10.61
10/30/2020 9:00:00 PM 9.53 49.154 0.043 7.49 6.02 10.61
10/30/2020 9:15:00 PM 9.48 49.064 0.043 7.49 6.62 10.62
10/30/2020 9:30:00 PM 9.43 48.974 0.042 7.48 5.89 10.63
10/30/2020 9:45:00 PM 9.38 48.884 0.042 7.48 5.79 10.67
10/30/2020 10:00:00 PM 9.33 48.794 0.043 7.48 5.86 10.67
10/30/2020 10:15:00 PM 9.29 48.722 0.043 7.48 6.17 10.69
10/30/2020 10:30:00 PM 9.24 48.632 0.043 7.48 6.1 10.71
10/30/2020 10:45:00 PM 9.19 48.542 0.043 7.48 5.76 10.73
10/30/2020 11:00:00 PM 9.14 48.452 0.043 7.48 5.59 10.74
10/30/2020 11:15:00 PM 9.09 48.362 0.043 7.48 5.86 10.77
10/30/2020 11:30:00 PM 9.04 48.272 0.042 7.48 5.62 10.78
10/30/2020 11:45:00 PM 9 48.2 0.042 7.48 5.87 10.8
10/31/2020 12:00:00 AM 8.98 48.164 0.043 7.48 5.57 10.81
10/31/2020 12:15:00 AM 8.97 48.146 0.043 7.48 7.01 10.81
10/31/2020 12:30:00 AM 8.94 48.092 0.043 7.48 7.04 10.82
10/31/2020 12:45:00 AM 8.93 48.074 0.043 7.48 6.76 10.83
10/31/2020 1:00:00 AM 8.91 48.038 0.043 7.48 6.93 10.85
10/31/2020 1:15:00 AM 8.9 48.02 0.044 7.48 6.96 10.84
10/31/2020 1:30:00 AM 8.89 48.002 0.044 7.48 6.76 10.85
10/31/2020 1:45:00 AM 8.88 47.984 0.045 7.48 7.12 10.85
10/31/2020 2:00:00 AM 8.86 47.948 0.045 7.48 7.12 10.87
10/31/2020 2:15:00 AM 8.84 47.912 0.045 7.48 6.7 10.86
10/31/2020 2:30:00 AM 8.81 47.858 0.045 7.48 6.03 10.89
10/31/2020 2:45:00 AM 8.78 47.804 0.045 7.48 5.77 10.9
10/31/2020 3:00:00 AM 8.74 47.732 0.046 7.48 5.71 10.92
10/31/2020 3:15:00 AM 8.72 47.696 0.046 7.48 5.72 10.92
10/31/2020 3:30:00 AM 8.68 47.624 0.046 7.48 5.57 10.92
10/31/2020 3:45:00 AM 8.65 47.57 0.047 7.48 5.61 10.91
10/31/2020 4:00:00 AM 8.61 47.498 0.047 7.47 5.46 10.92
10/31/2020 4:15:00 AM 8.58 47.444 0.048 7.47 5.64 10.94
10/31/2020 4:30:00 AM 8.54 47.372 0.049 7.47 7.81 10.96
10/31/2020 4:45:00 AM 8.51 47.318 0.049 7.47 5.88 10.92
10/31/2020 5:00:00 AM 8.47 47.246 0.05 7.46 5.56 10.96
10/31/2020 5:15:00 AM 8.43 47.174 0.051 7.45 5.95 10.98
10/31/2020 5:30:00 AM 8.39 47.102 0.051 7.46 5.17 10.99
10/31/2020 5:45:00 AM 8.35 47.03 0.051 7.45 5.18 11
10/31/2020 6:00:00 AM 8.31 46.958 0.051 7.45 4.93 11
10/31/2020 6:15:00 AM 8.27 46.886 0.051 7.46 5.1 11.03
10/31/2020 6:30:00 AM 8.23 46.814 0.052 7.45 5.09 11.04
10/31/2020 6:45:00 AM 8.19 46.742 0.052 7.45 5.12 11.07
10/31/2020 7:00:00 AM 8.15 46.67 0.053 7.45 5.31 11.04
10/31/2020 7:15:00 AM 8.11 46.598 0.052 7.45 5.91 11.09
10/31/2020 7:30:00 AM 8.06 46.508 0.053 7.45 4.85 11.11
10/31/2020 7:45:00 AM 8.02 46.436 0.055 7.46 5.09 11.14
10/31/2020 8:00:00 AM 7.99 46.382 0.056 7.46 4.95 11.17
10/31/2020 8:15:00 AM 7.97 46.346 0.055 7.46 4.82 11.22
10/31/2020 8:30:00 AM 7.96 46.328 0.056 7.47 4.66 11.28
10/31/2020 8:45:00 AM 7.97 46.346 0.057 7.48 4.8 11.33
10/31/2020 9:00:00 AM 7.98 46.364 0.056 7.5 4.76 11.39
10/31/2020 9:15:00 AM 7.97 46.346 0.057 7.51 5.02 11.42
10/31/2020 9:30:00 AM 7.96 46.328 0.058 7.52 5.07 11.44
10/31/2020 9:45:00 AM 8.02 46.436 0.059 7.53 4.96 11.51
10/31/2020 10:00:00 AM 8.11 46.598 0.059 7.55 4.94 11.6
10/31/2020 10:15:00 AM 8.19 46.742 0.06 7.58 4.96 11.67
10/31/2020 10:30:00 AM 8.27 46.886 0.061 7.6 4.8 11.71
10/31/2020 10:45:00 AM 8.36 47.048 0.062 7.62 5.79 11.75
10/31/2020 11:00:00 AM 8.45 47.21 0.063 7.63 4.64 11.77
10/31/2020 11:15:00 AM 8.52 47.336 0.065 7.65 4.56 11.79
10/31/2020 11:30:00 AM 8.65 47.57 0.068 7.66 4.73 11.8
10/31/2020 11:45:00 AM 8.74 47.732 0.068 7.67 5.02 11.79
10/31/2020 12:00:00 PM 8.83 47.894 0.068 7.68 4.96 11.77
10/31/2020 12:15:00 PM 8.94 48.092 0.07 7.69 4.9 11.75
10/31/2020 12:30:00 PM 9.03 48.254 0.073 7.7 5.05 11.77
10/31/2020 12:45:00 PM 9.15 48.47 0.075 7.71 4.82 11.75
10/31/2020 1:00:00 PM 9.24 48.632 0.075 7.71 4.88 11.73
10/31/2020 1:15:00 PM 9.31 48.758 0.078 7.72 5.74 11.71
10/31/2020 1:30:00 PM 9.4 48.92 0.078 7.73 5.16 11.73
10/31/2020 1:45:00 PM 9.49 49.082 0.081 7.74 6 11.71
10/31/2020 2:00:00 PM 9.54 49.172 0.082 7.75 5.01 11.7
10/31/2020 2:15:00 PM 9.59 49.262 0.084 7.75 4.87 11.69
10/31/2020 2:30:00 PM 9.61 49.298 0.084 7.76 4.9 11.68
10/31/2020 2:45:00 PM 9.65 49.37 0.085 7.76 5.07 11.65
10/31/2020 3:00:00 PM 9.7 49.46 0.087 7.76 4.86 11.62
10/31/2020 3:15:00 PM 9.75 49.55 0.09 7.76 4.98 11.57
10/31/2020 3:30:00 PM 9.75 49.55 0.091 7.74 4.81 11.49
10/31/2020 3:45:00 PM 9.76 49.568 0.091 7.73 4.75 11.4
10/31/2020 4:00:00 PM 9.77 49.586 0.093 7.71 4.74 11.34
10/31/2020 4:15:00 PM 9.78 49.604 0.095 7.7 4.79 11.28
10/31/2020 4:30:00 PM 9.76 49.568 0.095 7.69 4.71 11.23
10/31/2020 4:45:00 PM 9.75 49.55 0.096 7.67 4.87 11.18
10/31/2020 5:00:00 PM 9.73 49.514 0.098 7.66 4.87 11.13
10/31/2020 5:15:00 PM 9.73 49.514 0.101 7.65 4.89 11.11
10/31/2020 5:30:00 PM 9.72 49.496 0.102 7.64 4.83 11.04
10/31/2020 5:45:00 PM 9.71 49.478 0.106 7.62 5 10.98
10/31/2020 6:00:00 PM 9.66 49.388 0.107 7.59 4.78 10.91
10/31/2020 6:15:00 PM 9.62 49.316 0.108 7.58 4.82 10.85
10/31/2020 6:30:00 PM 9.56 49.208 0.11 7.57 4.77 10.8
10/31/2020 6:45:00 PM 9.5 49.1 0.112 7.55 4.87 10.77
10/31/2020 7:00:00 PM 9.45 49.01 0.116 7.55 4.92 10.76
10/31/2020 7:15:00 PM 9.39 48.902 0.116 7.54 5.25 10.76
10/31/2020 7:30:00 PM 9.33 48.794 0.117 7.53 4.95 10.74
10/31/2020 7:45:00 PM 9.26 48.668 0.118 7.52 5.4 10.74
10/31/2020 8:00:00 PM 9.2 48.56 0.12 7.51 5.19 10.75
10/31/2020 8:15:00 PM 9.13 48.434 0.119 7.5 5.05 10.75
10/31/2020 8:30:00 PM 9.06 48.308 0.12 7.5 4.99 10.77
10/31/2020 8:45:00 PM 8.99 48.182 0.123 7.5 5.24 10.78
10/31/2020 9:00:00 PM 8.92 48.056 0.122 7.5 5.14 10.79
10/31/2020 9:15:00 PM 8.85 47.93 0.127 7.49 5.12 10.81
10/31/2020 9:30:00 PM 8.77 47.786 0.126 7.49 5.14 10.83
10/31/2020 9:45:00 PM 8.7 47.66 0.128 7.49 4.76 10.85
10/31/2020 10:00:00 PM 8.63 47.534 0.129 7.48 4.89 10.86
10/31/2020 10:15:00 PM 8.55 47.39 0.128 7.48 4.76 10.87
10/31/2020 10:30:00 PM 8.48 47.264 0.129 7.48 4.82 10.9
10/31/2020 10:45:00 PM 8.41 47.138 0.129 7.47 4.75 10.92
10/31/2020 11:00:00 PM 8.34 47.012 0.132 7.47 4.71 10.94
10/31/2020 11:15:00 PM 8.27 46.886 0.132 7.47 4.69 10.96
10/31/2020 11:30:00 PM 8.21 46.778 0.131 7.47 4.76 10.98
10/31/2020 11:45:00 PM 8.14 46.652 0.132 7.47 4.84 10.99
11/1/2020 12:00:00 AM 8.09 46.562 0.132 7.47 4.89 11.01
11/1/2020 12:15:00 AM 8.03 46.454 0.132 7.47 4.58 11.03
11/1/2020 12:30:00 AM 7.97 46.346 0.135 7.47 4.68 11.05
11/1/2020 12:45:00 AM 7.91 46.238 0.135 7.47 4.71 11.07
11/1/2020 1:00:00 AM 7.86 46.148 0.133 7.46 7.4 11.06
11/1/2020 1:15:00 AM 7.8 46.04 0.133 7.47 5.16 11.1
11/1/2020 1:30:00 AM 7.75 45.95 0.134 7.46 5.04 11.11
11/1/2020 1:45:00 AM 7.69 45.842 0.134 7.46 5.67 11.13
11/1/2020 2:00:00 AM 7.64 45.752 0.133 7.46 5.36 11.14
11/1/2020 2:15:00 AM 7.59 45.662 0.133 7.46 7.19 11.15
11/1/2020 2:30:00 AM 7.57 45.626 0.134 7.46 4.89 11.16
11/1/2020 2:45:00 AM 7.56 45.608 0.133 7.45 4.75 11.17
11/1/2020 3:00:00 AM 7.55 45.59 0.133 7.44 5.2 11.19
11/1/2020 3:15:00 AM 7.54 45.572 0.134 7.44 4.71 11.19
11/1/2020 3:30:00 AM 7.52 45.536 0.135 7.44 4.88 11.2
11/1/2020 3:45:00 AM 7.53 45.554 0.134 7.45 5.49 11.2
11/1/2020 4:00:00 AM 7.54 45.572 0.134 7.45 5.54 11.2
11/1/2020 4:15:00 AM 7.54 45.572 0.134 7.45 4.88 11.19
11/1/2020 4:30:00 AM 7.55 45.59 0.135 7.45 5.1 11.2
11/1/2020 4:45:00 AM 7.56 45.608 0.133 7.46 4.84 11.19
11/1/2020 5:00:00 AM 7.58 45.644 0.132 7.46 5.33 11.17
11/1/2020 5:15:00 AM 7.59 45.662 0.131 7.47 4.7 11.18
11/1/2020 5:30:00 AM 7.61 45.698 0.133 7.47 5 11.19
11/1/2020 5:45:00 AM 7.63 45.734 0.133 7.48 4.96 11.17
11/1/2020 6:00:00 AM 7.63 45.734 0.133 7.48 5.17 11.16
11/1/2020 6:15:00 AM 7.64 45.752 0.133 7.48 5.4 11.15
11/1/2020 6:30:00 AM 7.66 45.788 0.133 7.48 4.82 11.15
11/1/2020 6:45:00 AM 7.68 45.824 0.134 7.48 4.96 11.14
11/1/2020 7:00:00 AM 7.71 45.878 0.134 7.49 4.93 11.13
11/1/2020 7:15:00 AM 7.73 45.914 0.133 7.49 4.65 11.13
11/1/2020 7:30:00 AM 7.75 45.95 0.132 7.49 4.73 11.11
11/1/2020 7:45:00 AM 7.78 46.004 0.131 7.49 4.97 11.11
11/1/2020 8:00:00 AM 7.81 46.058 0.13 7.48 4.89 11.11
11/1/2020 8:15:00 AM 7.84 46.112 0.129 7.5 4.8 11.12
11/1/2020 8:30:00 AM 7.87 46.166 0.129 7.5 4.71 11.15
11/1/2020 8:45:00 AM 7.93 46.274 0.129 7.52 5.81 11.2
11/1/2020 9:00:00 AM 7.97 46.346 0.128 7.52 4.71 11.23
11/1/2020 9:15:00 AM 8 46.4 0.13 7.53 4.7 11.26
11/1/2020 9:30:00 AM 8.04 46.472 0.128 7.54 4.63 11.27
11/1/2020 9:45:00 AM 8.1 46.58 0.126 7.56 4.74 11.33
11/1/2020 10:00:00 AM 8.16 46.688 0.128 7.57 4.81 11.38
11/1/2020 10:15:00 AM 8.21 46.778 0.127 7.58 4.5 11.42
11/1/2020 10:30:00 AM 8.28 46.904 0.126 7.6 4.6 11.49
11/1/2020 10:45:00 AM 8.39 47.102 0.126 7.62 4.61 11.56
11/1/2020 11:00:00 AM 8.51 47.318 0.125 7.65 4.88 11.65
11/1/2020 11:15:00 AM 8.59 47.462 0.125 7.67 4.57 11.66
11/1/2020 11:30:00 AM 8.71 47.678 0.125 7.68 4.58 11.71
11/1/2020 11:45:00 AM 8.8 47.84 0.123 7.71 4.5 11.74
11/1/2020 12:00:00 PM 8.84 47.912 0.125 7.71 4.74 11.67
11/1/2020 12:15:00 PM 9.03 48.254 0.118 7.67 4.45 11.3
11/1/2020 12:30:00 PM 9.11 48.398 0.119 7.68 4.47 11.36
11/1/2020 12:45:00 PM 9.17 48.506 0.117 7.7 4.52 11.4
11/1/2020 1:00:00 PM 9.2 48.56 0.114 7.7 4.51 11.37
11/1/2020 1:15:00 PM 9.31 48.758 0.112 7.72 4.52 11.48
11/1/2020 1:30:00 PM 9.38 48.884 0.111 7.74 4.43 11.5
11/1/2020 1:45:00 PM 9.41 48.938 0.11 7.73 5.11 11.41
11/1/2020 2:00:00 PM 9.45 49.01 0.11 7.73 4.51 11.38
11/1/2020 2:15:00 PM 9.5 49.1 0.109 7.74 4.4 11.38
11/1/2020 2:30:00 PM 9.55 49.19 0.107 7.74 4.43 11.37
11/1/2020 2:45:00 PM 9.62 49.316 0.106 7.75 4.39 11.37
11/1/2020 3:00:00 PM 9.66 49.388 0.105 7.74 4.29 11.32
11/1/2020 3:15:00 PM 9.71 49.478 0.105 7.74 4.31 11.28
11/1/2020 3:30:00 PM 9.72 49.496 0.104 7.72 4.56 11.16
11/1/2020 3:45:00 PM 9.73 49.514 0.103 7.68 4.35 11
11/1/2020 4:00:00 PM 9.75 49.55 0.102 7.67 4.46 10.93
11/1/2020 4:15:00 PM 9.76 49.568 0.101 7.64 4.42 10.82
11/1/2020 4:30:00 PM 9.77 49.586 0.1 7.62 4.33 10.73
11/1/2020 4:45:00 PM 9.78 49.604 0.101 7.6 4.3 10.64
11/1/2020 5:00:00 PM 9.73 49.514 0.099 7.58 4.29 10.58
11/1/2020 5:15:00 PM 9.72 49.496 0.099 7.57 4.38 10.53
11/1/2020 5:30:00 PM 9.69 49.442 0.098 7.56 4.39 10.49
11/1/2020 5:45:00 PM 9.66 49.388 0.096 7.55 4.6 10.47
11/1/2020 6:00:00 PM 9.64 49.352 0.096 7.54 4.53 10.45
11/1/2020 6:15:00 PM 9.62 49.316 0.096 7.53 4.66 10.45
11/1/2020 6:30:00 PM 9.59 49.262 0.095 7.53 4.47 10.43
11/1/2020 6:45:00 PM 9.57 49.226 0.095 7.52 4.65 10.42
11/1/2020 7:00:00 PM 9.55 49.19 0.096 7.52 4.49 10.42
11/1/2020 7:15:00 PM 9.44 48.992 0.095 7.51 4.55 10.43
11/1/2020 7:30:00 PM 9.44 48.992 0.094 7.51 4.59 10.44
11/1/2020 7:45:00 PM 9.42 48.956 0.094 7.5 4.48 10.43
11/1/2020 8:00:00 PM 9.38 48.884 0.094 7.5 4.63 10.44
11/1/2020 8:15:00 PM 9.32 48.776 0.094 7.5 4.52 10.46
11/1/2020 8:30:00 PM 9.23 48.614 0.094 7.5 4.61 10.47
11/1/2020 8:45:00 PM 9.13 48.434 0.094 7.49 4.57 10.49
11/1/2020 9:00:00 PM 9.03 48.254 0.094 7.5 4.54 10.51
11/1/2020 9:15:00 PM 8.96 48.128 0.095 7.49 4.62 10.53
11/1/2020 9:30:00 PM 8.89 48.002 0.094 7.49 4.54 10.54
11/1/2020 9:45:00 PM 8.83 47.894 0.094 7.49 4.45 10.56
11/1/2020 10:00:00 PM 8.75 47.75 0.094 7.49 4.58 10.58
11/1/2020 10:15:00 PM 8.69 47.642 0.095 7.49 4.44 10.59
11/1/2020 10:30:00 PM 8.61 47.498 0.094 7.49 4.53 10.63
11/1/2020 10:45:00 PM 8.54 47.372 0.095 7.49 4.64 10.64
11/1/2020 11:00:00 PM 8.48 47.264 0.093 7.49 4.46 10.65
11/1/2020 11:15:00 PM 8.42 47.156 0.093 7.49 4.53 10.67
11/1/2020 11:30:00 PM 8.36 47.048 0.095 7.49 4.51 10.69
11/1/2020 11:45:00 PM 8.28 46.904 0.094 7.49 4.59 10.72
11/2/2020 12:00:00 AM 8.2 46.76 0.094 7.49 4.65 10.73
11/2/2020 12:15:00 AM 8.15 46.67 0.094 7.49 4.57 10.76
11/2/2020 12:30:00 AM 8.1 46.58 0.094 7.49 4.56 10.78
11/2/2020 12:45:00 AM 8.06 46.508 0.095 7.48 4.5 10.79
11/2/2020 1:00:00 AM 8.02 46.436 0.095 7.48 4.61 10.81
11/2/2020 1:15:00 AM 7.96 46.328 0.093 7.48 4.67 10.82
11/2/2020 1:30:00 AM 7.93 46.274 0.094 7.48 4.72 10.83
11/2/2020 1:45:00 AM 7.89 46.202 0.092 7.48 4.59 10.85
11/2/2020 2:00:00 AM 7.85 46.13 0.094 7.48 4.5 10.86
11/2/2020 2:15:00 AM 7.8 46.04 0.094 7.48 4.53 10.88
11/2/2020 2:30:00 AM 7.76 45.968 0.094 7.48 4.42 10.89
11/2/2020 2:45:00 AM 7.71 45.878 0.094 7.48 4.7 10.9
11/2/2020 3:00:00 AM 7.66 45.788 0.094 7.48 4.48 10.91
11/2/2020 3:15:00 AM 7.61 45.698 0.094 7.48 4.45 10.93
11/2/2020 3:30:00 AM 7.56 45.608 0.094 7.49 4.58 10.95
11/2/2020 3:45:00 AM 7.5 45.5 0.094 7.48 4.45 10.96
11/2/2020 4:00:00 AM 7.44 45.392 0.092 7.48 4.96 10.97
11/2/2020 4:15:00 AM 7.42 45.356 0.092 7.48 4.55 10.99
11/2/2020 4:30:00 AM 7.39 45.302 0.092 7.48 4.41 11
11/2/2020 4:45:00 AM 7.34 45.212 0.092 7.48 4.48 11.02
11/2/2020 5:00:00 AM 7.27 45.086 0.092 7.49 6.29 11.03
11/2/2020 5:15:00 AM 7.24 45.032 0.091 7.49 4.43 11.05
11/2/2020 5:30:00 AM 7.19 44.942 0.091 7.48 4.53 11.07
11/2/2020 5:45:00 AM 7.09 44.762 0.091 7.49 4.57 11.08
11/2/2020 6:00:00 AM 7.06 44.708 0.091 7.49 4.58 11.1
11/2/2020 6:15:00 AM 7 44.6 0.09 7.49 4.44 11.12
11/2/2020 6:30:00 AM 6.94 44.492 0.09 7.49 4.65 11.16
11/2/2020 6:45:00 AM 6.9 44.42 0.091 7.49 4.48 11.19
11/2/2020 7:00:00 AM 6.86 44.348 0.09 7.49 4.44 11.22
11/2/2020 7:15:00 AM 6.8 44.24 0.09 7.5 4.46 11.29
11/2/2020 7:30:00 AM 6.8 44.24 0.089 7.51 4.51 11.36
11/2/2020 7:45:00 AM 6.77 44.186 0.09 7.51 4.42 11.45
11/2/2020 8:00:00 AM 6.74 44.132 0.089 7.52 4.52 11.57
11/2/2020 8:15:00 AM 6.74 44.132 0.089 7.53 4.55 11.67
11/2/2020 8:30:00 AM 6.71 44.078 0.091 7.54 4.46 11.79
11/2/2020 8:45:00 AM 6.7 44.06 0.091 7.55 4.54 11.88
11/2/2020 9:00:00 AM 6.7 44.06 0.091 7.58 4.52 12
11/2/2020 9:15:00 AM 6.7 44.06 0.09 7.6 4.44 12.09
11/2/2020 9:30:00 AM 6.66 43.988 0.091 7.62 4.49 12.16
11/2/2020 9:45:00 AM 6.67 44.006 0.09 7.64 4.48 12.24
11/2/2020 10:00:00 AM 6.69 44.042 0.091 7.68 4.56 12.33
11/2/2020 10:15:00 AM 6.73 44.114 0.09 7.7 4.55 12.4
11/2/2020 10:30:00 AM 6.86 44.348 0.089 7.73 4.49 12.45
11/2/2020 10:45:00 AM 6.86 44.348 0.09 7.75 4.48 12.48
11/2/2020 11:00:00 AM 6.92 44.456 0.089 7.77 4.53 12.5
11/2/2020 11:15:00 AM 7 44.6 0.091 7.79 4.65 12.52
11/2/2020 11:30:00 AM 7.08 44.744 0.09 7.81 4.45 12.54
11/2/2020 11:45:00 AM 7.2 44.96 0.09 7.83 4.77 12.54
11/2/2020 12:00:00 PM 7.23 45.014 0.09 7.83 4.92 12.48
11/2/2020 12:15:00 PM 7.26 45.068 0.089 7.83 4.63 12.42
11/2/2020 12:30:00 PM 7.33 45.194 0.091 7.83 4.51 12.39
11/2/2020 12:45:00 PM 7.43 45.374 0.09 7.84 4.58 12.37
11/2/2020 1:00:00 PM 7.5 45.5 0.091 7.85 4.54 12.37
11/2/2020 1:15:00 PM 7.6 45.68 0.092 7.86 4.58 12.39
11/2/2020 1:30:00 PM 7.6 45.68 0.092 7.86 4.82 12.32
11/2/2020 1:45:00 PM 7.58 45.644 0.091 7.85 4.47 12.27
11/2/2020 2:00:00 PM 7.55 45.59 0.091 7.84 4.57 12.24
11/2/2020 2:15:00 PM 7.54 45.572 0.091 7.83 4.46 12.19
11/2/2020 2:30:00 PM 7.49 45.482 0.089 7.82 4.56 12.14
11/2/2020 2:45:00 PM 7.43 45.374 0.089 7.81 4.66 12.1
11/2/2020 3:00:00 PM 7.36 45.248 0.088 7.79 4.65 12.04
11/2/2020 3:15:00 PM 7.31 45.158 0.089 7.78 5.59 12.01
11/2/2020 3:30:00 PM 7.26 45.068 0.09 7.77 4.87 11.98
11/2/2020 3:45:00 PM 7.19 44.942 0.089 7.75 4.69 11.94
11/2/2020 4:00:00 PM 7.15 44.87 0.088 7.74 4.69 11.89
11/2/2020 4:15:00 PM 7.12 44.816 0.086 7.72 4.6 11.85
11/2/2020 4:30:00 PM 7.07 44.726 0.088 7.7 5.06 11.76
11/2/2020 4:45:00 PM 7.02 44.636 0.087 7.67 5.09 11.68
11/2/2020 5:00:00 PM 6.98 44.564 0.087 7.65 4.71 11.59
11/2/2020 5:15:00 PM 6.94 44.492 0.086 7.6 6.88 11.51
11/2/2020 5:30:00 PM 6.92 44.456 0.086 7.61 9.4 11.46
11/2/2020 5:45:00 PM 6.9 44.42 0.086 7.59 7.17 11.41
11/2/2020 6:00:00 PM 6.88 44.384 0.085 7.58 4.72 11.39
11/2/2020 6:15:00 PM 6.86 44.348 0.085 7.56 4.82 11.34
11/2/2020 6:30:00 PM 6.82 44.276 0.085 7.56 4.73 11.34
11/2/2020 6:45:00 PM 6.79 44.222 0.084 7.54 6.84 11.31
11/2/2020 7:00:00 PM 6.76 44.168 0.084 7.54 4.87 11.3
11/2/2020 7:15:00 PM 6.76 44.168 0.084 7.54 4.88 11.31
11/2/2020 7:30:00 PM 6.73 44.114 0.085 7.53 6.82 11.28
11/2/2020 7:45:00 PM 6.7 44.06 0.085 7.53 5.02 11.29
11/2/2020 8:00:00 PM 6.67 44.006 0.084 7.52 5.6 11.28
11/2/2020 8:15:00 PM 6.65 43.97 0.083 7.52 4.96 11.29
11/2/2020 8:30:00 PM 6.62 43.916 0.087 7.52 4.98 11.29
11/2/2020 8:45:00 PM 6.59 43.862 0.084 7.51 4.96 11.29
11/2/2020 9:00:00 PM 6.56 43.808 0.083 7.5 6.5 11.29
11/2/2020 9:15:00 PM 6.54 43.772 0.083 7.51 4.99 11.3
11/2/2020 9:30:00 PM 6.52 43.736 0.084 7.5 4.91 11.29
11/2/2020 9:45:00 PM 6.52 43.736 0.082 7.5 5.02 11.3
11/2/2020 10:00:00 PM 6.52 43.736 0.083 7.5 6.12 11.29
11/2/2020 10:15:00 PM 6.51 43.718 0.082 7.5 5.12 11.31
11/2/2020 10:30:00 PM 6.51 43.718 0.081 7.5 5.06 11.3
11/2/2020 10:45:00 PM 6.47 43.646 0.082 7.5 5.32 11.32
11/2/2020 11:00:00 PM 6.43 43.574 0.081 7.5 5.95 11.33
11/2/2020 11:15:00 PM 6.39 43.502 0.081 7.49 5.13 11.34
11/2/2020 11:30:00 PM 6.36 43.448 0.081 7.5 5.11 11.34
11/2/2020 11:45:00 PM 6.32 43.376 0.082 7.49 5.2 11.34
11/3/2020 12:00:00 AM 6.28 43.304 0.081 7.5 5.11 11.35
11/3/2020 12:15:00 AM 6.26 43.268 0.081 7.48 5.16 11.35
11/3/2020 12:30:00 AM 6.22 43.196 0.082 7.49 5.3 11.36
11/3/2020 12:45:00 AM 6.19 43.142 0.081 7.48 5.29 11.37
11/3/2020 1:00:00 AM 6.17 43.106 0.081 7.48 5.16 11.38
11/3/2020 1:15:00 AM 6.14 43.052 0.082 7.47 5.18 11.38
11/3/2020 1:30:00 AM 6.13 43.034 0.082 7.47 5.23 11.39
11/3/2020 1:45:00 AM 6.12 43.016 0.082 7.47 5.3 11.4
11/3/2020 2:00:00 AM 6.11 42.998 0.083 7.47 5.19 11.41
11/3/2020 2:15:00 AM 6.1 42.98 0.082 7.47 5.27 11.41
11/3/2020 2:30:00 AM 6.1 42.98 0.082 7.47 5.21 11.41
11/3/2020 2:45:00 AM 6.08 42.944 0.082 7.47 5.22 11.42
11/3/2020 3:00:00 AM 6.08 42.944 0.081 7.48 5.11 11.41
11/3/2020 3:15:00 AM 6.07 42.926 0.08 7.46 5.22 11.41
11/3/2020 3:30:00 AM 6.05 42.89 0.081 7.47 5.23 11.42
11/3/2020 3:45:00 AM 6.04 42.872 0.081 7.48 5.25 11.43
11/3/2020 4:00:00 AM 6.04 42.872 0.082 7.48 5.26 11.43
11/3/2020 4:15:00 AM 6.05 42.89 0.081 7.48 5.2 11.43
11/3/2020 4:30:00 AM 6.07 42.926 0.082 7.49 5.19 11.44
11/3/2020 4:45:00 AM 6.09 42.962 0.082 7.48 5.27 11.43
11/3/2020 5:00:00 AM 6.11 42.998 0.082 7.49 5.06 11.44
11/3/2020 5:15:00 AM 6.14 43.052 0.082 7.48 5.1 11.43
11/3/2020 5:30:00 AM 6.15 43.07 0.082 7.49 5.21 11.44
11/3/2020 5:45:00 AM 6.15 43.07 0.081 7.49 5.17 11.43
11/3/2020 6:00:00 AM 6.16 43.088 0.082 7.49 5.27 11.43
11/3/2020 6:15:00 AM 6.17 43.106 0.082 7.5 5.13 11.43
11/3/2020 6:30:00 AM 6.19 43.142 0.082 7.49 5.15 11.43
11/3/2020 6:45:00 AM 6.2 43.16 0.082 7.5 5.2 11.43
11/3/2020 7:00:00 AM 6.22 43.196 0.082 7.5 5.11 11.46
11/3/2020 7:15:00 AM 6.22 43.196 0.082 7.51 5.06 11.54
11/3/2020 7:30:00 AM 6.26 43.268 0.081 7.53 5.12 11.61
11/3/2020 7:45:00 AM 6.31 43.358 0.082 7.54 5.08 11.69
11/3/2020 8:00:00 AM 6.34 43.412 0.082 7.55 5.01 11.73
11/3/2020 8:15:00 AM 6.38 43.484 0.083 7.56 5.03 11.77
11/3/2020 8:30:00 AM 6.43 43.574 0.082 7.57 5.11 11.8
11/3/2020 8:45:00 AM 6.46 43.628 0.082 7.57 5.15 11.83
11/3/2020 9:00:00 AM 6.51 43.718 0.082 7.59 5.16 11.89
11/3/2020 9:15:00 AM 6.56 43.808 0.083 7.6 4.96 11.97
11/3/2020 9:30:00 AM 6.62 43.916 0.084 7.63 4.94 12.06
11/3/2020 9:45:00 AM 6.69 44.042 0.086 7.64 4.95 12.14
11/3/2020 10:00:00 AM 6.78 44.204 0.084 7.67 4.93 12.25
11/3/2020 10:15:00 AM 6.84 44.312 0.085 7.69 4.94 12.29
11/3/2020 10:30:00 AM 6.89 44.402 0.085 7.7 4.95 12.28
11/3/2020 10:45:00 AM 6.99 44.582 0.086 7.73 4.95 12.4
11/3/2020 11:00:00 AM 7.05 44.69 0.086 7.74 4.83 12.43
11/3/2020 11:15:00 AM 7.15 44.87 0.087 7.77 4.82 12.51
11/3/2020 11:30:00 AM 7.24 45.032 0.087 7.81 4.86 12.59
11/3/2020 11:45:00 AM 7.37 45.266 0.088 7.84 4.84 12.65
11/3/2020 12:00:00 PM 7.48 45.464 0.087 7.87 4.81 12.7
11/3/2020 12:15:00 PM 7.59 45.662 0.088 7.89 4.78 12.74
11/3/2020 12:30:00 PM 7.66 45.788 0.088 7.91 4.79 12.74
11/3/2020 12:45:00 PM 7.71 45.878 0.09 7.91 4.77 12.67
11/3/2020 1:00:00 PM 7.85 46.13 0.089 7.94 4.87 12.72
11/3/2020 1:15:00 PM 7.95 46.31 0.09 7.96 4.75 12.75
11/3/2020 1:30:00 PM 8.1 46.58 0.09 7.99 4.69 12.79
11/3/2020 1:45:00 PM 8.23 46.814 0.091 8.02 4.67 12.8
11/3/2020 2:00:00 PM 8.35 47.03 0.091 8.04 4.73 12.78
11/3/2020 2:15:00 PM 8.41 47.138 0.091 8.05 4.7 12.73
11/3/2020 2:30:00 PM 8.42 47.156 0.09 8.04 4.69 12.65
11/3/2020 2:45:00 PM 8.43 47.174 0.092 8.02 4.71 12.53
11/3/2020 3:00:00 PM 8.47 47.246 0.091 8.02 4.64 12.52
11/3/2020 3:15:00 PM 8.5 47.3 0.091 8.02 4.64 12.49
11/3/2020 3:30:00 PM 8.5 47.3 0.09 8.01 4.56 12.43
11/3/2020 3:45:00 PM 8.47 47.246 0.09 7.97 4.62 12.27
11/3/2020 4:00:00 PM 8.48 47.264 0.09 7.94 4.61 12.2
11/3/2020 4:15:00 PM 8.45 47.21 0.089 7.9 4.6 12.06
11/3/2020 4:30:00 PM 8.38 47.084 0.087 7.85 4.54 11.86
11/3/2020 4:45:00 PM 8.32 46.976 0.088 7.81 4.66 11.7
11/3/2020 5:00:00 PM 8.28 46.904 0.088 7.75 4.63 11.55
11/3/2020 5:15:00 PM 8.22 46.796 0.087 7.71 4.58 11.4
11/3/2020 5:30:00 PM 8.16 46.688 0.086 7.67 4.57 11.29
11/3/2020 5:45:00 PM 8.1 46.58 0.085 7.64 4.59 11.21
11/3/2020 6:00:00 PM 8.05 46.49 0.085 7.62 4.66 11.16
11/3/2020 6:15:00 PM 7.98 46.364 0.084 7.6 4.69 11.11
11/3/2020 6:30:00 PM 7.91 46.238 0.084 7.58 4.74 11.06
11/3/2020 6:45:00 PM 7.86 46.148 0.083 7.57 4.74 11.07
11/3/2020 7:00:00 PM 7.8 46.04 0.082 7.55 4.7 11.03
11/3/2020 7:15:00 PM 7.74 45.932 0.082 7.54 4.66 11.03
11/3/2020 7:30:00 PM 7.7 45.86 0.082 7.53 4.76 11.04
11/3/2020 7:45:00 PM 7.64 45.752 0.081 7.53 4.76 11.04
11/3/2020 8:00:00 PM 7.58 45.644 0.08 7.53 4.69 11.05
11/3/2020 8:15:00 PM 7.52 45.536 0.079 7.52 4.72 11.05
11/3/2020 8:30:00 PM 7.47 45.446 0.079 7.51 4.69 11.06
11/3/2020 8:45:00 PM 7.41 45.338 0.078 7.51 4.7 11.07
11/3/2020 9:00:00 PM 7.36 45.248 0.078 7.51 4.66 11.08
11/3/2020 9:15:00 PM 7.31 45.158 0.077 7.51 4.73 11.11
11/3/2020 9:30:00 PM 7.25 45.05 0.077 7.5 4.8 11.11
11/3/2020 9:45:00 PM 7.19 44.942 0.077 7.5 4.69 11.13
11/3/2020 10:00:00 PM 7.13 44.834 0.076 7.49 4.78 11.14
11/3/2020 10:15:00 PM 7.08 44.744 0.075 7.49 4.84 11.16
11/3/2020 10:30:00 PM 7.03 44.654 0.075 7.49 4.66 11.18
11/3/2020 10:45:00 PM 6.98 44.564 0.075 7.49 4.74 11.2
11/3/2020 11:00:00 PM 6.91 44.438 0.073 7.49 4.59 11.22
11/3/2020 11:15:00 PM 6.86 44.348 0.073 7.48 4.66 11.23
11/3/2020 11:30:00 PM 6.8 44.24 0.073 7.49 4.64 11.24
11/3/2020 11:45:00 PM 6.74 44.132 0.072 7.49 4.53 11.28
11/4/2020 12:00:00 AM 6.68 44.024 0.072 7.49 4.81 11.29
11/4/2020 12:15:00 AM 6.63 43.934 0.071 7.49 4.64 11.32
11/4/2020 12:30:00 AM 6.58 43.844 0.071 7.48 4.67 11.32
11/4/2020 12:45:00 AM 6.53 43.754 0.07 7.48 4.66 11.37
11/4/2020 1:00:00 AM 6.47 43.646 0.07 7.48 4.78 11.37
11/4/2020 1:15:00 AM 6.42 43.556 0.069 7.48 4.66 11.41
11/4/2020 1:30:00 AM 6.35 43.43 0.069 7.48 4.67 11.41
11/4/2020 1:45:00 AM 6.31 43.358 0.069 7.48 4.84 11.45
11/4/2020 2:00:00 AM 6.25 43.25 0.068 7.47 4.77 11.45
11/4/2020 2:15:00 AM 6.2 43.16 0.067 7.48 4.6 11.48
11/4/2020 2:30:00 AM 6.14 43.052 0.068 7.47 4.58 11.49
11/4/2020 2:45:00 AM 6.08 42.944 0.067 7.47 4.79 11.51
11/4/2020 3:00:00 AM 6.04 42.872 0.067 7.47 4.8 11.54
11/4/2020 3:15:00 AM 5.98 42.764 0.067 7.47 4.69 11.55
11/4/2020 3:30:00 AM 5.93 42.674 0.066 7.47 4.59 11.58
11/4/2020 3:45:00 AM 5.87 42.566 0.065 7.46 4.63 11.58
11/4/2020 4:00:00 AM 5.83 42.494 0.065 7.47 4.68 11.61
11/4/2020 4:15:00 AM 5.78 42.404 0.065 7.47 4.66 11.63
11/4/2020 4:30:00 AM 5.73 42.314 0.064 7.46 4.62 11.65
11/4/2020 4:45:00 AM 5.68 42.224 0.064 7.46 4.7 11.67
11/4/2020 5:00:00 AM 5.62 42.116 0.064 7.46 4.63 11.69
11/4/2020 5:15:00 AM 5.58 42.044 0.064 7.46 4.6 11.73
11/4/2020 5:30:00 AM 5.53 41.954 0.063 7.46 4.64 11.73
11/4/2020 5:45:00 AM 5.49 41.882 0.063 7.46 4.59 11.75
11/4/2020 6:00:00 AM 5.44 41.792 0.064 7.45 4.64 11.76
11/4/2020 6:15:00 AM 5.4 41.72 0.064 7.45 4.66 11.79
11/4/2020 6:30:00 AM 5.35 41.63 0.063 7.46 4.61 11.82
11/4/2020 6:45:00 AM 5.31 41.558 0.063 7.44 4.5 11.85
11/4/2020 7:00:00 AM 5.27 41.486 0.062 7.45 4.66 11.91
11/4/2020 7:15:00 AM 5.24 41.432 0.062 7.45 4.67 11.97
11/4/2020 7:30:00 AM 5.21 41.378 0.062 7.46 4.76 12.06
11/4/2020 7:45:00 AM 5.19 41.342 0.062 7.46 4.6 12.14
11/4/2020 8:00:00 AM 5.17 41.306 0.062 7.48 4.62 12.23
11/4/2020 8:15:00 AM 5.17 41.306 0.061 7.48 4.58 12.3
11/4/2020 8:30:00 AM 5.17 41.306 0.061 7.5 4.61 12.39
11/4/2020 8:45:00 AM 5.19 41.342 0.062 7.51 4.61 12.47
11/4/2020 9:00:00 AM 5.24 41.432 0.061 7.53 4.47 12.54
11/4/2020 9:15:00 AM 5.33 41.594 0.062 7.56 4.46 12.65
11/4/2020 9:30:00 AM 5.45 41.81 0.063 7.59 4.51 12.73
11/4/2020 9:45:00 AM 5.59 42.062 0.062 7.61 4.51 12.79
11/4/2020 10:00:00 AM 5.74 42.332 0.062 7.64 4.43 12.86
11/4/2020 10:15:00 AM 5.89 42.602 0.062 7.67 4.37 12.9
11/4/2020 10:30:00 AM 6.05 42.89 0.064 7.7 4.48 12.94
11/4/2020 10:45:00 AM 6.22 43.196 0.064 7.72 4.4 12.96
11/4/2020 11:00:00 AM 6.38 43.484 0.064 7.75 4.47 12.98
11/4/2020 11:15:00 AM 6.56 43.808 0.065 7.77 4.46 12.98
11/4/2020 11:30:00 AM 6.74 44.132 0.065 7.8 4.37 12.97
11/4/2020 11:45:00 AM 6.92 44.456 0.066 7.81 4.46 12.96
11/4/2020 12:00:00 PM 7.11 44.798 0.067 7.83 4.41 12.94
11/4/2020 12:15:00 PM 7.33 45.194 0.067 7.85 4.4 12.92
11/4/2020 12:30:00 PM 7.56 45.608 0.067 7.87 4.36 12.88
11/4/2020 12:45:00 PM 7.79 46.022 0.068 7.9 4.32 12.84
11/4/2020 1:00:00 PM 8.01 46.418 0.07 7.91 4.32 12.79
11/4/2020 1:15:00 PM 8.19 46.742 0.068 7.91 4.34 12.71
11/4/2020 1:30:00 PM 8.34 47.012 0.069 7.92 4.41 12.65
11/4/2020 1:45:00 PM 8.47 47.246 0.07 7.93 4.28 12.57
11/4/2020 2:00:00 PM 8.53 47.354 0.071 7.91 4.22 12.49
11/4/2020 2:15:00 PM 8.59 47.462 0.07 7.91 4.26 12.41
11/4/2020 2:30:00 PM 8.6 47.48 0.07 7.9 4.36 12.34
11/4/2020 2:45:00 PM 8.6 47.48 0.069 7.88 4.34 12.25
11/4/2020 3:00:00 PM 8.59 47.462 0.07 7.87 4.27 12.18
11/4/2020 3:15:00 PM 8.57 47.426 0.071 7.85 4.3 12.12
11/4/2020 3:30:00 PM 8.55 47.39 0.07 7.84 4.36 12.06
11/4/2020 3:45:00 PM 8.52 47.336 0.071 7.82 4.24 12
11/4/2020 4:00:00 PM 8.49 47.282 0.07 7.8 4.21 11.92
11/4/2020 4:15:00 PM 8.46 47.228 0.069 7.77 4.49 11.84
11/4/2020 4:30:00 PM 8.42 47.156 0.067 7.75 4.26 11.75
11/4/2020 4:45:00 PM 8.37 47.066 0.068 7.72 4.33 11.63
11/4/2020 5:00:00 PM 8.33 46.994 0.068 7.69 4.31 11.52
11/4/2020 5:15:00 PM 8.29 46.922 0.068 7.66 4.38 11.4
11/4/2020 5:30:00 PM 8.25 46.85 0.069 7.64 4.29 11.31
11/4/2020 5:45:00 PM 8.21 46.778 0.067 7.61 4.36 11.23
11/4/2020 6:00:00 PM 8.18 46.724 0.067 7.59 4.31 11.16
11/4/2020 6:15:00 PM 8.15 46.67 0.067 7.58 4.37 11.12
11/4/2020 6:30:00 PM 8.13 46.634 0.066 7.56 4.36 11.08
11/4/2020 6:45:00 PM 8.11 46.598 0.066 7.55 4.24 11.05
11/4/2020 7:00:00 PM 8.08 46.544 0.066 7.54 4.24 11.02
11/4/2020 7:15:00 PM 8.05 46.49 0.065 7.53 4.33 11.02
11/4/2020 7:30:00 PM 8.01 46.418 0.066 7.52 4.42 11
11/4/2020 7:45:00 PM 7.98 46.364 0.064 7.52 4.54 10.99
11/4/2020 8:00:00 PM 7.94 46.292 0.065 7.51 4.43 11
11/4/2020 8:15:00 PM 7.89 46.202 0.065 7.5 4.43 10.99
11/4/2020 8:30:00 PM 7.86 46.148 0.064 7.5 4.31 10.99
11/4/2020 8:45:00 PM 7.83 46.094 0.064 7.5 4.33 11
11/4/2020 9:00:00 PM 7.8 46.04 0.064 7.49 4.27 10.99
11/4/2020 9:15:00 PM 7.79 46.022 0.063 7.49 4.29 10.99
11/4/2020 9:30:00 PM 7.78 46.004 0.063 7.48 4.34 11.01
11/4/2020 9:45:00 PM 7.77 45.986 0.063 7.48 4.29 11.01
11/4/2020 10:00:00 PM 7.75 45.95 0.063 7.48 4.2 11.02
11/4/2020 10:15:00 PM 7.73 45.914 0.062 7.47 4.25 11
11/4/2020 10:30:00 PM 7.72 45.896 0.062 7.47 4.31 11.03
11/4/2020 10:45:00 PM 7.7 45.86 0.063 7.47 4.39 11.03
11/4/2020 11:00:00 PM 7.67 45.806 0.062 7.46 4.29 11.03
11/4/2020 11:15:00 PM 7.65 45.77 0.062 7.46 4.39 11.02
11/4/2020 11:30:00 PM 7.63 45.734 0.061 7.46 4.43 11.05
11/4/2020 11:45:00 PM 7.6 45.68 0.062 7.46 4.43 11.05
11/5/2020 12:00:00 AM 7.57 45.626 0.061 7.46 4.31 11.05
11/5/2020 12:15:00 AM 7.54 45.572 0.06 7.46 4.34 11.06
11/5/2020 12:30:00 AM 7.51 45.518 0.06 7.46 4.4 11.06
11/5/2020 12:45:00 AM 7.48 45.464 0.059 7.46 4.29 11.07
11/5/2020 1:00:00 AM 7.44 45.392 0.06 7.46 4.27 11.08
11/5/2020 1:15:00 AM 7.4 45.32 0.059 7.46 4.24 11.09
11/5/2020 1:30:00 AM 7.37 45.266 0.059 7.46 4.24 11.11
11/5/2020 1:45:00 AM 7.33 45.194 0.059 7.46 4.21 11.11
11/5/2020 2:00:00 AM 7.29 45.122 0.059 7.47 4.32 11.14
11/5/2020 2:15:00 AM 7.26 45.068 0.058 7.46 4.25 11.15
11/5/2020 2:30:00 AM 7.22 44.996 0.058 7.46 4.32 11.17
11/5/2020 2:45:00 AM 7.17 44.906 0.058 7.46 4.17 11.17
11/5/2020 3:00:00 AM 7.13 44.834 0.057 7.47 4.23 11.2
11/5/2020 3:15:00 AM 7.1 44.78 0.057 7.46 4.26 11.21
11/5/2020 3:30:00 AM 7.05 44.69 0.056 7.46 4.36 11.21
11/5/2020 3:45:00 AM 7.01 44.618 0.057 7.46 4.34 11.24
11/5/2020 4:00:00 AM 6.96 44.528 0.056 7.46 4.2 11.24
11/5/2020 4:15:00 AM 6.92 44.456 0.056 7.46 4.26 11.27
11/5/2020 4:30:00 AM 6.88 44.384 0.056 7.46 4.3 11.28
11/5/2020 4:45:00 AM 6.83 44.294 0.055 7.46 4.23 11.29
11/5/2020 5:00:00 AM 6.79 44.222 0.055 7.46 4.3 11.31
11/5/2020 5:15:00 AM 6.74 44.132 0.055 7.45 4.23 11.31
11/5/2020 5:30:00 AM 6.69 44.042 0.054 7.45 4.37 11.34
11/5/2020 5:45:00 AM 6.65 43.97 0.054 7.45 4.27 11.35
11/5/2020 6:00:00 AM 6.6 43.88 0.055 7.45 4.25 11.37
11/5/2020 6:15:00 AM 6.55 43.79 0.055 7.45 4.33 11.4
11/5/2020 6:30:00 AM 6.51 43.718 0.053 7.45 4.29 11.41
11/5/2020 6:45:00 AM 6.46 43.628 0.053 7.45 4.35 11.43
11/5/2020 7:00:00 AM 6.42 43.556 0.053 7.45 4.28 11.5
11/5/2020 7:15:00 AM 6.39 43.502 0.053 7.47 4.3 11.59
11/5/2020 7:30:00 AM 6.36 43.448 0.054 7.48 4.33 11.66
11/5/2020 7:45:00 AM 6.34 43.412 0.053 7.5 4.28 11.77
11/5/2020 8:00:00 AM 6.32 43.376 0.053 7.51 4.27 11.89
11/5/2020 8:15:00 AM 6.32 43.376 0.052 7.53 4.36 11.99
11/5/2020 8:30:00 AM 6.33 43.394 0.053 7.54 4.25 12.07
11/5/2020 8:45:00 AM 6.35 43.43 0.053 7.56 4.33 12.16
11/5/2020 9:00:00 AM 6.41 43.538 0.052 7.58 4.21 12.26
11/5/2020 9:15:00 AM 6.52 43.736 0.052 7.62 4.28 12.42
11/5/2020 9:30:00 AM 6.64 43.952 0.053 7.65 4.27 12.54
11/5/2020 9:45:00 AM 6.78 44.204 0.053 7.68 4.12 12.62
11/5/2020 10:00:00 AM 6.95 44.51 0.053 7.71 4.21 12.71
11/5/2020 10:15:00 AM 7.11 44.798 0.054 7.74 4.25 12.77
11/5/2020 10:30:00 AM 7.28 45.104 0.054 7.77 4.22 12.82
11/5/2020 10:45:00 AM 7.46 45.428 0.055 7.81 4.1 12.86
11/5/2020 11:00:00 AM 7.63 45.734 0.055 7.84 4.15 12.91
11/5/2020 11:15:00 AM 7.8 46.04 0.056 7.87 4.18 12.92
11/5/2020 11:30:00 AM 7.98 46.364 0.056 7.9 4.09 12.93
11/5/2020 11:45:00 AM 8.17 46.706 0.056 7.93 4.16 12.94
11/5/2020 12:00:00 PM 8.37 47.066 0.057 7.97 4.15 12.96
11/5/2020 12:15:00 PM 8.55 47.39 0.058 8 4.08 12.97
11/5/2020 12:30:00 PM 8.77 47.786 0.058 8.05 4.07 13
11/5/2020 12:45:00 PM 9.01 48.218 0.059 8.1 4.12 13.02
11/5/2020 1:00:00 PM 9.21 48.578 0.06 8.13 4.11 13
11/5/2020 1:15:00 PM 9.41 48.938 0.06 8.17 4.08 12.97
11/5/2020 1:30:00 PM 9.57 49.226 0.06 8.18 4.08 12.93
11/5/2020 1:45:00 PM 9.7 49.46 0.06 8.21 4.01 12.9
11/5/2020 2:00:00 PM 9.81 49.658 0.061 8.22 4.09 12.86
11/5/2020 2:15:00 PM 9.88 49.784 0.061 8.24 4.06 12.83
11/5/2020 2:30:00 PM 9.93 49.874 0.061 8.25 4.06 12.78
11/5/2020 2:45:00 PM 9.94 49.892 0.061 8.24 4.07 12.71
11/5/2020 3:00:00 PM 9.92 49.856 0.061 8.21 4.1 12.6
11/5/2020 3:15:00 PM 9.89 49.802 0.061 8.19 4.05 12.5
11/5/2020 3:30:00 PM 9.86 49.748 0.061 8.15 4.07 12.37
11/5/2020 3:45:00 PM 9.8 49.64 0.06 8.1 4.06 12.22
11/5/2020 4:00:00 PM 9.74 49.532 0.061 8.03 4.05 12.06
11/5/2020 4:15:00 PM 9.68 49.424 0.06 7.97 4.08 11.89
11/5/2020 4:30:00 PM 9.61 49.298 0.06 7.91 4.07 11.72
11/5/2020 4:45:00 PM 9.53 49.154 0.059 7.84 4.08 11.53
11/5/2020 5:00:00 PM 9.46 49.028 0.059 7.78 4.05 11.35
11/5/2020 5:15:00 PM 9.39 48.902 0.058 7.73 4.1 11.21
11/5/2020 5:30:00 PM 9.32 48.776 0.059 7.68 4.05 11.08
11/5/2020 5:45:00 PM 9.25 48.65 0.057 7.63 4.14 11
11/5/2020 6:00:00 PM 9.19 48.542 0.057 7.62 4.04 10.92
11/5/2020 6:15:00 PM 9.13 48.434 0.057 7.6 4.47 10.86
11/5/2020 6:30:00 PM 9.07 48.326 0.057 7.57 4.14 10.81
11/5/2020 6:45:00 PM 9.03 48.254 0.057 7.56 4.24 10.78
11/5/2020 7:00:00 PM 8.97 48.146 0.057 7.53 4.23 10.75
11/5/2020 7:15:00 PM 8.93 48.074 0.057 7.53 4.13 10.73
11/5/2020 7:30:00 PM 8.88 47.984 0.056 7.51 4.17 10.71
11/5/2020 7:45:00 PM 8.83 47.894 0.056 7.51 4.24 10.71
11/5/2020 8:00:00 PM 8.78 47.804 0.055 7.49 4.18 10.69
11/5/2020 8:15:00 PM 8.74 47.732 0.056 7.49 4.19 10.69
11/5/2020 8:30:00 PM 8.69 47.642 0.055 7.48 4.17 10.69
11/5/2020 8:45:00 PM 8.65 47.57 0.054 7.48 4.74 10.7
11/5/2020 9:00:00 PM 8.6 47.48 0.054 7.47 4.6 10.71
11/5/2020 9:15:00 PM 8.56 47.408 0.054 7.47 4.58 10.72
11/5/2020 9:30:00 PM 8.51 47.318 0.054 7.47 4.2 10.72
11/5/2020 9:45:00 PM 8.47 47.246 0.054 7.46 4.4 10.72
11/5/2020 10:00:00 PM 8.44 47.192 0.053 7.46 4.54 10.73
11/5/2020 10:15:00 PM 8.41 47.138 0.053 7.45 4.5 10.74
11/5/2020 10:30:00 PM 8.38 47.084 0.053 7.45 4.44 10.75
11/5/2020 10:45:00 PM 8.35 47.03 0.053 7.45 4.44 10.75
11/5/2020 11:00:00 PM 8.34 47.012 0.053 7.45 4.36 10.77
11/5/2020 11:15:00 PM 8.31 46.958 0.052 7.45 4.48 10.78
11/5/2020 11:30:00 PM 8.3 46.94 0.052 7.45 4.43 10.79
11/5/2020 11:45:00 PM 8.28 46.904 0.052 7.44 4.31 10.78
11/6/2020 12:00:00 AM 8.26 46.868 0.052 7.44 4.41 10.79
11/6/2020 12:15:00 AM 8.24 46.832 0.052 7.44 4.37 10.79
11/6/2020 12:30:00 AM 8.22 46.796 0.052 7.44 4.42 10.81
11/6/2020 12:45:00 AM 8.21 46.778 0.052 7.44 4.41 10.81
11/6/2020 1:00:00 AM 8.2 46.76 0.051 7.44 4.41 10.82
11/6/2020 1:15:00 AM 8.17 46.706 0.052 7.44 4.39 10.82
11/6/2020 1:30:00 AM 8.15 46.67 0.051 7.44 4.38 10.83
11/6/2020 1:45:00 AM 8.13 46.634 0.05 7.43 4.34 10.84
11/6/2020 2:00:00 AM 8.1 46.58 0.05 7.43 4.33 10.84
11/6/2020 2:15:00 AM 8.07 46.526 0.051 7.43 4.13 10.84
11/6/2020 2:30:00 AM 8.06 46.508 0.05 7.43 4.11 10.86
11/6/2020 2:45:00 AM 8.03 46.454 0.05 7.43 4.1 10.85
11/6/2020 3:00:00 AM 7.99 46.382 0.05 7.43 4.11 10.88
11/6/2020 3:15:00 AM 7.97 46.346 0.05 7.43 4.26 10.9
11/6/2020 3:30:00 AM 7.94 46.292 0.05 7.43 4.14 10.9
11/6/2020 3:45:00 AM 7.92 46.256 0.05 7.43 4.17 10.9
11/6/2020 4:00:00 AM 7.91 46.238 0.05 7.43 4.15 10.92
11/6/2020 4:15:00 AM 7.88 46.184 0.049 7.43 4.16 10.94
11/6/2020 4:30:00 AM 7.84 46.112 0.049 7.43 4.28 10.93
11/6/2020 4:45:00 AM 7.82 46.076 0.049 7.43 4.19 10.94
11/6/2020 5:00:00 AM 7.77 45.986 0.048 7.42 4.11 10.95
11/6/2020 5:15:00 AM 7.74 45.932 0.049 7.42 4.1 10.94
11/6/2020 5:30:00 AM 7.7 45.86 0.048 7.43 4.15 10.97
11/6/2020 5:45:00 AM 7.65 45.77 0.048 7.43 4.12 10.98
11/6/2020 6:00:00 AM 7.6 45.68 0.048 7.43 4.18 10.99
11/6/2020 6:15:00 AM 7.55 45.59 0.048 7.43 4.19 11.02
11/6/2020 6:30:00 AM 7.5 45.5 0.047 7.43 4.11 11.03
11/6/2020 6:45:00 AM 7.45 45.41 0.047 7.43 4.2 11.06
11/6/2020 7:00:00 AM 7.4 45.32 0.047 7.44 4.3 11.11
11/6/2020 7:15:00 AM 7.35 45.23 0.047 7.45 4.18 11.23
11/6/2020 7:30:00 AM 7.32 45.176 0.047 7.46 4.2 11.36
11/6/2020 7:45:00 AM 7.29 45.122 0.047 7.48 4.18 11.51
11/6/2020 8:00:00 AM 7.26 45.068 0.047 7.5 4.11 11.64
11/6/2020 8:15:00 AM 7.25 45.05 0.047 7.52 4.19 11.76
11/6/2020 8:30:00 AM 7.24 45.032 0.047 7.55 4.21 11.9
11/6/2020 8:45:00 AM 7.25 45.05 0.047 7.57 4.12 12.03
11/6/2020 9:00:00 AM 7.29 45.122 0.047 7.61 4.16 12.17
11/6/2020 9:15:00 AM 7.34 45.212 0.047 7.63 4.17 12.31
11/6/2020 9:30:00 AM 7.42 45.356 0.047 7.67 4.25 12.45
11/6/2020 9:45:00 AM 7.56 45.608 0.047 7.71 4.24 12.58
11/6/2020 10:00:00 AM 7.69 45.842 0.048 7.75 4.12 12.69
11/6/2020 10:15:00 AM 7.84 46.112 0.048 7.8 4.09 12.79
11/6/2020 10:30:00 AM 8 46.4 0.049 7.85 4.05 12.88
11/6/2020 10:45:00 AM 8.18 46.724 0.049 7.9 4.05 12.95
11/6/2020 11:00:00 AM 8.33 46.994 0.049 7.94 4.03 12.99
11/6/2020 11:15:00 AM 8.51 47.318 0.05 7.98 4.06 13.02
11/6/2020 11:30:00 AM 8.69 47.642 0.05 8.03 4.08 13.04
11/6/2020 11:45:00 AM 8.86 47.948 0.051 8.07 4.06 13.06
11/6/2020 12:00:00 PM 9.04 48.272 0.051 8.12 4.03 13.06
11/6/2020 12:15:00 PM 9.24 48.632 0.052 8.15 4.06 13.06
11/6/2020 12:30:00 PM 9.45 49.01 0.052 8.19 3.97 13.03
11/6/2020 12:45:00 PM 9.64 49.352 0.052 8.21 3.95 13.01
11/6/2020 1:00:00 PM 9.86 49.748 0.054 8.24 3.98 12.95
11/6/2020 1:15:00 PM 10.06 50.108 0.053 8.27 3.97 12.88
11/6/2020 1:30:00 PM 10.22 50.396 0.054 8.28 3.89 12.81
11/6/2020 1:45:00 PM 10.38 50.684 0.055 8.29 3.9 12.72
11/6/2020 2:00:00 PM 10.47 50.846 0.054 8.28 3.93 12.61
11/6/2020 2:15:00 PM 10.55 50.99 0.055 8.26 3.99 12.5
11/6/2020 2:30:00 PM 10.58 51.044 0.055 8.24 3.94 12.4
11/6/2020 2:45:00 PM 10.58 51.044 0.055 8.21 3.91 12.29
11/6/2020 3:00:00 PM 10.57 51.026 0.055 8.19 3.96 12.19
11/6/2020 3:15:00 PM 10.54 50.972 0.055 8.16 3.87 12.1
11/6/2020 3:30:00 PM 10.5 50.9 0.055 8.12 3.95 12
11/6/2020 3:45:00 PM 10.45 50.81 0.055 8.08 3.96 11.9
11/6/2020 4:00:00 PM 10.39 50.702 0.054 8.04 4.04 11.79
11/6/2020 4:15:00 PM 10.33 50.594 0.054 7.98 4.01 11.66
11/6/2020 4:30:00 PM 10.26 50.468 0.054 7.93 4.06 11.51
11/6/2020 4:45:00 PM 10.18 50.324 0.053 7.86 4.02 11.33
11/6/2020 5:00:00 PM 10.11 50.198 0.053 7.8 3.95 11.15
11/6/2020 5:15:00 PM 10.04 50.072 0.053 7.75 4.09 11
11/6/2020 5:30:00 PM 9.97 49.946 0.052 7.7 3.94 10.88
11/6/2020 5:45:00 PM 9.9 49.82 0.052 7.66 3.95 10.77
11/6/2020 6:00:00 PM 9.84 49.712 0.052 7.63 4.06 10.68
11/6/2020 6:15:00 PM 9.78 49.604 0.052 7.6 4.11 10.63
11/6/2020 6:30:00 PM 9.71 49.478 0.052 7.58 4.01 10.58
11/6/2020 6:45:00 PM 9.65 49.37 0.05 7.56 4.1 10.55
11/6/2020 7:00:00 PM 9.59 49.262 0.05 7.54 4.45 10.5
11/6/2020 7:15:00 PM 9.54 49.172 0.05 7.53 4.04 10.49
11/6/2020 7:30:00 PM 9.49 49.082 0.05 7.52 4.14 10.49
11/6/2020 7:45:00 PM 9.42 48.956 0.05 7.51 4.07 10.47
11/6/2020 8:00:00 PM 9.37 48.866 0.048 7.5 4.02 10.48
11/6/2020 8:15:00 PM 9.32 48.776 0.049 7.5 4.09 10.49
11/6/2020 8:30:00 PM 9.26 48.668 0.048 7.49 4.03 10.48
11/6/2020 8:45:00 PM 9.2 48.56 0.048 7.48 4.08 10.5
11/6/2020 9:00:00 PM 9.14 48.452 0.048 7.48 4.09 10.49
11/6/2020 9:15:00 PM 9.08 48.344 0.048 7.47 4.08 10.5
11/6/2020 9:30:00 PM 9.03 48.254 0.047 7.47 4.08 10.51
11/6/2020 9:45:00 PM 8.97 48.146 0.047 7.46 4.13 10.51
11/6/2020 10:00:00 PM 8.92 48.056 0.047 7.46 4.06 10.55
11/6/2020 10:15:00 PM 8.87 47.966 0.047 7.46 5.38 10.54
11/6/2020 10:30:00 PM 8.81 47.858 0.047 7.45 4.06 10.55
11/6/2020 10:45:00 PM 8.76 47.768 0.046 7.45 4.12 10.57
11/6/2020 11:00:00 PM 8.72 47.696 0.046 7.45 3.99 10.58
11/6/2020 11:15:00 PM 8.66 47.588 0.046 7.44 4.07 10.6
11/6/2020 11:30:00 PM 8.62 47.516 0.046 7.45 4.02 10.61
11/6/2020 11:45:00 PM 8.57 47.426 0.046 7.45 4.03 10.63
11/7/2020 12:00:00 AM 8.52 47.336 0.046 7.45 4.07 10.64
11/7/2020 12:15:00 AM 8.47 47.246 0.045 7.44 4.06 10.64
11/7/2020 12:30:00 AM 8.43 47.174 0.044 7.44 4.08 10.66
11/7/2020 12:45:00 AM 8.38 47.084 0.044 7.44 4.08 10.68
11/7/2020 1:00:00 AM 8.33 46.994 0.044 7.44 4.07 10.7
11/7/2020 1:15:00 AM 8.28 46.904 0.044 7.44 4.07 10.72
11/7/2020 1:30:00 AM 8.23 46.814 0.044 7.44 4.11 10.73
11/7/2020 1:45:00 AM 8.19 46.742 0.044 7.44 4.18 10.76
11/7/2020 2:00:00 AM 8.13 46.634 0.043 7.44 4.22 10.75
11/7/2020 2:15:00 AM 8.08 46.544 0.043 7.44 4.05 10.78
11/7/2020 2:30:00 AM 8.03 46.454 0.043 7.44 4.26 10.81
11/7/2020 2:45:00 AM 7.97 46.346 0.043 7.44 4.12 10.82
11/7/2020 3:00:00 AM 7.93 46.274 0.043 7.44 4.1 10.86
11/7/2020 3:15:00 AM 7.86 46.148 0.042 7.44 4.11 10.85
11/7/2020 3:30:00 AM 7.81 46.058 0.042 7.44 4.04 10.88
11/7/2020 3:45:00 AM 7.76 45.968 0.042 7.44 4.12 10.9
11/7/2020 4:00:00 AM 7.7 45.86 0.042 7.44 4.11 10.92
11/7/2020 4:15:00 AM 7.64 45.752 0.042 7.44 4.12 10.92
11/7/2020 4:30:00 AM 7.59 45.662 0.041 7.44 4.25 10.95
11/7/2020 4:45:00 AM 7.53 45.554 0.041 7.43 4.13 10.97
11/7/2020 5:00:00 AM 7.48 45.464 0.041 7.43 4.19 10.98
11/7/2020 5:15:00 AM 7.43 45.374 0.04 7.43 4.12 11
11/7/2020 5:30:00 AM 7.37 45.266 0.041 7.44 4.11 11.04
11/7/2020 5:45:00 AM 7.32 45.176 0.04 7.43 4.12 11.05
11/7/2020 6:00:00 AM 7.26 45.068 0.04 7.43 4.14 11.06
11/7/2020 6:15:00 AM 7.2 44.96 0.04 7.43 4.14 11.09
11/7/2020 6:30:00 AM 7.15 44.87 0.04 7.43 4.13 11.1
11/7/2020 6:45:00 AM 7.1 44.78 0.04 7.43 4.2 11.15
11/7/2020 7:00:00 AM 7.05 44.69 0.039 7.45 4.14 11.24
11/7/2020 7:15:00 AM 7.02 44.636 0.039 7.46 4.12 11.37
11/7/2020 7:30:00 AM 6.99 44.582 0.039 7.48 4.13 11.53
11/7/2020 7:45:00 AM 6.96 44.528 0.039 7.5 4.12 11.69
11/7/2020 8:00:00 AM 6.93 44.474 0.039 7.52 4.11 11.82
11/7/2020 8:15:00 AM 6.92 44.456 0.039 7.54 4.09 11.97
11/7/2020 8:30:00 AM 6.92 44.456 0.039 7.57 4.06 12.1
11/7/2020 8:45:00 AM 6.92 44.456 0.039 7.59 4.13 12.24
11/7/2020 9:00:00 AM 6.94 44.492 0.039 7.62 4.06 12.38
11/7/2020 9:15:00 AM 6.99 44.582 0.039 7.64 4.15 12.5
11/7/2020 9:30:00 AM 7.07 44.726 0.039 7.69 4.23 12.68
11/7/2020 9:45:00 AM 7.18 44.924 0.04 7.73 4.46 12.82
11/7/2020 10:00:00 AM 7.31 45.158 0.041 7.79 4.23 12.97
11/7/2020 10:15:00 AM 7.45 45.41 0.04 7.84 4.22 13.07
11/7/2020 10:30:00 AM 7.61 45.698 0.041 7.9 4.06 13.19
11/7/2020 10:45:00 AM 7.78 46.004 0.04 7.96 4.16 13.27
11/7/2020 11:00:00 AM 7.94 46.292 0.041 8.01 3.99 13.34
11/7/2020 11:15:00 AM 8.12 46.616 0.041 8.06 4.18 13.38
11/7/2020 11:30:00 AM 8.29 46.922 0.042 8.11 4.12 13.4
11/7/2020 11:45:00 AM 8.49 47.282 0.043 8.17 4.56 13.42
11/7/2020 12:00:00 PM 8.67 47.606 0.042 8.21 3.92 13.42
11/7/2020 12:15:00 PM 8.85 47.93 0.043 8.25 4.13 13.41
11/7/2020 12:30:00 PM 9.06 48.308 0.043 8.29 3.97 13.39
11/7/2020 12:45:00 PM 9.26 48.668 0.044 8.33 3.96 13.36
11/7/2020 1:00:00 PM 9.5 49.1 0.044 8.37 3.96 13.31
11/7/2020 1:15:00 PM 9.7 49.46 0.045 8.39 3.89 13.25
11/7/2020 1:30:00 PM 9.92 49.856 0.046 8.42 4 13.22
11/7/2020 1:45:00 PM 10.11 50.198 0.046 8.45 3.84 13.15
11/7/2020 2:00:00 PM 10.26 50.468 0.046 8.46 3.9 13.05
11/7/2020 2:15:00 PM 10.35 50.63 0.047 8.45 3.96 12.97
11/7/2020 2:30:00 PM 10.41 50.738 0.048 8.45 3.86 12.87
11/7/2020 2:45:00 PM 10.44 50.792 0.048 8.44 3.92 12.78
11/7/2020 3:00:00 PM 10.45 50.81 0.047 8.43 3.94 12.73
11/7/2020 3:15:00 PM 10.47 50.846 0.047 8.43 3.8 12.68
11/7/2020 3:30:00 PM 10.45 50.81 0.047 8.41 3.81 12.59
11/7/2020 3:45:00 PM 10.4 50.72 0.047 8.35 3.89 12.42
11/7/2020 4:00:00 PM 10.33 50.594 0.047 8.28 3.91 12.22
11/7/2020 4:15:00 PM 10.26 50.468 0.047 8.21 3.88 12.06
11/7/2020 4:30:00 PM 10.19 50.342 0.046 8.12 3.99 11.87
11/7/2020 4:45:00 PM 10.1 50.18 0.046 8.03 3.87 11.65
11/7/2020 5:00:00 PM 10.02 50.036 0.045 7.94 3.9 11.42
11/7/2020 5:15:00 PM 9.94 49.892 0.045 7.85 4.12 11.22
11/7/2020 5:30:00 PM 9.86 49.748 0.045 7.79 3.93 11.07
11/7/2020 5:45:00 PM 9.78 49.604 0.045 7.74 4.05 10.96
11/7/2020 6:00:00 PM 9.7 49.46 0.045 7.69 3.96 10.85
11/7/2020 6:15:00 PM 9.63 49.334 0.044 7.65 3.96 10.77
11/7/2020 6:30:00 PM 9.56 49.208 0.044 7.62 4.07 10.7
11/7/2020 6:45:00 PM 9.49 49.082 0.044 7.59 3.89 10.64
11/7/2020 7:00:00 PM 9.42 48.956 0.042 7.57 4.28 10.6
11/7/2020 7:15:00 PM 9.36 48.848 0.043 7.56 3.96 10.59
11/7/2020 7:30:00 PM 9.31 48.758 0.042 7.55 3.93 10.58
11/7/2020 7:45:00 PM 9.25 48.65 0.042 7.53 4 10.55
11/7/2020 8:00:00 PM 9.19 48.542 0.043 7.52 4.14 10.55
11/7/2020 8:15:00 PM 9.13 48.434 0.042 7.51 3.94 10.55
11/7/2020 8:30:00 PM 9.08 48.344 0.042 7.51 4.04 10.56
11/7/2020 8:45:00 PM 9.02 48.236 0.041 7.5 4.04 10.55
11/7/2020 9:00:00 PM 8.96 48.128 0.042 7.49 4.08 10.55
11/7/2020 9:15:00 PM 8.9 48.02 0.041 7.49 4.07 10.56
11/7/2020 9:30:00 PM 8.85 47.93 0.041 7.48 4.19 10.58
11/7/2020 9:45:00 PM 8.78 47.804 0.04 7.48 4.05 10.58
11/7/2020 10:00:00 PM 8.72 47.696 0.041 7.47 3.97 10.59
11/7/2020 10:15:00 PM 8.67 47.606 0.041 7.47 4.01 10.61
11/7/2020 10:30:00 PM 8.61 47.498 0.04 7.47 4 10.61
11/7/2020 10:45:00 PM 8.55 47.39 0.04 7.46 4 10.63
11/7/2020 11:00:00 PM 8.5 47.3 0.04 7.46 4.33 10.64
11/7/2020 11:15:00 PM 8.44 47.192 0.039 7.46 4.2 10.65
11/7/2020 11:30:00 PM 8.39 47.102 0.039 7.46 4.19 10.67
11/7/2020 11:45:00 PM 8.34 47.012 0.039 7.45 3.98 10.68
11/8/2020 12:00:00 AM 8.28 46.904 0.039 7.45 3.99 10.7
11/8/2020 12:15:00 AM 8.22 46.796 0.039 7.45 4 10.72
11/8/2020 12:30:00 AM 8.17 46.706 0.038 7.45 4 10.74
11/8/2020 12:45:00 AM 8.11 46.598 0.038 7.44 4.12 10.74
11/8/2020 1:00:00 AM 8.06 46.508 0.038 7.44 4.21 10.74
11/8/2020 1:15:00 AM 8 46.4 0.038 7.44 4.08 10.77
11/8/2020 1:30:00 AM 7.95 46.31 0.039 7.44 4.21 10.78
11/8/2020 1:45:00 AM 7.9 46.22 0.038 7.43 4.16 10.8
11/8/2020 2:00:00 AM 7.86 46.148 0.038 7.44 4.07 10.84
11/8/2020 2:15:00 AM 7.8 46.04 0.038 7.44 3.98 10.86
11/8/2020 2:30:00 AM 7.74 45.932 0.037 7.43 4.04 10.85
11/8/2020 2:45:00 AM 7.68 45.824 0.037 7.43 4.11 10.86
11/8/2020 3:00:00 AM 7.63 45.734 0.037 7.43 4.1 10.89
11/8/2020 3:15:00 AM 7.57 45.626 0.036 7.43 4.06 10.91
11/8/2020 3:30:00 AM 7.51 45.518 0.037 7.43 4.07 10.93
11/8/2020 3:45:00 AM 7.46 45.428 0.036 7.43 4.11 10.95
11/8/2020 4:00:00 AM 7.4 45.32 0.036 7.43 4.09 10.95
11/8/2020 4:15:00 AM 7.35 45.23 0.036 7.43 4.03 10.99
11/8/2020 4:30:00 AM 7.28 45.104 0.036 7.43 4.18 11
11/8/2020 4:45:00 AM 7.21 44.978 0.036 7.43 4.08 11.03
11/8/2020 5:00:00 AM 7.16 44.888 0.035 7.43 4.07 11.04
11/8/2020 5:15:00 AM 7.1 44.78 0.035 7.43 4.12 11.07
11/8/2020 5:30:00 AM 7.05 44.69 0.035 7.43 4.11 11.1
11/8/2020 5:45:00 AM 6.98 44.564 0.035 7.42 4.07 11.11
11/8/2020 6:00:00 AM 6.92 44.456 0.035 7.43 4.05 11.13
11/8/2020 6:15:00 AM 6.86 44.348 0.035 7.42 4.12 11.14
11/8/2020 6:30:00 AM 6.8 44.24 0.034 7.43 4.15 11.18
11/8/2020 6:45:00 AM 6.74 44.132 0.035 7.42 4.15 11.2
11/8/2020 7:00:00 AM 6.69 44.042 0.034 7.44 4.2 11.29
11/8/2020 7:15:00 AM 6.64 43.952 0.035 7.45 4.15 11.4
11/8/2020 7:30:00 AM 6.6 43.88 0.034 7.47 4.08 11.56
11/8/2020 7:45:00 AM 6.56 43.808 0.034 7.49 4.03 11.73
11/8/2020 8:00:00 AM 6.54 43.772 0.033 7.51 4.04 11.9
11/8/2020 8:15:00 AM 6.51 43.718 0.034 7.53 4.14 12.05
11/8/2020 8:30:00 AM 6.5 43.7 0.034 7.55 4.08 12.22
11/8/2020 8:45:00 AM 6.5 43.7 0.034 7.59 4.16 12.36
11/8/2020 9:00:00 AM 6.51 43.718 0.034 7.61 4.1 12.5
11/8/2020 9:15:00 AM 6.55 43.79 0.034 7.65 4.04 12.67
11/8/2020 9:30:00 AM 6.62 43.916 0.034 7.69 4.08 12.84
11/8/2020 9:45:00 AM 6.74 44.132 0.035 7.75 4.05 13.02
11/8/2020 10:00:00 AM 6.86 44.348 0.035 7.79 4.1 13.18
11/8/2020 10:15:00 AM 7 44.6 0.035 7.86 4.02 13.32
11/8/2020 10:30:00 AM 7.16 44.888 0.035 7.92 3.98 13.43
11/8/2020 10:45:00 AM 7.33 45.194 0.036 7.98 4.02 13.53
11/8/2020 11:00:00 AM 7.48 45.464 0.035 8.03 4.02 13.59
11/8/2020 11:15:00 AM 7.67 45.806 0.036 8.09 4.09 13.65
11/8/2020 11:30:00 AM 7.86 46.148 0.035 8.15 3.96 13.69
11/8/2020 11:45:00 AM 8.04 46.472 0.037 8.2 4.07 13.7
11/8/2020 12:00:00 PM 8.22 46.796 0.037 8.24 3.89 13.71
11/8/2020 12:15:00 PM 8.41 47.138 0.037 8.29 4.04 13.7
11/8/2020 12:30:00 PM 8.62 47.516 0.038 8.33 3.98 13.7
11/8/2020 12:45:00 PM 8.81 47.858 0.037 8.36 3.9 13.68
11/8/2020 1:00:00 PM 9.03 48.254 0.038 8.4 4.06 13.63
11/8/2020 1:15:00 PM 9.25 48.65 0.039 8.43 3.82 13.57
11/8/2020 1:30:00 PM 9.47 49.046 0.04 8.45 4.02 13.5
11/8/2020 1:45:00 PM 9.64 49.352 0.039 8.46 3.87 13.38
11/8/2020 2:00:00 PM 9.76 49.568 0.041 8.46 3.85 13.26
11/8/2020 2:15:00 PM 9.9 49.82 0.04 8.46 3.89 13.12
11/8/2020 2:30:00 PM 9.95 49.91 0.04 8.43 4.05 12.98
11/8/2020 2:45:00 PM 9.99 49.982 0.04 8.41 3.84 12.84
11/8/2020 3:00:00 PM 10 50 0.04 8.38 3.85 12.71
11/8/2020 3:15:00 PM 9.99 49.982 0.041 8.35 3.85 12.61
11/8/2020 3:30:00 PM 9.95 49.91 0.041 8.32 3.96 12.5
11/8/2020 3:45:00 PM 9.9 49.82 0.04 8.27 3.95 12.4
11/8/2020 4:00:00 PM 9.84 49.712 0.041 8.21 3.96 12.25
11/8/2020 4:15:00 PM 9.76 49.568 0.041 8.15 3.85 12.11
11/8/2020 4:30:00 PM 9.68 49.424 0.041 8.08 3.88 11.95
11/8/2020 4:45:00 PM 9.59 49.262 0.039 7.99 3.97 11.74
11/8/2020 5:00:00 PM 9.51 49.118 0.04 7.91 3.92 11.54
11/8/2020 5:15:00 PM 9.42 48.956 0.039 7.83 3.86 11.36
11/8/2020 5:30:00 PM 9.33 48.794 0.039 7.77 3.94 11.21
11/8/2020 5:45:00 PM 9.24 48.632 0.039 7.72 3.94 11.09
11/8/2020 6:00:00 PM 9.14 48.452 0.04 7.68 3.98 11
11/8/2020 6:15:00 PM 9.05 48.29 0.039 7.64 3.92 10.92
11/8/2020 6:30:00 PM 8.97 48.146 0.039 7.62 3.99 10.87
11/8/2020 6:45:00 PM 8.9 48.02 0.039 7.6 3.98 10.83
11/8/2020 7:00:00 PM 8.83 47.894 0.039 7.58 3.95 10.79
11/8/2020 7:15:00 PM 8.76 47.768 0.038 7.56 3.88 10.76
11/8/2020 7:30:00 PM 8.7 47.66 0.038 7.55 4.24 10.75
11/8/2020 7:45:00 PM 8.64 47.552 0.038 7.53 4.85 10.74
11/8/2020 8:00:00 PM 8.58 47.444 0.038 7.52 3.96 10.73
11/8/2020 8:15:00 PM 8.52 47.336 0.039 7.51 3.95 10.71
11/8/2020 8:30:00 PM 8.47 47.246 0.038 7.5 4.01 10.73
11/8/2020 8:45:00 PM 8.4 47.12 0.038 7.5 3.89 10.72
11/8/2020 9:00:00 PM 8.34 47.012 0.038 7.49 4.05 10.73
11/8/2020 9:15:00 PM 8.29 46.922 0.038 7.49 4 10.77
11/8/2020 9:30:00 PM 8.22 46.796 0.037 7.48 4 10.76
11/8/2020 9:45:00 PM 8.16 46.688 0.037 7.48 3.96 10.8
11/8/2020 10:00:00 PM 8.1 46.58 0.037 7.48 4.06 10.79
11/8/2020 10:15:00 PM 8.04 46.472 0.036 7.47 4.07 10.81
11/8/2020 10:30:00 PM 7.97 46.346 0.036 7.46 3.93 10.82
11/8/2020 10:45:00 PM 7.91 46.238 0.037 7.46 4.1 10.82
11/8/2020 11:00:00 PM 7.86 46.148 0.037 7.46 4.1 10.85
11/8/2020 11:15:00 PM 7.79 46.022 0.035 7.46 4.08 10.85
11/8/2020 11:30:00 PM 7.74 45.932 0.036 7.46 4.07 10.87
11/8/2020 11:45:00 PM 7.69 45.842 0.036 7.45 4.03 10.87
11/9/2020 12:00:00 AM 7.64 45.752 0.036 7.44 3.92 10.89
11/9/2020 12:15:00 AM 7.58 45.644 0.036 7.45 3.99 10.9
11/9/2020 12:30:00 AM 7.53 45.554 0.036 7.44 3.89 10.89
11/9/2020 12:45:00 AM 7.48 45.464 0.035 7.45 4.02 10.93
11/9/2020 1:00:00 AM 7.43 45.374 0.036 7.43 3.92 10.93
11/9/2020 1:15:00 AM 7.38 45.284 0.035 7.44 4.01 10.96
11/9/2020 1:30:00 AM 7.33 45.194 0.036 7.44 4.12 10.98
11/9/2020 1:45:00 AM 7.29 45.122 0.036 7.44 4.11 10.98
11/9/2020 2:00:00 AM 7.22 44.996 0.035 7.43 4.46 10.99
11/9/2020 2:15:00 AM 7.17 44.906 0.035 7.43 4.04 11.01
11/9/2020 2:30:00 AM 7.13 44.834 0.034 7.43 4.04 11.03
11/9/2020 2:45:00 AM 7.08 44.744 0.035 7.43 3.99 11.04
11/9/2020 3:00:00 AM 7.03 44.654 0.035 7.44 3.99 11.08
11/9/2020 3:15:00 AM 6.97 44.546 0.035 7.43 3.96 11.06
11/9/2020 3:30:00 AM 6.92 44.456 0.034 7.42 4.06 11.08
11/9/2020 3:45:00 AM 6.87 44.366 0.035 7.43 3.97 11.1
11/9/2020 4:00:00 AM 6.82 44.276 0.034 7.43 4.04 11.12
11/9/2020 4:15:00 AM 6.77 44.186 0.033 7.43 4.08 11.16
11/9/2020 4:30:00 AM 6.72 44.096 0.035 7.42 4.26 11.16
11/9/2020 4:45:00 AM 6.66 43.988 0.035 7.43 4 11.17
11/9/2020 5:00:00 AM 6.61 43.898 0.034 7.43 4.04 11.2
11/9/2020 5:15:00 AM 6.56 43.808 0.033 7.43 4.05 11.23
11/9/2020 5:30:00 AM 6.51 43.718 0.034 7.42 4.04 11.25
11/9/2020 5:45:00 AM 6.46 43.628 0.034 7.43 3.98 11.25
11/9/2020 6:00:00 AM 6.41 43.538 0.033 7.42 4.04 11.28
11/9/2020 6:15:00 AM 6.36 43.448 0.034 7.43 3.98 11.3
11/9/2020 6:30:00 AM 6.31 43.358 0.033 7.43 3.96 11.34
11/9/2020 6:45:00 AM 6.26 43.268 0.033 7.43 4.04 11.34
11/9/2020 7:00:00 AM 6.22 43.196 0.033 7.43 4.06 11.4
11/9/2020 7:15:00 AM 6.18 43.124 0.033 7.45 3.95 11.55
11/9/2020 7:30:00 AM 6.14 43.052 0.033 7.46 4.16 11.71
11/9/2020 7:45:00 AM 6.12 43.016 0.034 7.49 4.06 11.88
11/9/2020 8:00:00 AM 6.1 42.98 0.034 7.51 4.05 12.04
11/9/2020 8:15:00 AM 6.09 42.962 0.034 7.54 4.04 12.19
11/9/2020 8:30:00 AM 6.08 42.944 0.034 7.55 4.1 12.35
11/9/2020 8:45:00 AM 6.09 42.962 0.034 7.58 4.03 12.49
11/9/2020 9:00:00 AM 6.1 42.98 0.034 7.61 4.03 12.64
11/9/2020 9:15:00 AM 6.14 43.052 0.033 7.64 3.94 12.78
11/9/2020 9:30:00 AM 6.21 43.178 0.033 7.68 3.96 12.96
11/9/2020 9:45:00 AM 6.31 43.358 0.034 7.74 4.05 13.16
11/9/2020 10:00:00 AM 6.45 43.61 0.034 7.79 3.95 13.34
11/9/2020 10:15:00 AM 6.59 43.862 0.035 7.85 4.01 13.47
11/9/2020 10:30:00 AM 6.76 44.168 0.035 7.91 4.05 13.6
11/9/2020 10:45:00 AM 6.92 44.456 0.035 7.97 3.97 13.71
11/9/2020 11:00:00 AM 7.11 44.798 0.035 8.04 3.99 13.8
11/9/2020 11:15:00 AM 7.29 45.122 0.036 8.11 3.97 13.87
11/9/2020 11:30:00 AM 7.46 45.428 0.036 8.17 4.05 13.91
11/9/2020 11:45:00 AM 7.65 45.77 0.036 8.22 3.93 13.93
11/9/2020 12:00:00 PM 7.85 46.13 0.036 8.27 3.85 13.96
11/9/2020 12:15:00 PM 8.06 46.508 0.037 8.32 3.97 13.94
11/9/2020 12:30:00 PM 8.24 46.832 0.038 8.35 3.94 13.92
11/9/2020 12:45:00 PM 8.5 47.3 0.038 8.41 3.87 13.88
11/9/2020 1:00:00 PM 8.73 47.714 0.039 8.45 3.89 13.82
11/9/2020 1:15:00 PM 8.96 48.128 0.039 8.47 3.88 13.75
11/9/2020 1:30:00 PM 9.19 48.542 0.04 8.5 4.54 13.67
11/9/2020 1:45:00 PM 9.42 48.956 0.04 8.52 4.14 13.55
11/9/2020 2:00:00 PM 9.63 49.334 0.04 8.53 3.96 13.43
11/9/2020 2:15:00 PM 9.72 49.496 0.041 8.52 3.82 13.29
11/9/2020 2:30:00 PM 9.85 49.73 0.041 8.51 3.89 13.14
11/9/2020 2:45:00 PM 9.92 49.856 0.041 8.49 3.85 12.98
11/9/2020 3:00:00 PM 9.96 49.928 0.041 8.47 4.36 12.85
11/9/2020 3:15:00 PM 9.97 49.946 0.041 8.44 4.01 12.73
11/9/2020 3:30:00 PM 9.97 49.946 0.041 8.41 14.32 12.61
11/9/2020 3:45:00 PM 9.94 49.892 0.041 8.36 3.92 12.47
11/9/2020 4:00:00 PM 9.9 49.82 0.041 8.31 3.78 12.34
11/9/2020 4:15:00 PM 9.85 49.73 0.04 8.25 3.93 12.19
11/9/2020 4:30:00 PM 9.78 49.604 0.04 8.16 3.88 12
11/9/2020 4:45:00 PM 9.7 49.46 0.04 8.08 3.78 11.79
11/9/2020 5:00:00 PM 9.62 49.316 0.039 7.97 3.85 11.55
11/9/2020 5:15:00 PM 9.54 49.172 0.039 7.88 3.91 11.36
11/9/2020 5:30:00 PM 9.46 49.028 0.039 7.82 3.87 11.19
11/9/2020 5:45:00 PM 9.38 48.884 0.038 7.76 3.8 11.06
11/9/2020 6:00:00 PM 9.3 48.74 0.039 7.71 3.92 10.93
11/9/2020 6:15:00 PM 9.22 48.596 0.038 7.67 3.91 10.86
11/9/2020 6:30:00 PM 9.15 48.47 0.039 7.63 3.95 10.77
11/9/2020 6:45:00 PM 9.08 48.344 0.038 7.61 3.86 10.73
11/9/2020 7:00:00 PM 9.02 48.236 0.037 7.59 4.07 10.67
11/9/2020 7:15:00 PM 8.96 48.128 0.038 7.57 4.2 10.65
11/9/2020 7:30:00 PM 8.91 48.038 0.037 7.55 3.94 10.62
11/9/2020 7:45:00 PM 8.86 47.948 0.037 7.54 3.96 10.59
11/9/2020 8:00:00 PM 8.81 47.858 0.037 7.53 3.92 10.58
11/9/2020 8:15:00 PM 8.77 47.786 0.037 7.51 3.89 10.58
11/9/2020 8:30:00 PM 8.73 47.714 0.036 7.5 3.92 10.57
11/9/2020 8:45:00 PM 8.68 47.624 0.037 7.5 3.92 10.56
11/9/2020 9:00:00 PM 8.64 47.552 0.036 7.49 3.9 10.55
11/9/2020 9:15:00 PM 8.6 47.48 0.036 7.49 3.86 10.57
11/9/2020 9:30:00 PM 8.55 47.39 0.036 7.48 4.14 10.57
11/9/2020 9:45:00 PM 8.51 47.318 0.036 7.46 3.93 10.57
11/9/2020 10:00:00 PM 8.47 47.246 0.036 7.47 3.94 10.58
11/9/2020 10:15:00 PM 8.42 47.156 0.036 7.46 4.11 10.58
11/9/2020 10:30:00 PM 8.38 47.084 0.035 7.45 3.97 10.57
11/9/2020 10:45:00 PM 8.34 47.012 0.035 7.46 4.01 10.6
11/9/2020 11:00:00 PM 8.3 46.94 0.036 7.46 3.97 10.6
11/9/2020 11:15:00 PM 8.26 46.868 0.035 7.46 3.91 10.63
11/9/2020 11:30:00 PM 8.21 46.778 0.035 7.46 4 10.63
11/9/2020 11:45:00 PM 8.17 46.706 0.035 7.45 3.92 10.63
11/10/2020 12:00:00 AM 8.12 46.616 0.034 7.44 3.9 10.65
11/10/2020 12:15:00 AM 8.09 46.562 0.034 7.44 3.98 10.65
11/10/2020 12:30:00 AM 8.05 46.49 0.034 7.44 4.18 10.65
11/10/2020 12:45:00 AM 8.01 46.418 0.035 7.44 3.91 10.68
11/10/2020 1:00:00 AM 7.97 46.346 0.035 7.43 4.04 10.69
11/10/2020 1:15:00 AM 7.94 46.292 0.034 7.44 3.91 10.7
11/10/2020 1:30:00 AM 7.9 46.22 0.034 7.44 4.13 10.7
11/10/2020 1:45:00 AM 7.86 46.148 0.034 7.43 3.87 10.72
11/10/2020 2:00:00 AM 7.82 46.076 0.033 7.44 4.11 10.76
11/10/2020 2:15:00 AM 7.79 46.022 0.033 7.43 3.97 10.75
11/10/2020 2:30:00 AM 7.75 45.95 0.033 7.43 4.04 10.75
11/10/2020 2:45:00 AM 7.72 45.896 0.033 7.43 4.05 10.78
11/10/2020 3:00:00 AM 7.68 45.824 0.033 7.43 3.97 10.8
11/10/2020 3:15:00 AM 7.65 45.77 0.033 7.43 4.02 10.8
11/10/2020 3:30:00 AM 7.61 45.698 0.033 7.43 4.15 10.8
11/10/2020 3:45:00 AM 7.58 45.644 0.033 7.42 3.8 10.8
11/10/2020 4:00:00 AM 7.55 45.59 0.033 7.42 3.89 10.8
11/10/2020 4:15:00 AM 7.52 45.536 0.032 7.43 3.96 10.84
11/10/2020 4:30:00 AM 7.48 45.464 0.032 7.42 3.85 10.82
11/10/2020 4:45:00 AM 7.45 45.41 0.032 7.42 4.07 10.85
11/10/2020 5:00:00 AM 7.43 45.374 0.032 7.42 3.92 10.84
11/10/2020 5:15:00 AM 7.41 45.338 0.032 7.42 3.93 10.86
11/10/2020 5:30:00 AM 7.38 45.284 0.031 7.42 3.96 10.88
11/10/2020 5:45:00 AM 7.35 45.23 0.032 7.42 4.02 10.87
11/10/2020 6:00:00 AM 7.33 45.194 0.032 7.42 3.98 10.89
11/10/2020 6:15:00 AM 7.32 45.176 0.032 7.42 4.02 10.89
11/10/2020 6:30:00 AM 7.3 45.14 0.031 7.42 3.9 10.9
11/10/2020 6:45:00 AM 7.27 45.086 0.031 7.42 4 10.93
11/10/2020 7:00:00 AM 7.24 45.032 0.031 7.43 3.92 10.98
11/10/2020 7:15:00 AM 7.23 45.014 0.031 7.45 3.89 11.15
11/10/2020 7:30:00 AM 7.21 44.978 0.031 7.47 3.98 11.32
11/10/2020 7:45:00 AM 7.21 44.978 0.03 7.49 4.02 11.51
11/10/2020 8:00:00 AM 7.21 44.978 0.03 7.52 3.98 11.71
11/10/2020 8:15:00 AM 7.21 44.978 0.03 7.55 3.9 11.89
11/10/2020 8:30:00 AM 7.23 45.014 0.03 7.58 4.02 12.04
11/10/2020 8:45:00 AM 7.25 45.05 0.03 7.61 3.91 12.19
11/10/2020 9:00:00 AM 7.3 45.14 0.031 7.64 3.91 12.34
11/10/2020 9:15:00 AM 7.36 45.248 0.031 7.68 3.94 12.47
11/10/2020 9:30:00 AM 7.48 45.464 0.031 7.73 4.15 12.65
11/10/2020 9:45:00 AM 7.61 45.698 0.031 7.78 3.96 12.81
11/10/2020 10:00:00 AM 7.8 46.04 0.032 7.87 3.91 13.05
11/10/2020 10:15:00 AM 7.96 46.328 0.032 7.93 3.83 13.2
11/10/2020 10:30:00 AM 8.18 46.724 0.032 8.01 3.83 13.37
11/10/2020 10:45:00 AM 8.4 47.12 0.032 8.11 3.84 13.51
11/10/2020 11:00:00 AM 8.63 47.534 0.033 8.19 3.76 13.61
11/10/2020 11:15:00 AM 8.83 47.894 0.033 8.26 3.85 13.69
11/10/2020 11:30:00 AM 9.07 48.326 0.033 8.34 3.83 13.72
11/10/2020 11:45:00 AM 9.28 48.704 0.034 8.4 3.84 13.76
11/10/2020 12:00:00 PM 9.48 49.064 0.034 8.44 3.75 13.77
11/10/2020 12:15:00 PM 9.69 49.442 0.034 8.49 4.12 13.74
11/10/2020 12:30:00 PM 9.92 49.856 0.035 8.54 4.3 13.72
11/10/2020 12:45:00 PM 10.12 50.216 0.035 8.57 3.78 13.67
11/10/2020 1:00:00 PM 10.34 50.612 0.036 8.61 3.77 13.64
11/10/2020 1:15:00 PM 10.57 51.026 0.036 8.64 4.18 13.56
11/10/2020 1:30:00 PM 10.77 51.386 0.037 8.68 4.09 13.47
11/10/2020 1:45:00 PM 10.98 51.764 0.037 8.69 3.85 13.33
11/10/2020 2:00:00 PM 11.13 52.034 0.037 8.68 3.76 13.17
11/10/2020 2:15:00 PM 11.3 52.34 0.037 8.69 3.72 13
11/10/2020 2:30:00 PM 11.44 52.592 0.037 8.68 3.86 12.84
11/10/2020 2:45:00 PM 11.53 52.754 0.038 8.66 3.85 12.67
11/10/2020 3:00:00 PM 11.56 52.808 0.038 8.64 3.71 12.52
11/10/2020 3:15:00 PM 11.61 52.898 0.038 8.61 3.75 12.39
11/10/2020 3:30:00 PM 11.61 52.898 0.038 8.58 3.85 12.24
11/10/2020 3:45:00 PM 11.58 52.844 0.037 8.53 3.74 12.07
11/10/2020 4:00:00 PM 11.55 52.79 0.037 8.48 3.78 11.93
11/10/2020 4:15:00 PM 11.48 52.664 0.037 8.4 3.75 11.76
11/10/2020 4:30:00 PM 11.4 52.52 0.036 8.32 3.78 11.55
11/10/2020 4:45:00 PM 11.32 52.376 0.036 8.2 3.8 11.3
11/10/2020 5:00:00 PM 11.24 52.232 0.036 8.09 3.78 11.06
11/10/2020 5:15:00 PM 11.16 52.088 0.036 7.97 3.9 10.81
11/10/2020 5:30:00 PM 11.08 51.944 0.036 7.88 3.91 10.62
11/10/2020 5:45:00 PM 11.01 51.818 0.036 7.81 3.82 10.48
11/10/2020 6:00:00 PM 10.93 51.674 0.035 7.76 4.34 10.36
11/10/2020 6:15:00 PM 10.86 51.548 0.034 7.71 4.19 10.27
11/10/2020 6:30:00 PM 10.78 51.404 0.034 7.67 4.13 10.18
11/10/2020 6:45:00 PM 10.72 51.296 0.034 7.63 4.07 10.1
11/10/2020 7:00:00 PM 10.65 51.17 0.034 7.61 4.1 10.07
11/10/2020 7:15:00 PM 10.59 51.062 0.034 7.59 4.11 10.04
11/10/2020 7:30:00 PM 10.54 50.972 0.034 7.57 4.05 10
11/10/2020 7:45:00 PM 10.49 50.882 0.033 7.55 4.05 9.97
11/10/2020 8:00:00 PM 10.44 50.792 0.033 7.54 4.23 9.96
11/10/2020 8:15:00 PM 10.41 50.738 0.033 7.52 4.12 9.94
11/10/2020 8:30:00 PM 10.38 50.684 0.033 7.51 4.08 9.95
11/10/2020 8:45:00 PM 10.36 50.648 0.033 7.51 4.12 9.94
11/10/2020 9:00:00 PM 10.32 50.576 0.033 7.5 4.14 9.91
11/10/2020 9:15:00 PM 10.3 50.54 0.032 7.49 4.23 9.9
11/10/2020 9:30:00 PM 10.27 50.486 0.032 7.49 4.18 9.93
11/10/2020 9:45:00 PM 10.25 50.45 0.032 7.48 4.17 9.92
11/10/2020 10:00:00 PM 10.25 50.45 0.032 7.47 4.2 9.9
11/10/2020 10:15:00 PM 10.24 50.432 0.032 7.47 4.09 9.93
11/10/2020 10:30:00 PM 10.21 50.378 0.032 7.47 4.19 9.92
11/10/2020 10:45:00 PM 10.18 50.324 0.032 7.47 4.12 9.94
11/10/2020 11:00:00 PM 10.16 50.288 0.032 7.46 4.1 9.94
11/10/2020 11:15:00 PM 10.15 50.27 0.031 7.46 4.08 9.95
11/10/2020 11:30:00 PM 10.14 50.252 0.032 7.46 4.15 9.93
11/10/2020 11:45:00 PM 10.13 50.234 0.032 7.46 4.18 9.91
11/11/2020 12:00:00 AM 10.11 50.198 0.031 7.45 4.12 9.92
11/11/2020 12:15:00 AM 10.1 50.18 0.031 7.45 4.14 9.93
11/11/2020 12:30:00 AM 10.09 50.162 0.031 7.46 4.11 9.97
11/11/2020 12:45:00 AM 10.07 50.126 0.031 7.45 4.16 9.97
11/11/2020 1:00:00 AM 10.06 50.108 0.031 7.45 4.03 9.95
11/11/2020 1:15:00 AM 10.06 50.108 0.031 7.45 4.2 9.96
11/11/2020 1:30:00 AM 10.04 50.072 0.031 7.45 4.02 9.95
11/11/2020 1:45:00 AM 10.02 50.036 0.031 7.45 4.14 9.96
11/11/2020 2:00:00 AM 10.03 50.054 0.031 7.45 4.15 9.96
11/11/2020 2:15:00 AM 10.02 50.036 0.031 7.44 4.12 9.96
11/11/2020 2:30:00 AM 10.01 50.018 0.03 7.44 4.06 9.97
11/11/2020 2:45:00 AM 9.98 49.964 0.03 7.43 4.07 9.96
11/11/2020 3:00:00 AM 9.97 49.946 0.031 7.44 4.06 9.97
11/11/2020 3:15:00 AM 9.97 49.946 0.03 7.44 4.04 9.95
11/11/2020 3:30:00 AM 9.97 49.946 0.03 7.43 4.1 9.96
11/11/2020 3:45:00 AM 9.99 49.982 0.03 7.43 4.08 9.96
11/11/2020 4:00:00 AM 10.02 50.036 0.03 7.44 4.03 9.97
11/11/2020 4:15:00 AM 10.07 50.126 0.03 7.44 4.06 9.93
11/11/2020 4:30:00 AM 10.14 50.252 0.03 7.44 4.02 9.94
11/11/2020 4:45:00 AM 10.21 50.378 0.03 7.44 4.05 9.93
11/11/2020 5:00:00 AM 10.27 50.486 0.03 7.43 4.1 9.9
11/11/2020 5:15:00 AM 10.33 50.594 0.03 7.44 4.01 9.91
11/11/2020 5:30:00 AM 10.38 50.684 0.03 7.43 4.03 9.9
11/11/2020 5:45:00 AM 10.44 50.792 0.03 7.44 4.05 9.9
11/11/2020 6:00:00 AM 10.5 50.9 0.03 7.44 4.1 9.88
11/11/2020 6:15:00 AM 10.54 50.972 0.03 7.43 4.08 9.83
11/11/2020 6:30:00 AM 10.6 51.08 0.03 7.44 4.57 9.86
11/11/2020 6:45:00 AM 10.65 51.17 0.03 7.44 4.26 9.85
11/11/2020 7:00:00 AM 10.69 51.242 0.03 7.44 4.22 9.84
11/11/2020 7:15:00 AM 10.73 51.314 0.03 7.45 4.18 9.9
11/11/2020 7:30:00 AM 10.77 51.386 0.03 7.45 3.97 9.95
11/11/2020 7:45:00 AM 10.82 51.476 0.03 7.46 3.94 10.02
11/11/2020 8:00:00 AM 10.85 51.53 0.031 7.47 4.05 10.07
11/11/2020 8:15:00 AM 10.93 51.674 0.031 7.5 4.33 10.31
11/11/2020 8:30:00 AM 11.01 51.818 0.031 7.55 3.89 10.57
11/11/2020 8:45:00 AM 11.11 51.998 0.031 7.6 3.89 10.89
11/11/2020 9:00:00 AM 11.17 52.106 0.031 7.62 3.88 10.95
11/11/2020 9:15:00 AM 11.22 52.196 0.031 7.63 3.86 10.93
11/11/2020 9:30:00 AM 11.33 52.394 0.031 7.66 3.85 11.02
11/11/2020 9:45:00 AM 11.4 52.52 0.031 7.67 3.91 10.99
11/11/2020 10:00:00 AM 11.47 52.646 0.031 7.7 3.9 11.14
11/11/2020 10:15:00 AM 11.54 52.772 0.031 7.76 3.85 11.3
11/11/2020 10:30:00 AM 11.61 52.898 0.031 7.78 3.85 11.36
11/11/2020 10:45:00 AM 11.66 52.988 0.031 7.79 3.88 11.33
11/11/2020 11:00:00 AM 11.69 53.042 0.031 7.79 3.82 11.3
11/11/2020 11:15:00 AM 11.72 53.096 0.031 7.8 3.87 11.28
11/11/2020 11:30:00 AM 11.75 53.15 0.032 7.81 3.85 11.33
11/11/2020 11:45:00 AM 11.81 53.258 0.032 7.85 3.84 11.4
11/11/2020 12:00:00 PM 11.88 53.384 0.031 7.9 3.99 11.54
11/11/2020 12:15:00 PM 11.97 53.546 0.031 7.94 3.89 11.63
11/11/2020 12:30:00 PM 12.04 53.672 0.032 7.95 3.88 11.57
11/11/2020 12:45:00 PM 12.07 53.726 0.032 7.98 3.82 11.61
11/11/2020 1:00:00 PM 12.12 53.816 0.032 7.99 3.84 11.59
11/11/2020 1:15:00 PM 12.17 53.906 0.032 8.01 3.91 11.61
11/11/2020 1:30:00 PM 12.21 53.978 0.032 8.02 3.88 11.6
11/11/2020 1:45:00 PM 12.26 54.068 0.032 8 3.92 11.45
11/11/2020 2:00:00 PM 12.31 54.158 0.032 7.97 3.96 11.35
11/11/2020 2:15:00 PM 12.36 54.248 0.032 7.97 4.01 11.33
11/11/2020 2:30:00 PM 12.39 54.302 0.032 7.95 4.02 11.24
11/11/2020 2:45:00 PM 12.42 54.356 0.032 7.92 4.03 11.08
11/11/2020 3:00:00 PM 12.45 54.41 0.032 7.87 4.2 10.94
11/11/2020 3:15:00 PM 12.49 54.482 0.032 7.81 4.6 10.72
11/11/2020 3:30:00 PM 12.53 54.554 0.032 7.78 4.93 10.59
11/11/2020 3:45:00 PM 12.57 54.626 0.032 7.77 6.37 10.57
11/11/2020 4:00:00 PM 12.61 54.698 0.032 7.74 5.8 10.45
11/11/2020 4:15:00 PM 12.63 54.734 0.031 7.68 5.9 10.23
11/11/2020 4:30:00 PM 12.64 54.752 0.031 7.65 5.94 10.09
11/11/2020 4:45:00 PM 12.64 54.752 0.031 7.61 5.82 9.96
11/11/2020 5:00:00 PM 12.65 54.77 0.031 7.58 5.9 9.83
11/11/2020 5:15:00 PM 12.66 54.788 0.031 7.55 5.96 9.74
11/11/2020 5:30:00 PM 12.67 54.806 0.031 7.53 5.87 9.64
11/11/2020 5:45:00 PM 12.68 54.824 0.031 7.51 5.68 9.6
11/11/2020 6:00:00 PM 12.69 54.842 0.031 7.49 5.83 9.53
11/11/2020 6:15:00 PM 12.69 54.842 0.031 7.49 5.58 9.52
11/11/2020 6:30:00 PM 12.7 54.86 0.032 7.48 5.58 9.48
11/11/2020 6:45:00 PM 12.73 54.914 0.031 7.47 5.1 9.48
11/11/2020 7:00:00 PM 12.75 54.95 0.032 7.46 5 9.42
11/11/2020 7:15:00 PM 12.75 54.95 0.032 7.46 5.01 9.42
11/11/2020 7:30:00 PM 12.77 54.986 0.032 7.46 4.97 9.41
11/11/2020 7:45:00 PM 12.78 55.004 0.032 7.46 5.12 9.39
11/11/2020 8:00:00 PM 12.78 55.004 0.031 7.45 4.78 9.38
11/11/2020 8:15:00 PM 12.78 55.004 0.032 7.44 4.74 9.38
11/11/2020 8:30:00 PM 12.77 54.986 0.031 7.43 4.71 9.39
11/11/2020 8:45:00 PM 12.77 54.986 0.031 7.43 5.11 9.38
11/11/2020 9:00:00 PM 12.76 54.968 0.031 7.42 4.56 9.39
11/11/2020 9:15:00 PM 12.75 54.95 0.031 7.41 4.7 9.39
11/11/2020 9:30:00 PM 12.74 54.932 0.031 7.41 5.47 9.41
11/11/2020 9:45:00 PM 12.74 54.932 0.031 7.41 4.66 9.41
11/11/2020 10:00:00 PM 12.74 54.932 0.031 7.41 4.76 9.39
11/11/2020 10:15:00 PM 12.74 54.932 0.031 7.41 4.87 9.4
11/11/2020 10:30:00 PM 12.73 54.914 0.031 7.41 4.91 9.41
11/11/2020 10:45:00 PM 12.72 54.896 0.03 7.4 5.21 9.4
11/11/2020 11:00:00 PM 12.74 54.932 0.03 7.4 5.8 9.4
11/11/2020 11:15:00 PM 12.76 54.968 0.031 7.4 5.33 9.39
11/11/2020 11:30:00 PM 12.77 54.986 0.031 7.4 5.34 9.37
11/11/2020 11:45:00 PM 12.78 55.004 0.031 7.39 5.46 9.36
11/12/2020 12:00:00 AM 12.79 55.022 0.03 7.39 5.25 9.37
11/12/2020 12:15:00 AM 12.81 55.058 0.031 7.4 5.48 9.38
11/12/2020 12:30:00 AM 12.8 55.04 0.031 7.41 5.36 9.39
11/12/2020 12:45:00 AM 12.78 55.004 0.03 7.41 5.21 9.4
11/12/2020 1:00:00 AM 12.76 54.968 0.03 7.42 5.29 9.41
11/12/2020 1:15:00 AM 12.73 54.914 0.03 7.42 5.33 9.43
11/12/2020 1:30:00 AM 12.7 54.86 0.03 7.43 5.35 9.45
11/12/2020 1:45:00 AM 12.66 54.788 0.031 7.43 5.28 9.47
11/12/2020 2:00:00 AM 12.62 54.716 0.03 7.44 5.18 9.49
11/12/2020 2:15:00 AM 12.57 54.626 0.03 7.44 5.23 9.51
11/12/2020 2:30:00 AM 12.53 54.554 0.03 7.44 5.16 9.53
11/12/2020 2:45:00 AM 12.48 54.464 0.031 7.45 5.05 9.55
11/12/2020 3:00:00 AM 12.44 54.392 0.03 7.45 5.17 9.57
11/12/2020 3:15:00 AM 12.4 54.32 0.03 7.45 5.05 9.59
11/12/2020 3:30:00 AM 12.36 54.248 0.03 7.45 4.94 9.6
11/12/2020 3:45:00 AM 12.31 54.158 0.03 7.45 5.11 9.63
11/12/2020 4:00:00 AM 12.26 54.068 0.03 7.46 4.88 9.63
11/12/2020 4:15:00 AM 12.22 53.996 0.03 7.46 4.92 9.67
11/12/2020 4:30:00 AM 12.16 53.888 0.03 7.46 4.8 9.69
11/12/2020 4:45:00 AM 12.09 53.762 0.03 7.47 4.73 9.7
11/12/2020 5:00:00 AM 12.04 53.672 0.03 7.47 4.7 9.72
11/12/2020 5:15:00 AM 11.99 53.582 0.029 7.47 4.81 9.73
11/12/2020 5:30:00 AM 11.93 53.474 0.029 7.47 4.71 9.74
11/12/2020 5:45:00 AM 11.87 53.366 0.03 7.47 4.84 9.77
11/12/2020 6:00:00 AM 11.82 53.276 0.03 7.47 4.85 9.78
11/12/2020 6:15:00 AM 11.77 53.186 0.029 7.47 4.69 9.81
11/12/2020 6:30:00 AM 11.71 53.078 0.029 7.47 4.85 9.82
11/12/2020 6:45:00 AM 11.66 52.988 0.029 7.47 4.74 9.83
11/12/2020 7:00:00 AM 11.6 52.88 0.029 7.47 4.68 9.85
11/12/2020 7:15:00 AM 11.54 52.772 0.028 7.48 4.64 9.88
11/12/2020 7:30:00 AM 11.47 52.646 0.028 7.48 4.72 9.93
11/12/2020 7:45:00 AM 11.42 52.556 0.028 7.48 4.69 9.97
11/12/2020 8:00:00 AM 11.37 52.466 0.028 7.5 4.59 10.07
11/12/2020 8:15:00 AM 11.32 52.376 0.028 7.51 4.6 10.18
11/12/2020 8:30:00 AM 11.27 52.286 0.027 7.52 4.68 10.26
11/12/2020 8:45:00 AM 11.22 52.196 0.027 7.54 4.57 10.37
11/12/2020 9:00:00 AM 11.18 52.124 0.027 7.56 4.5 10.49
11/12/2020 9:15:00 AM 11.14 52.052 0.027 7.58 4.73 10.63
11/12/2020 9:30:00 AM 11.1 51.98 0.027 7.59 4.89 10.68
11/12/2020 9:45:00 AM 11.08 51.944 0.027 7.61 4.49 10.88
11/12/2020 10:00:00 AM 11.05 51.89 0.027 7.68 4.5 11.12
11/12/2020 10:15:00 AM 11.01 51.818 0.027 7.72 4.51 11.25
11/12/2020 10:30:00 AM 10.98 51.764 0.026 7.77 4.47 11.36
11/12/2020 10:45:00 AM 10.96 51.728 0.027 7.81 4.42 11.51
11/12/2020 11:00:00 AM 10.93 51.674 0.026 7.86 4.39 11.62
11/12/2020 11:15:00 AM 10.9 51.62 0.026 7.9 4.36 11.72
11/12/2020 11:30:00 AM 10.88 51.584 0.026 7.95 4.41 11.82
11/12/2020 11:45:00 AM 10.87 51.566 0.026 7.98 4.35 11.94
11/12/2020 12:00:00 PM 10.83 51.494 0.026 8.03 4.53 11.97
11/12/2020 12:15:00 PM 10.8 51.44 0.026 8.04 4.41 11.98
11/12/2020 12:30:00 PM 10.77 51.386 0.026 8.08 4.43 12.04
11/12/2020 12:45:00 PM 10.78 51.404 0.026 8.1 4.48 12.07
11/12/2020 1:00:00 PM 10.76 51.368 0.026 8.13 4.37 12.11
11/12/2020 1:15:00 PM 10.74 51.332 0.026 8.16 4.33 12.17
11/12/2020 1:30:00 PM 10.73 51.314 0.026 8.2 4.38 12.2
11/12/2020 1:45:00 PM 10.73 51.314 0.026 8.22 4.39 12.24
11/12/2020 2:00:00 PM 10.69 51.242 0.026 8.23 4.35 12.2
11/12/2020 2:15:00 PM 10.66 51.188 0.025 8.22 4.37 12.15
11/12/2020 2:30:00 PM 10.63 51.134 0.026 8.21 4.42 12.1
11/12/2020 2:45:00 PM 10.59 51.062 0.025 8.2 4.42 12.05
11/12/2020 3:00:00 PM 10.55 50.99 0.025 8.18 4.46 11.99
11/12/2020 3:15:00 PM 10.5 50.9 0.025 8.16 4.39 11.91
11/12/2020 3:30:00 PM 10.44 50.792 0.025 8.1 4.49 11.77
11/12/2020 3:45:00 PM 10.39 50.702 0.025 8.05 4.36 11.64
11/12/2020 4:00:00 PM 10.34 50.612 0.025 7.99 4.34 11.5
11/12/2020 4:15:00 PM 10.28 50.504 0.024 7.92 4.44 11.34
11/12/2020 4:30:00 PM 10.22 50.396 0.024 7.86 4.51 11.18
11/12/2020 4:45:00 PM 10.16 50.288 0.024 7.8 4.49 11.04
11/12/2020 5:00:00 PM 10.09 50.162 0.024 7.75 4.52 10.91
11/12/2020 5:15:00 PM 10.02 50.036 0.024 7.69 4.57 10.79
11/12/2020 5:30:00 PM 9.95 49.91 0.023 7.66 4.67 10.7
11/12/2020 5:45:00 PM 9.88 49.784 0.023 7.62 4.83 10.65
11/12/2020 6:00:00 PM 9.8 49.64 0.023 7.6 4.88 10.6
11/12/2020 6:15:00 PM 9.73 49.514 0.023 7.58 4.75 10.58
11/12/2020 6:30:00 PM 9.66 49.388 0.023 7.57 4.62 10.56
11/12/2020 6:45:00 PM 9.58 49.244 0.023 7.56 4.58 10.55
11/12/2020 7:00:00 PM 9.51 49.118 0.023 7.54 4.69 10.56
11/12/2020 7:15:00 PM 9.43 48.974 0.022 7.53 4.7 10.54
11/12/2020 7:30:00 PM 9.35 48.83 0.022 7.53 4.56 10.56
11/12/2020 7:45:00 PM 9.28 48.704 0.022 7.51 4.62 10.57
11/12/2020 8:00:00 PM 9.2 48.56 0.022 7.51 4.66 10.59
11/12/2020 8:15:00 PM 9.11 48.398 0.022 7.51 4.58 10.6
11/12/2020 8:30:00 PM 9.04 48.272 0.022 7.5 4.68 10.61
11/12/2020 8:45:00 PM 8.95 48.11 0.022 7.49 4.59 10.63
11/12/2020 9:00:00 PM 8.87 47.966 0.022 7.49 4.65 10.64
11/12/2020 9:15:00 PM 8.79 47.822 0.021 7.49 4.62 10.67
11/12/2020 9:30:00 PM 8.7 47.66 0.021 7.48 4.51 10.69
11/12/2020 9:45:00 PM 8.63 47.534 0.021 7.48 4.67 10.71
11/12/2020 10:00:00 PM 8.54 47.372 0.021 7.48 4.59 10.75
11/12/2020 10:15:00 PM 8.46 47.228 0.021 7.48 4.53 10.76
11/12/2020 10:30:00 PM 8.37 47.066 0.021 7.47 4.56 10.78
11/12/2020 10:45:00 PM 8.29 46.922 0.021 7.47 4.66 10.8
11/12/2020 11:00:00 PM 8.21 46.778 0.021 7.47 4.65 10.82
11/12/2020 11:15:00 PM 8.12 46.616 0.02 7.48 4.58 10.86
11/12/2020 11:30:00 PM 8.05 46.49 0.02 7.47 4.5 10.87
11/12/2020 11:45:00 PM 7.97 46.346 0.02 7.47 4.59 10.9
11/13/2020 12:00:00 AM 7.89 46.202 0.02 7.46 4.58 10.92
11/13/2020 12:15:00 AM 7.81 46.058 0.02 7.46 4.54 10.94
11/13/2020 12:30:00 AM 7.74 45.932 0.02 7.46 4.44 10.96
11/13/2020 12:45:00 AM 7.67 45.806 0.02 7.46 4.53 10.99
11/13/2020 1:00:00 AM 7.6 45.68 0.02 7.46 4.68 11.01
11/13/2020 1:15:00 AM 7.53 45.554 0.02 7.46 4.56 11.03
11/13/2020 1:30:00 AM 7.46 45.428 0.019 7.46 4.58 11.05
11/13/2020 1:45:00 AM 7.38 45.284 0.019 7.45 4.61 11.06
11/13/2020 2:00:00 AM 7.32 45.176 0.019 7.46 4.67 11.09
11/13/2020 2:15:00 AM 7.26 45.068 0.019 7.46 4.67 11.11
11/13/2020 2:30:00 AM 7.22 44.996 0.019 7.46 4.58 11.13
11/13/2020 2:45:00 AM 7.2 44.96 0.019 7.46 4.67 11.15
11/13/2020 3:00:00 AM 7.18 44.924 0.019 7.45 4.58 11.16
11/13/2020 3:15:00 AM 7.17 44.906 0.019 7.46 4.46 11.17
11/13/2020 3:30:00 AM 7.16 44.888 0.019 7.46 4.44 11.19
11/13/2020 3:45:00 AM 7.14 44.852 0.019 7.46 4.57 11.2
11/13/2020 4:00:00 AM 7.13 44.834 0.019 7.46 4.5 11.21
11/13/2020 4:15:00 AM 7.12 44.816 0.019 7.45 4.54 11.2
11/13/2020 4:30:00 AM 7.1 44.78 0.019 7.45 4.54 11.21
11/13/2020 4:45:00 AM 7.09 44.762 0.019 7.46 4.57 11.21
11/13/2020 5:00:00 AM 7.08 44.744 0.019 7.46 4.62 11.22
11/13/2020 5:15:00 AM 7.08 44.744 0.019 7.46 4.48 11.24
11/13/2020 5:30:00 AM 7.07 44.726 0.019 7.46 4.55 11.23
11/13/2020 5:45:00 AM 7.06 44.708 0.019 7.46 4.5 11.23
11/13/2020 6:00:00 AM 7.06 44.708 0.019 7.46 4.44 11.23
11/13/2020 6:15:00 AM 7.06 44.708 0.019 7.46 4.44 11.24
11/13/2020 6:30:00 AM 7.06 44.708 0.019 7.47 4.5 11.25
11/13/2020 6:45:00 AM 7.06 44.708 0.019 7.46 4.5 11.24
11/13/2020 7:00:00 AM 7.06 44.708 0.019 7.46 4.46 11.24
11/13/2020 7:15:00 AM 7.07 44.726 0.019 7.47 4.39 11.29
11/13/2020 7:30:00 AM 7.08 44.744 0.019 7.48 4.55 11.35
11/13/2020 7:45:00 AM 7.09 44.762 0.019 7.49 4.36 11.37
11/13/2020 8:00:00 AM 7.1 44.78 0.019 7.5 4.38 11.44
11/13/2020 8:15:00 AM 7.11 44.798 0.019 7.51 4.44 11.47
11/13/2020 8:30:00 AM 7.13 44.834 0.018 7.52 4.43 11.52
11/13/2020 8:45:00 AM 7.14 44.852 0.019 7.53 4.39 11.56
11/13/2020 9:00:00 AM 7.19 44.942 0.019 7.56 4.34 11.77
11/13/2020 9:15:00 AM 7.25 45.05 0.019 7.62 4.28 12.04
11/13/2020 9:30:00 AM 7.3 45.14 0.019 7.66